<?xml version="1.0" encoding="UTF-8" standalone="no" ?>
<gpx xmlns="http://www.topografix.com/GPX/1/1" xmlns:xsi="http://www.w3.org/2001/XMLSchema-instance" xsi:schemaLocation="http://www.topografix.com/GPX/1/1 http://www.topografix.com/GPX/1/1/gpx.xsd" version="1.1" creator="VisuGPX - https://www.visugpx.com">
  <metadata>
    <name>J1 STUTT</name>
    <desc><![CDATA[Etape 1 - Bio vélo route Strasbourg à Stuttgart - De Strasbourg à Ottenhôfen.]]></desc>
  </metadata>
  <trk>
    <name><![CDATA[J1 STUTT]]></name>
    <extensions>
      <line xmlns="http://www.topografix.com/GPX/gpx_style/0/2">
        <color>0000FF</color>
        <width>4</width>
      </line>
    </extensions>
    <trkseg>
      <trkpt lat="48.58498" lon="7.73523">
        <ele>144.308804</ele>
        <time>2023-03-31T12:22:59.674Z</time>
      </trkpt>
      <trkpt lat="48.58495" lon="7.73532">
        <ele>144.308804</ele>
        <time>2023-03-31T12:23:04.498Z</time>
      </trkpt>
      <trkpt lat="48.58485" lon="7.7356">
        <ele>144.308804</ele>
        <time>2023-03-31T12:23:30.012Z</time>
      </trkpt>
      <trkpt lat="48.58484" lon="7.73561">
        <ele>144.308804</ele>
        <time>2023-03-31T12:23:31.063Z</time>
      </trkpt>
      <trkpt lat="48.58481" lon="7.7357">
        <ele>144.308804</ele>
        <time>2023-03-31T12:23:32.497Z</time>
      </trkpt>
      <trkpt lat="48.58485" lon="7.73571">
        <ele>144.308804</ele>
        <time>2023-03-31T12:23:33.493Z</time>
      </trkpt>
      <trkpt lat="48.58481" lon="7.73614">
        <ele>144.308804</ele>
        <time>2023-03-31T12:23:40.785Z</time>
      </trkpt>
      <trkpt lat="48.5848" lon="7.73628">
        <ele>144.308804</ele>
        <time>2023-03-31T12:23:43.095Z</time>
      </trkpt>
      <trkpt lat="48.58489" lon="7.73635">
        <ele>144.308804</ele>
        <time>2023-03-31T12:23:45.822Z</time>
      </trkpt>
      <trkpt lat="48.58489" lon="7.73642">
        <ele>144.307713</ele>
        <time>2023-03-31T12:23:46.875Z</time>
      </trkpt>
      <trkpt lat="48.58494" lon="7.73774">
        <ele>144.270212</ele>
        <time>2023-03-31T12:24:03.228Z</time>
      </trkpt>
      <trkpt lat="48.58498" lon="7.73873">
        <ele>144.241933</ele>
        <time>2023-03-31T12:24:14.592Z</time>
      </trkpt>
      <trkpt lat="48.58502" lon="7.74">
        <ele>144.205759</ele>
        <time>2023-03-31T12:24:30.090Z</time>
      </trkpt>
      <trkpt lat="48.58503" lon="7.74038">
        <ele>144.194877</ele>
        <time>2023-03-31T12:24:34.780Z</time>
      </trkpt>
      <trkpt lat="48.58462" lon="7.74068">
        <ele>144.175332</ele>
        <time>2023-03-31T12:24:45.601Z</time>
      </trkpt>
      <trkpt lat="48.58454" lon="7.74073">
        <ele>144.171502</ele>
        <time>2023-03-31T12:24:47.226Z</time>
      </trkpt>
      <trkpt lat="48.5845" lon="7.74076">
        <ele>144.169447</ele>
        <time>2023-03-31T12:24:48.069Z</time>
      </trkpt>
      <trkpt lat="48.58452" lon="7.74082">
        <ele>144.167549</ele>
        <time>2023-03-31T12:24:49.078Z</time>
      </trkpt>
      <trkpt lat="48.58456" lon="7.74098">
        <ele>144.162771</ele>
        <time>2023-03-31T12:24:51.694Z</time>
      </trkpt>
      <trkpt lat="48.58462" lon="7.74118">
        <ele>144.156634</ele>
        <time>2023-03-31T12:24:55.093Z</time>
      </trkpt>
      <trkpt lat="48.585" lon="7.7419">
        <ele>144.176501</ele>
        <time>2023-03-31T12:25:09.694Z</time>
      </trkpt>
      <trkpt lat="48.58535" lon="7.74262">
        <ele>144.200714</ele>
        <time>2023-03-31T12:25:24.687Z</time>
      </trkpt>
      <trkpt lat="48.58553" lon="7.74248">
        <ele>144.208634</ele>
        <time>2023-03-31T12:25:29.239Z</time>
      </trkpt>
      <trkpt lat="48.58576" lon="7.74321">
        <ele>144.216599</ele>
        <time>2023-03-31T12:25:41.897Z</time>
      </trkpt>
      <trkpt lat="48.58584" lon="7.74331">
        <ele>144.201946</ele>
        <time>2023-03-31T12:25:44.262Z</time>
      </trkpt>
      <trkpt lat="48.58581" lon="7.74337">
        <ele>144.195462</ele>
        <time>2023-03-31T12:25:45.064Z</time>
      </trkpt>
      <trkpt lat="48.58584" lon="7.74344">
        <ele>144.187543</ele>
        <time>2023-03-31T12:25:45.965Z</time>
      </trkpt>
      <trkpt lat="48.58581" lon="7.74347">
        <ele>144.182172</ele>
        <time>2023-03-31T12:25:46.683Z</time>
      </trkpt>
      <trkpt lat="48.58578" lon="7.74357">
        <ele>144.171776</ele>
        <time>2023-03-31T12:25:48.030Z</time>
      </trkpt>
      <trkpt lat="48.58574" lon="7.7436">
        <ele>144.165128</ele>
        <time>2023-03-31T12:25:48.922Z</time>
      </trkpt>
      <trkpt lat="48.58575" lon="7.74364">
        <ele>144.161395</ele>
        <time>2023-03-31T12:25:49.523Z</time>
      </trkpt>
      <trkpt lat="48.58604" lon="7.7443">
        <ele>144.085584</ele>
        <time>2023-03-31T12:26:02.070Z</time>
      </trkpt>
      <trkpt lat="48.58611" lon="7.74434">
        <ele>144.075741</ele>
        <time>2023-03-31T12:26:03.835Z</time>
      </trkpt>
      <trkpt lat="48.58642" lon="7.7451">
        <ele>143.991387</ele>
        <time>2023-03-31T12:26:18.240Z</time>
      </trkpt>
      <trkpt lat="48.58689" lon="7.74633">
        <ele>143.307932</ele>
        <time>2023-03-31T12:26:40.505Z</time>
      </trkpt>
      <trkpt lat="48.58694" lon="7.74653">
        <ele>143.194375</ele>
        <time>2023-03-31T12:26:43.642Z</time>
      </trkpt>
      <trkpt lat="48.58696" lon="7.74662">
        <ele>143.140774</ele>
        <time>2023-03-31T12:26:45.086Z</time>
      </trkpt>
      <trkpt lat="48.58737" lon="7.74808">
        <ele>142.224588</ele>
        <time>2023-03-31T12:27:08.386Z</time>
      </trkpt>
      <trkpt lat="48.5874" lon="7.74834">
        <ele>142.054151</ele>
        <time>2023-03-31T12:27:12.227Z</time>
      </trkpt>
      <trkpt lat="48.58737" lon="7.74844">
        <ele>141.983497</ele>
        <time>2023-03-31T12:27:13.815Z</time>
      </trkpt>
      <trkpt lat="48.58737" lon="7.74854">
        <ele>141.914721</ele>
        <time>2023-03-31T12:27:15.358Z</time>
      </trkpt>
      <trkpt lat="48.58737" lon="7.74867">
        <ele>141.831665</ele>
        <time>2023-03-31T12:27:17.227Z</time>
      </trkpt>
      <trkpt lat="48.58711" lon="7.75114">
        <ele>140.78334</ele>
        <time>2023-03-31T12:27:55.690Z</time>
      </trkpt>
      <trkpt lat="48.58682" lon="7.75216">
        <ele>140.89854</ele>
        <time>2023-03-31T12:28:13.471Z</time>
      </trkpt>
      <trkpt lat="48.58668" lon="7.75258">
        <ele>140.947688</ele>
        <time>2023-03-31T12:28:21.321Z</time>
      </trkpt>
      <trkpt lat="48.58656" lon="7.75296">
        <ele>141.018486</ele>
        <time>2023-03-31T12:28:28.453Z</time>
      </trkpt>
      <trkpt lat="48.58658" lon="7.75304">
        <ele>141.085226</ele>
        <time>2023-03-31T12:28:29.912Z</time>
      </trkpt>
      <trkpt lat="48.58663" lon="7.75319">
        <ele>141.207709</ele>
        <time>2023-03-31T12:28:32.608Z</time>
      </trkpt>
      <trkpt lat="48.58662" lon="7.75324">
        <ele>141.243475</ele>
        <time>2023-03-31T12:28:33.415Z</time>
      </trkpt>
      <trkpt lat="48.58661" lon="7.75327">
        <ele>141.268932</ele>
        <time>2023-03-31T12:28:33.997Z</time>
      </trkpt>
      <trkpt lat="48.58646" lon="7.75337">
        <ele>141.459631</ele>
        <time>2023-03-31T12:28:37.841Z</time>
      </trkpt>
      <trkpt lat="48.58646" lon="7.75337">
        <ele>141.464421</ele>
        <time>2023-03-31T12:28:37.929Z</time>
      </trkpt>
      <trkpt lat="48.58639" lon="7.75341">
        <ele>141.541527</ele>
        <time>2023-03-31T12:28:39.351Z</time>
      </trkpt>
      <trkpt lat="48.58619" lon="7.75401">
        <ele>142.04711</ele>
        <time>2023-03-31T12:28:49.267Z</time>
      </trkpt>
      <trkpt lat="48.5861" lon="7.75429">
        <ele>142.280028</ele>
        <time>2023-03-31T12:28:54.097Z</time>
      </trkpt>
      <trkpt lat="48.58599" lon="7.75461">
        <ele>142.551355</ele>
        <time>2023-03-31T12:28:59.113Z</time>
      </trkpt>
      <trkpt lat="48.58588" lon="7.7549">
        <ele>142.800074</ele>
        <time>2023-03-31T12:29:03.575Z</time>
      </trkpt>
      <trkpt lat="48.58569" lon="7.75529">
        <ele>142.9326</ele>
        <time>2023-03-31T12:29:09.825Z</time>
      </trkpt>
      <trkpt lat="48.58563" lon="7.75545">
        <ele>142.830591</ele>
        <time>2023-03-31T12:29:12.007Z</time>
      </trkpt>
      <trkpt lat="48.58559" lon="7.75553">
        <ele>142.777548</ele>
        <time>2023-03-31T12:29:13.144Z</time>
      </trkpt>
      <trkpt lat="48.58556" lon="7.75559">
        <ele>142.737142</ele>
        <time>2023-03-31T12:29:14.027Z</time>
      </trkpt>
      <trkpt lat="48.58555" lon="7.7557">
        <ele>142.67654</ele>
        <time>2023-03-31T12:29:15.331Z</time>
      </trkpt>
      <trkpt lat="48.58536" lon="7.75608">
        <ele>142.414837</ele>
        <time>2023-03-31T12:29:20.633Z</time>
      </trkpt>
      <trkpt lat="48.58532" lon="7.75615">
        <ele>142.367724</ele>
        <time>2023-03-31T12:29:21.608Z</time>
      </trkpt>
      <trkpt lat="48.58469" lon="7.75744">
        <ele>141.471224</ele>
        <time>2023-03-31T12:29:39.418Z</time>
      </trkpt>
      <trkpt lat="48.58462" lon="7.75759">
        <ele>141.351751</ele>
        <time>2023-03-31T12:29:41.316Z</time>
      </trkpt>
      <trkpt lat="48.58464" lon="7.75784">
        <ele>141.182258</ele>
        <time>2023-03-31T12:29:43.885Z</time>
      </trkpt>
      <trkpt lat="48.5846" lon="7.75792">
        <ele>141.11598</ele>
        <time>2023-03-31T12:29:44.837Z</time>
      </trkpt>
      <trkpt lat="48.58458" lon="7.75798">
        <ele>141.068378</ele>
        <time>2023-03-31T12:29:45.570Z</time>
      </trkpt>
      <trkpt lat="48.58462" lon="7.75802">
        <ele>141.019718</ele>
        <time>2023-03-31T12:29:46.316Z</time>
      </trkpt>
      <trkpt lat="48.58464" lon="7.75803">
        <ele>141.000463</ele>
        <time>2023-03-31T12:29:46.611Z</time>
      </trkpt>
      <trkpt lat="48.58576" lon="7.75869">
        <ele>139.766538</ele>
        <time>2023-03-31T12:30:06.397Z</time>
      </trkpt>
      <trkpt lat="48.58578" lon="7.75874">
        <ele>139.724634</ele>
        <time>2023-03-31T12:30:07.162Z</time>
      </trkpt>
      <trkpt lat="48.58585" lon="7.75877">
        <ele>139.760594</ele>
        <time>2023-03-31T12:30:08.484Z</time>
      </trkpt>
      <trkpt lat="48.58591" lon="7.75881">
        <ele>139.864442</ele>
        <time>2023-03-31T12:30:10.006Z</time>
      </trkpt>
      <trkpt lat="48.58587" lon="7.75894">
        <ele>140.003609</ele>
        <time>2023-03-31T12:30:12.099Z</time>
      </trkpt>
      <trkpt lat="48.58577" lon="7.75927">
        <ele>140.36362</ele>
        <time>2023-03-31T12:30:18.517Z</time>
      </trkpt>
      <trkpt lat="48.58578" lon="7.75935">
        <ele>140.441996</ele>
        <time>2023-03-31T12:30:19.919Z</time>
      </trkpt>
      <trkpt lat="48.58582" lon="7.75945">
        <ele>140.566115</ele>
        <time>2023-03-31T12:30:21.813Z</time>
      </trkpt>
      <trkpt lat="48.58586" lon="7.75954">
        <ele>140.662111</ele>
        <time>2023-03-31T12:30:23.333Z</time>
      </trkpt>
      <trkpt lat="48.586" lon="7.75989">
        <ele>141.075069</ele>
        <time>2023-03-31T12:30:29.553Z</time>
      </trkpt>
      <trkpt lat="48.58623" lon="7.76041">
        <ele>141.687283</ele>
        <time>2023-03-31T12:30:38.737Z</time>
      </trkpt>
      <trkpt lat="48.58643" lon="7.76085">
        <ele>142.225955</ele>
        <time>2023-03-31T12:30:46.635Z</time>
      </trkpt>
      <trkpt lat="48.58667" lon="7.76131">
        <ele>142.653707</ele>
        <time>2023-03-31T12:30:55.309Z</time>
      </trkpt>
      <trkpt lat="48.58676" lon="7.76144">
        <ele>142.769026</ele>
        <time>2023-03-31T12:30:58.086Z</time>
      </trkpt>
      <trkpt lat="48.58718" lon="7.76197">
        <ele>143.288058</ele>
        <time>2023-03-31T12:31:10.182Z</time>
      </trkpt>
      <trkpt lat="48.58739" lon="7.76224">
        <ele>143.545882</ele>
        <time>2023-03-31T12:31:15.972Z</time>
      </trkpt>
      <trkpt lat="48.58748" lon="7.76247">
        <ele>143.715569</ele>
        <time>2023-03-31T12:31:19.552Z</time>
      </trkpt>
      <trkpt lat="48.58791" lon="7.76298">
        <ele>144.061077</ele>
        <time>2023-03-31T12:31:29.117Z</time>
      </trkpt>
      <trkpt lat="48.58825" lon="7.76323">
        <ele>143.96757</ele>
        <time>2023-03-31T12:31:35.433Z</time>
      </trkpt>
      <trkpt lat="48.58843" lon="7.76331">
        <ele>143.920797</ele>
        <time>2023-03-31T12:31:38.591Z</time>
      </trkpt>
      <trkpt lat="48.58876" lon="7.76338">
        <ele>143.837452</ele>
        <time>2023-03-31T12:31:44.307Z</time>
      </trkpt>
      <trkpt lat="48.58943" lon="7.76338">
        <ele>143.67085</ele>
        <time>2023-03-31T12:31:56.401Z</time>
      </trkpt>
      <trkpt lat="48.58985" lon="7.76357">
        <ele>144.030471</ele>
        <time>2023-03-31T12:32:05.849Z</time>
      </trkpt>
      <trkpt lat="48.5901" lon="7.76382">
        <ele>144.359471</ele>
        <time>2023-03-31T12:32:12.792Z</time>
      </trkpt>
      <trkpt lat="48.59064" lon="7.76453">
        <ele>145.132027</ele>
        <time>2023-03-31T12:32:28.687Z</time>
      </trkpt>
      <trkpt lat="48.59082" lon="7.76479">
        <ele>145.396279</ele>
        <time>2023-03-31T12:32:33.797Z</time>
      </trkpt>
      <trkpt lat="48.591" lon="7.76505">
        <ele>145.443701</ele>
        <time>2023-03-31T12:32:38.744Z</time>
      </trkpt>
      <trkpt lat="48.59129" lon="7.76547">
        <ele>144.568153</ele>
        <time>2023-03-31T12:32:45.611Z</time>
      </trkpt>
      <trkpt lat="48.5917" lon="7.76585">
        <ele>143.491378</ele>
        <time>2023-03-31T12:32:53.155Z</time>
      </trkpt>
      <trkpt lat="48.59194" lon="7.76602">
        <ele>142.906498</ele>
        <time>2023-03-31T12:32:57.044Z</time>
      </trkpt>
      <trkpt lat="48.59256" lon="7.76622">
        <ele>141.480327</ele>
        <time>2023-03-31T12:33:05.840Z</time>
      </trkpt>
      <trkpt lat="48.5926" lon="7.76624">
        <ele>141.378849</ele>
        <time>2023-03-31T12:33:06.412Z</time>
      </trkpt>
      <trkpt lat="48.59327" lon="7.76636">
        <ele>139.730119</ele>
        <time>2023-03-31T12:33:15.583Z</time>
      </trkpt>
      <trkpt lat="48.5943" lon="7.76661">
        <ele>137.2212</ele>
        <time>2023-03-31T12:33:32.556Z</time>
      </trkpt>
      <trkpt lat="48.5946" lon="7.76683">
        <ele>137.601111</ele>
        <time>2023-03-31T12:33:39.055Z</time>
      </trkpt>
      <trkpt lat="48.59472" lon="7.76693">
        <ele>137.744312</ele>
        <time>2023-03-31T12:33:41.601Z</time>
      </trkpt>
      <trkpt lat="48.59509" lon="7.76724">
        <ele>138.22546</ele>
        <time>2023-03-31T12:33:50.258Z</time>
      </trkpt>
      <trkpt lat="48.59559" lon="7.76776">
        <ele>138.903412</ele>
        <time>2023-03-31T12:34:03.622Z</time>
      </trkpt>
      <trkpt lat="48.59566" lon="7.76777">
        <ele>138.983855</ele>
        <time>2023-03-31T12:34:05.259Z</time>
      </trkpt>
      <trkpt lat="48.59573" lon="7.76779">
        <ele>139.069871</ele>
        <time>2023-03-31T12:34:06.991Z</time>
      </trkpt>
      <trkpt lat="48.59582" lon="7.7679">
        <ele>139.19387</ele>
        <time>2023-03-31T12:34:09.572Z</time>
      </trkpt>
      <trkpt lat="48.59585" lon="7.76797">
        <ele>139.300429</ele>
        <time>2023-03-31T12:34:10.969Z</time>
      </trkpt>
      <trkpt lat="48.59595" lon="7.76805">
        <ele>139.613601</ele>
        <time>2023-03-31T12:34:13.743Z</time>
      </trkpt>
      <trkpt lat="48.596" lon="7.76804">
        <ele>139.758197</ele>
        <time>2023-03-31T12:34:14.952Z</time>
      </trkpt>
      <trkpt lat="48.59612" lon="7.7679">
        <ele>140.180868</ele>
        <time>2023-03-31T12:34:18.677Z</time>
      </trkpt>
      <trkpt lat="48.59649" lon="7.76747">
        <ele>141.452921</ele>
        <time>2023-03-31T12:34:31.068Z</time>
      </trkpt>
      <trkpt lat="48.59697" lon="7.76714">
        <ele>142.893452</ele>
        <time>2023-03-31T12:34:44.391Z</time>
      </trkpt>
      <trkpt lat="48.59736" lon="7.76702">
        <ele>143.999368</ele>
        <time>2023-03-31T12:34:53.904Z</time>
      </trkpt>
      <trkpt lat="48.59788" lon="7.76699">
        <ele>143.806974</ele>
        <time>2023-03-31T12:35:05.206Z</time>
      </trkpt>
      <trkpt lat="48.59795" lon="7.76699">
        <ele>143.752508</ele>
        <time>2023-03-31T12:35:06.449Z</time>
      </trkpt>
      <trkpt lat="48.59806" lon="7.76719">
        <ele>143.61798</ele>
        <time>2023-03-31T12:35:09.670Z</time>
      </trkpt>
      <trkpt lat="48.59813" lon="7.76725">
        <ele>143.558564</ele>
        <time>2023-03-31T12:35:11.039Z</time>
      </trkpt>
      <trkpt lat="48.59869" lon="7.76764">
        <ele>143.090592</ele>
        <time>2023-03-31T12:35:21.503Z</time>
      </trkpt>
      <trkpt lat="48.59884" lon="7.76769">
        <ele>142.978528</ele>
        <time>2023-03-31T12:35:24.551Z</time>
      </trkpt>
      <trkpt lat="48.5989" lon="7.76766">
        <ele>142.93339</ele>
        <time>2023-03-31T12:35:25.639Z</time>
      </trkpt>
      <trkpt lat="48.59933" lon="7.76741">
        <ele>142.08413</ele>
        <time>2023-03-31T12:35:32.373Z</time>
      </trkpt>
      <trkpt lat="48.59942" lon="7.76773">
        <ele>141.498668</ele>
        <time>2023-03-31T12:35:35.598Z</time>
      </trkpt>
      <trkpt lat="48.59919" lon="7.76811">
        <ele>140.650703</ele>
        <time>2023-03-31T12:35:40.343Z</time>
      </trkpt>
      <trkpt lat="48.59928" lon="7.76824">
        <ele>140.323609</ele>
        <time>2023-03-31T12:35:42.865Z</time>
      </trkpt>
      <trkpt lat="48.59942" lon="7.76842">
        <ele>139.879691</ele>
        <time>2023-03-31T12:35:45.581Z</time>
      </trkpt>
      <trkpt lat="48.59949" lon="7.76853">
        <ele>139.609249</ele>
        <time>2023-03-31T12:35:47.682Z</time>
      </trkpt>
      <trkpt lat="48.59949" lon="7.76856">
        <ele>139.572583</ele>
        <time>2023-03-31T12:35:47.980Z</time>
      </trkpt>
      <trkpt lat="48.59942" lon="7.76869">
        <ele>139.279063</ele>
        <time>2023-03-31T12:35:49.875Z</time>
      </trkpt>
      <trkpt lat="48.5994" lon="7.76867">
        <ele>139.214868</ele>
        <time>2023-03-31T12:35:50.317Z</time>
      </trkpt>
      <trkpt lat="48.59927" lon="7.76887">
        <ele>138.752935</ele>
        <time>2023-03-31T12:35:53.243Z</time>
      </trkpt>
      <trkpt lat="48.5987" lon="7.7698">
        <ele>137.901711</ele>
        <time>2023-03-31T12:36:07.926Z</time>
      </trkpt>
      <trkpt lat="48.59855" lon="7.77004">
        <ele>137.776595</ele>
        <time>2023-03-31T12:36:11.756Z</time>
      </trkpt>
      <trkpt lat="48.59759" lon="7.7716">
        <ele>137.064813</ele>
        <time>2023-03-31T12:36:36.854Z</time>
      </trkpt>
      <trkpt lat="48.59757" lon="7.77163">
        <ele>137.054596</ele>
        <time>2023-03-31T12:36:37.297Z</time>
      </trkpt>
      <trkpt lat="48.59706" lon="7.77243">
        <ele>136.777733</ele>
        <time>2023-03-31T12:36:49.823Z</time>
      </trkpt>
      <trkpt lat="48.597" lon="7.77253">
        <ele>136.744932</ele>
        <time>2023-03-31T12:36:51.454Z</time>
      </trkpt>
      <trkpt lat="48.59652" lon="7.7733">
        <ele>136.582365</ele>
        <time>2023-03-31T12:37:04.709Z</time>
      </trkpt>
      <trkpt lat="48.59646" lon="7.77341">
        <ele>136.588911</ele>
        <time>2023-03-31T12:37:06.464Z</time>
      </trkpt>
      <trkpt lat="48.59641" lon="7.77349">
        <ele>136.594024</ele>
        <time>2023-03-31T12:37:07.809Z</time>
      </trkpt>
      <trkpt lat="48.59637" lon="7.77351">
        <ele>136.597042</ele>
        <time>2023-03-31T12:37:08.542Z</time>
      </trkpt>
      <trkpt lat="48.59617" lon="7.77384">
        <ele>136.617783</ele>
        <time>2023-03-31T12:37:15.694Z</time>
      </trkpt>
      <trkpt lat="48.59574" lon="7.77435">
        <ele>136.655652</ele>
        <time>2023-03-31T12:37:25.538Z</time>
      </trkpt>
      <trkpt lat="48.59559" lon="7.7746">
        <ele>136.671817</ele>
        <time>2023-03-31T12:37:31.116Z</time>
      </trkpt>
      <trkpt lat="48.59542" lon="7.77503">
        <ele>136.697777</ele>
        <time>2023-03-31T12:37:37.377Z</time>
      </trkpt>
      <trkpt lat="48.59535" lon="7.77515">
        <ele>136.714429</ele>
        <time>2023-03-31T12:37:39.359Z</time>
      </trkpt>
      <trkpt lat="48.59538" lon="7.77525">
        <ele>136.724829</ele>
        <time>2023-03-31T12:37:40.670Z</time>
      </trkpt>
      <trkpt lat="48.59485" lon="7.77603">
        <ele>136.838142</ele>
        <time>2023-03-31T12:37:54.874Z</time>
      </trkpt>
      <trkpt lat="48.59419" lon="7.77709">
        <ele>137.006893</ele>
        <time>2023-03-31T12:38:12.351Z</time>
      </trkpt>
      <trkpt lat="48.59416" lon="7.77722">
        <ele>137.036404</ele>
        <time>2023-03-31T12:38:14.020Z</time>
      </trkpt>
      <trkpt lat="48.59504" lon="7.77839">
        <ele>137.420581</ele>
        <time>2023-03-31T12:38:37.382Z</time>
      </trkpt>
      <trkpt lat="48.59519" lon="7.77847">
        <ele>137.47312</ele>
        <time>2023-03-31T12:38:40.552Z</time>
      </trkpt>
      <trkpt lat="48.59528" lon="7.77865">
        <ele>137.522441</ele>
        <time>2023-03-31T12:38:43.276Z</time>
      </trkpt>
      <trkpt lat="48.59551" lon="7.77942">
        <ele>137.621115</ele>
        <time>2023-03-31T12:38:53.566Z</time>
      </trkpt>
      <trkpt lat="48.59558" lon="7.77976">
        <ele>137.655355</ele>
        <time>2023-03-31T12:38:57.782Z</time>
      </trkpt>
      <trkpt lat="48.59578" lon="7.78078">
        <ele>137.758039</ele>
        <time>2023-03-31T12:39:10.517Z</time>
      </trkpt>
      <trkpt lat="48.59583" lon="7.781">
        <ele>137.780343</ele>
        <time>2023-03-31T12:39:13.393Z</time>
      </trkpt>
      <trkpt lat="48.59609" lon="7.78171">
        <ele>138.011117</ele>
        <time>2023-03-31T12:39:24.134Z</time>
      </trkpt>
      <trkpt lat="48.59626" lon="7.78223">
        <ele>138.266848</ele>
        <time>2023-03-31T12:39:32.312Z</time>
      </trkpt>
      <trkpt lat="48.59627" lon="7.78244">
        <ele>138.359727</ele>
        <time>2023-03-31T12:39:35.334Z</time>
      </trkpt>
      <trkpt lat="48.59615" lon="7.78299">
        <ele>138.613463</ele>
        <time>2023-03-31T12:39:43.101Z</time>
      </trkpt>
      <trkpt lat="48.59602" lon="7.7834">
        <ele>138.815451</ele>
        <time>2023-03-31T12:39:49.026Z</time>
      </trkpt>
      <trkpt lat="48.596" lon="7.78348">
        <ele>138.851857</ele>
        <time>2023-03-31T12:39:50.022Z</time>
      </trkpt>
      <trkpt lat="48.59593" lon="7.78377">
        <ele>138.989217</ele>
        <time>2023-03-31T12:39:54.003Z</time>
      </trkpt>
      <trkpt lat="48.59591" lon="7.78448">
        <ele>138.814111</ele>
        <time>2023-03-31T12:40:03.180Z</time>
      </trkpt>
      <trkpt lat="48.5959" lon="7.78532">
        <ele>138.551943</ele>
        <time>2023-03-31T12:40:13.080Z</time>
      </trkpt>
      <trkpt lat="48.5959" lon="7.78558">
        <ele>138.468713</ele>
        <time>2023-03-31T12:40:16.256Z</time>
      </trkpt>
      <trkpt lat="48.59593" lon="7.78575">
        <ele>138.413496</ele>
        <time>2023-03-31T12:40:18.195Z</time>
      </trkpt>
      <trkpt lat="48.59587" lon="7.78603">
        <ele>138.322113</ele>
        <time>2023-03-31T12:40:21.533Z</time>
      </trkpt>
      <trkpt lat="48.59566" lon="7.78651">
        <ele>138.102582</ele>
        <time>2023-03-31T12:40:27.778Z</time>
      </trkpt>
      <trkpt lat="48.59562" lon="7.78658">
        <ele>138.029757</ele>
        <time>2023-03-31T12:40:28.738Z</time>
      </trkpt>
      <trkpt lat="48.59571" lon="7.78673">
        <ele>137.86867</ele>
        <time>2023-03-31T12:40:30.859Z</time>
      </trkpt>
      <trkpt lat="48.59589" lon="7.78723">
        <ele>137.411592</ele>
        <time>2023-03-31T12:40:37.118Z</time>
      </trkpt>
      <trkpt lat="48.59594" lon="7.7875">
        <ele>137.18521</ele>
        <time>2023-03-31T12:40:40.409Z</time>
      </trkpt>
      <trkpt lat="48.596" lon="7.78818">
        <ele>136.633379</ele>
        <time>2023-03-31T12:40:48.640Z</time>
      </trkpt>
      <trkpt lat="48.59608" lon="7.78863">
        <ele>136.256648</ele>
        <time>2023-03-31T12:40:54.173Z</time>
      </trkpt>
      <trkpt lat="48.59614" lon="7.78917">
        <ele>135.964311</ele>
        <time>2023-03-31T12:41:00.734Z</time>
      </trkpt>
      <trkpt lat="48.59618" lon="7.78948">
        <ele>135.94447</ele>
        <time>2023-03-31T12:41:04.470Z</time>
      </trkpt>
      <trkpt lat="48.59624" lon="7.78979">
        <ele>135.923707</ele>
        <time>2023-03-31T12:41:08.434Z</time>
      </trkpt>
      <trkpt lat="48.59637" lon="7.79013">
        <ele>135.898495</ele>
        <time>2023-03-31T12:41:13.323Z</time>
      </trkpt>
      <trkpt lat="48.59645" lon="7.79026">
        <ele>135.887029</ele>
        <time>2023-03-31T12:41:15.573Z</time>
      </trkpt>
      <trkpt lat="48.59671" lon="7.79056">
        <ele>135.855709</ele>
        <time>2023-03-31T12:41:21.896Z</time>
      </trkpt>
      <trkpt lat="48.59684" lon="7.79066">
        <ele>135.841269</ele>
        <time>2023-03-31T12:41:24.941Z</time>
      </trkpt>
      <trkpt lat="48.59747" lon="7.79086">
        <ele>135.951224</ele>
        <time>2023-03-31T12:41:38.379Z</time>
      </trkpt>
      <trkpt lat="48.59842" lon="7.79111">
        <ele>136.531538</ele>
        <time>2023-03-31T12:41:59.169Z</time>
      </trkpt>
      <trkpt lat="48.59878" lon="7.79112">
        <ele>136.748793</ele>
        <time>2023-03-31T12:42:06.577Z</time>
      </trkpt>
      <trkpt lat="48.59899" lon="7.79107">
        <ele>136.876051</ele>
        <time>2023-03-31T12:42:10.635Z</time>
      </trkpt>
      <trkpt lat="48.59911" lon="7.79106">
        <ele>136.844106</ele>
        <time>2023-03-31T12:42:12.899Z</time>
      </trkpt>
      <trkpt lat="48.59911" lon="7.79095">
        <ele>136.817257</ele>
        <time>2023-03-31T12:42:14.288Z</time>
      </trkpt>
      <trkpt lat="48.59911" lon="7.79084">
        <ele>136.789398</ele>
        <time>2023-03-31T12:42:15.708Z</time>
      </trkpt>
      <trkpt lat="48.59919" lon="7.79083">
        <ele>136.758892</ele>
        <time>2023-03-31T12:42:17.189Z</time>
      </trkpt>
      <trkpt lat="48.59951" lon="7.79084">
        <ele>136.634957</ele>
        <time>2023-03-31T12:42:23.250Z</time>
      </trkpt>
      <trkpt lat="48.59979" lon="7.7909">
        <ele>136.523866</ele>
        <time>2023-03-31T12:42:28.588Z</time>
      </trkpt>
      <trkpt lat="48.60009" lon="7.79103">
        <ele>136.400067</ele>
        <time>2023-03-31T12:42:34.448Z</time>
      </trkpt>
      <trkpt lat="48.60036" lon="7.79119">
        <ele>136.287855</ele>
        <time>2023-03-31T12:42:39.702Z</time>
      </trkpt>
      <trkpt lat="48.60075" lon="7.79156">
        <ele>136.118351</ele>
        <time>2023-03-31T12:42:48.079Z</time>
      </trkpt>
      <trkpt lat="48.60158" lon="7.7924">
        <ele>135.783421</ele>
        <time>2023-03-31T12:43:06.432Z</time>
      </trkpt>
      <trkpt lat="48.60167" lon="7.79245">
        <ele>135.751774</ele>
        <time>2023-03-31T12:43:08.426Z</time>
      </trkpt>
      <trkpt lat="48.6023" lon="7.79247">
        <ele>135.606346</ele>
        <time>2023-03-31T12:43:20.659Z</time>
      </trkpt>
      <trkpt lat="48.60247" lon="7.79242">
        <ele>135.647464</ele>
        <time>2023-03-31T12:43:24.108Z</time>
      </trkpt>
      <trkpt lat="48.60252" lon="7.79237">
        <ele>135.663675</ele>
        <time>2023-03-31T12:43:25.449Z</time>
      </trkpt>
      <trkpt lat="48.60283" lon="7.7923">
        <ele>135.73865</ele>
        <time>2023-03-31T12:43:31.809Z</time>
      </trkpt>
      <trkpt lat="48.6029" lon="7.79235">
        <ele>135.759284</ele>
        <time>2023-03-31T12:43:33.511Z</time>
      </trkpt>
      <trkpt lat="48.60305" lon="7.79244">
        <ele>135.796977</ele>
        <time>2023-03-31T12:43:36.443Z</time>
      </trkpt>
      <trkpt lat="48.6029" lon="7.79235">
        <ele>135.834669</ele>
        <time>2023-03-31T12:43:39.370Z</time>
      </trkpt>
      <trkpt lat="48.60289" lon="7.79258">
        <ele>135.87094</ele>
        <time>2023-03-31T12:43:42.075Z</time>
      </trkpt>
      <trkpt lat="48.60284" lon="7.79268">
        <ele>135.890676</ele>
        <time>2023-03-31T12:43:43.625Z</time>
      </trkpt>
      <trkpt lat="48.60287" lon="7.79282">
        <ele>135.913966</ele>
        <time>2023-03-31T12:43:45.456Z</time>
      </trkpt>
      <trkpt lat="48.60296" lon="7.79286">
        <ele>135.93733</ele>
        <time>2023-03-31T12:43:47.198Z</time>
      </trkpt>
      <trkpt lat="48.60309" lon="7.79331">
        <ele>136.01722</ele>
        <time>2023-03-31T12:43:53.453Z</time>
      </trkpt>
      <trkpt lat="48.60313" lon="7.79343">
        <ele>136.050018</ele>
        <time>2023-03-31T12:43:55.128Z</time>
      </trkpt>
      <trkpt lat="48.60325" lon="7.7938">
        <ele>136.14983</ele>
        <time>2023-03-31T12:44:00.325Z</time>
      </trkpt>
      <trkpt lat="48.60343" lon="7.7943">
        <ele>136.286519</ele>
        <time>2023-03-31T12:44:07.533Z</time>
      </trkpt>
      <trkpt lat="48.60348" lon="7.79453">
        <ele>136.346811</ele>
        <time>2023-03-31T12:44:10.785Z</time>
      </trkpt>
      <trkpt lat="48.60343" lon="7.79537">
        <ele>136.550708</ele>
        <time>2023-03-31T12:44:22.395Z</time>
      </trkpt>
      <trkpt lat="48.60341" lon="7.79551">
        <ele>136.586706</ele>
        <time>2023-03-31T12:44:24.321Z</time>
      </trkpt>
      <trkpt lat="48.6034" lon="7.79574">
        <ele>136.642633</ele>
        <time>2023-03-31T12:44:27.032Z</time>
      </trkpt>
      <trkpt lat="48.60343" lon="7.79598">
        <ele>136.663542</ele>
        <time>2023-03-31T12:44:29.836Z</time>
      </trkpt>
      <trkpt lat="48.60357" lon="7.79658">
        <ele>136.5934</ele>
        <time>2023-03-31T12:44:37.269Z</time>
      </trkpt>
      <trkpt lat="48.60365" lon="7.79678">
        <ele>136.568905</ele>
        <time>2023-03-31T12:44:39.889Z</time>
      </trkpt>
      <trkpt lat="48.60376" lon="7.79705">
        <ele>136.533473</ele>
        <time>2023-03-31T12:44:43.755Z</time>
      </trkpt>
      <trkpt lat="48.60382" lon="7.79703">
        <ele>136.523175</ele>
        <time>2023-03-31T12:44:44.881Z</time>
      </trkpt>
      <trkpt lat="48.60386" lon="7.79711">
        <ele>136.512272</ele>
        <time>2023-03-31T12:44:46.048Z</time>
      </trkpt>
      <trkpt lat="48.60415" lon="7.79785">
        <ele>136.418245</ele>
        <time>2023-03-31T12:44:56.374Z</time>
      </trkpt>
      <trkpt lat="48.60427" lon="7.79809">
        <ele>136.384848</ele>
        <time>2023-03-31T12:45:00.054Z</time>
      </trkpt>
      <trkpt lat="48.60442" lon="7.79824">
        <ele>136.363935</ele>
        <time>2023-03-31T12:45:03.254Z</time>
      </trkpt>
      <trkpt lat="48.60454" lon="7.7983">
        <ele>136.350337</ele>
        <time>2023-03-31T12:45:05.540Z</time>
      </trkpt>
      <trkpt lat="48.60508" lon="7.79837">
        <ele>136.29335</ele>
        <time>2023-03-31T12:45:14.867Z</time>
      </trkpt>
      <trkpt lat="48.60525" lon="7.79847">
        <ele>136.274572</ele>
        <time>2023-03-31T12:45:17.985Z</time>
      </trkpt>
      <trkpt lat="48.60577" lon="7.79901">
        <ele>136.208253</ele>
        <time>2023-03-31T12:45:29.979Z</time>
      </trkpt>
      <trkpt lat="48.60579" lon="7.79911">
        <ele>136.200548</ele>
        <time>2023-03-31T12:45:31.350Z</time>
      </trkpt>
      <trkpt lat="48.60586" lon="7.79927">
        <ele>136.199089</ele>
        <time>2023-03-31T12:45:33.872Z</time>
      </trkpt>
      <trkpt lat="48.60589" lon="7.79931">
        <ele>136.228512</ele>
        <time>2023-03-31T12:45:34.739Z</time>
      </trkpt>
      <trkpt lat="48.60593" lon="7.79939">
        <ele>136.272581</ele>
        <time>2023-03-31T12:45:36.045Z</time>
      </trkpt>
      <trkpt lat="48.60602" lon="7.79959">
        <ele>136.381613</ele>
        <time>2023-03-31T12:45:39.172Z</time>
      </trkpt>
      <trkpt lat="48.60627" lon="7.80016">
        <ele>136.693127</ele>
        <time>2023-03-31T12:45:48.442Z</time>
      </trkpt>
      <trkpt lat="48.60609" lon="7.80069">
        <ele>136.966311</ele>
        <time>2023-03-31T12:45:56.570Z</time>
      </trkpt>
      <trkpt lat="48.60588" lon="7.80131">
        <ele>137.282334</ele>
        <time>2023-03-31T12:46:05.675Z</time>
      </trkpt>
      <trkpt lat="48.60595" lon="7.80224">
        <ele>137.561613</ele>
        <time>2023-03-31T12:46:18.425Z</time>
      </trkpt>
      <trkpt lat="48.60598" lon="7.80261">
        <ele>137.642623</ele>
        <time>2023-03-31T12:46:23.539Z</time>
      </trkpt>
      <trkpt lat="48.60613" lon="7.80307">
        <ele>137.752681</ele>
        <time>2023-03-31T12:46:30.240Z</time>
      </trkpt>
      <trkpt lat="48.60628" lon="7.80357">
        <ele>137.873094</ele>
        <time>2023-03-31T12:46:37.224Z</time>
      </trkpt>
      <trkpt lat="48.60658" lon="7.80454">
        <ele>137.873718</ele>
        <time>2023-03-31T12:46:49.689Z</time>
      </trkpt>
      <trkpt lat="48.60661" lon="7.80462">
        <ele>137.841418</ele>
        <time>2023-03-31T12:46:50.729Z</time>
      </trkpt>
      <trkpt lat="48.60758" lon="7.80626">
        <ele>137.060306</ele>
        <time>2023-03-31T12:47:15.834Z</time>
      </trkpt>
      <trkpt lat="48.6095" lon="7.80948">
        <ele>138.776682</ele>
        <time>2023-03-31T12:48:11.456Z</time>
      </trkpt>
      <trkpt lat="48.61051" lon="7.811">
        <ele>140.735076</ele>
        <time>2023-03-31T12:48:44.547Z</time>
      </trkpt>
      <trkpt lat="48.61113" lon="7.81152">
        <ele>141.827065</ele>
        <time>2023-03-31T12:49:00.432Z</time>
      </trkpt>
      <trkpt lat="48.61126" lon="7.8117">
        <ele>142.095405</ele>
        <time>2023-03-31T12:49:04.155Z</time>
      </trkpt>
      <trkpt lat="48.61231" lon="7.81493">
        <ele>141.505564</ele>
        <time>2023-03-31T12:49:46.138Z</time>
      </trkpt>
      <trkpt lat="48.61238" lon="7.81519">
        <ele>141.327449</ele>
        <time>2023-03-31T12:49:49.107Z</time>
      </trkpt>
      <trkpt lat="48.61246" lon="7.8155">
        <ele>141.12019</ele>
        <time>2023-03-31T12:49:52.510Z</time>
      </trkpt>
      <trkpt lat="48.61275" lon="7.81661">
        <ele>140.35861</ele>
        <time>2023-03-31T12:50:05.536Z</time>
      </trkpt>
      <trkpt lat="48.61283" lon="7.81695">
        <ele>140.131568</ele>
        <time>2023-03-31T12:50:09.682Z</time>
      </trkpt>
      <trkpt lat="48.61285" lon="7.8171">
        <ele>140.183703</ele>
        <time>2023-03-31T12:50:11.457Z</time>
      </trkpt>
      <trkpt lat="48.61279" lon="7.8178">
        <ele>140.59663</ele>
        <time>2023-03-31T12:50:20.452Z</time>
      </trkpt>
      <trkpt lat="48.61285" lon="7.81846">
        <ele>140.986145</ele>
        <time>2023-03-31T12:50:29.589Z</time>
      </trkpt>
      <trkpt lat="48.61295" lon="7.81881">
        <ele>141.210898</ele>
        <time>2023-03-31T12:50:35.008Z</time>
      </trkpt>
      <trkpt lat="48.61309" lon="7.81913">
        <ele>141.441086</ele>
        <time>2023-03-31T12:50:40.667Z</time>
      </trkpt>
      <trkpt lat="48.6133" lon="7.81946">
        <ele>141.707081</ele>
        <time>2023-03-31T12:50:47.383Z</time>
      </trkpt>
      <trkpt lat="48.61375" lon="7.81987">
        <ele>141.965764</ele>
        <time>2023-03-31T12:50:59.399Z</time>
      </trkpt>
      <trkpt lat="48.61725" lon="7.82326">
        <ele>142.759502</ele>
        <time>2023-03-31T12:52:17.899Z</time>
      </trkpt>
      <trkpt lat="48.61752" lon="7.82345">
        <ele>142.561761</ele>
        <time>2023-03-31T12:52:22.810Z</time>
      </trkpt>
      <trkpt lat="48.61774" lon="7.82353">
        <ele>142.417886</ele>
        <time>2023-03-31T12:52:26.259Z</time>
      </trkpt>
      <trkpt lat="48.6184" lon="7.82366">
        <ele>141.455192</ele>
        <time>2023-03-31T12:52:36.588Z</time>
      </trkpt>
      <trkpt lat="48.61924" lon="7.82377">
        <ele>139.982475</ele>
        <time>2023-03-31T12:52:49.594Z</time>
      </trkpt>
      <trkpt lat="48.61963" lon="7.82373">
        <ele>139.301972</ele>
        <time>2023-03-31T12:52:55.907Z</time>
      </trkpt>
      <trkpt lat="48.62039" lon="7.82357">
        <ele>139.179107</ele>
        <time>2023-03-31T12:53:09.233Z</time>
      </trkpt>
      <trkpt lat="48.62217" lon="7.82314">
        <ele>139.199515</ele>
        <time>2023-03-31T12:53:45.526Z</time>
      </trkpt>
      <trkpt lat="48.63197" lon="7.82086">
        <ele>138.807407</ele>
        <time>2023-03-31T12:56:44.782Z</time>
      </trkpt>
      <trkpt lat="48.63221" lon="7.82081">
        <ele>138.833054</ele>
        <time>2023-03-31T12:56:49.449Z</time>
      </trkpt>
      <trkpt lat="48.63219" lon="7.82074">
        <ele>138.858878</ele>
        <time>2023-03-31T12:56:51.023Z</time>
      </trkpt>
      <trkpt lat="48.63329" lon="7.8204">
        <ele>139.412347</ele>
        <time>2023-03-31T12:57:25.286Z</time>
      </trkpt>
      <trkpt lat="48.63345" lon="7.82052">
        <ele>139.497031</ele>
        <time>2023-03-31T12:57:28.763Z</time>
      </trkpt>
      <trkpt lat="48.63357" lon="7.82049">
        <ele>139.558159</ele>
        <time>2023-03-31T12:57:31.297Z</time>
      </trkpt>
      <trkpt lat="48.63377" lon="7.82046">
        <ele>139.659211</ele>
        <time>2023-03-31T12:57:35.424Z</time>
      </trkpt>
      <trkpt lat="48.63396" lon="7.82042">
        <ele>139.674974</ele>
        <time>2023-03-31T12:57:39.268Z</time>
      </trkpt>
      <trkpt lat="48.63396" lon="7.82036">
        <ele>139.667671</ele>
        <time>2023-03-31T12:57:40.020Z</time>
      </trkpt>
      <trkpt lat="48.63401" lon="7.82031">
        <ele>139.655873</ele>
        <time>2023-03-31T12:57:41.906Z</time>
      </trkpt>
      <trkpt lat="48.63597" lon="7.81983">
        <ele>138.685744</ele>
        <time>2023-03-31T12:58:41.345Z</time>
      </trkpt>
      <trkpt lat="48.63619" lon="7.81991">
        <ele>138.312069</ele>
        <time>2023-03-31T12:58:47.681Z</time>
      </trkpt>
      <trkpt lat="48.63629" lon="7.82002">
        <ele>138.107886</ele>
        <time>2023-03-31T12:58:49.619Z</time>
      </trkpt>
      <trkpt lat="48.63689" lon="7.82059">
        <ele>136.941832</ele>
        <time>2023-03-31T12:59:00.383Z</time>
      </trkpt>
      <trkpt lat="48.63715" lon="7.8209">
        <ele>136.39346</ele>
        <time>2023-03-31T12:59:05.399Z</time>
      </trkpt>
      <trkpt lat="48.63784" lon="7.82125">
        <ele>135.097535</ele>
        <time>2023-03-31T12:59:16.473Z</time>
      </trkpt>
      <trkpt lat="48.6382" lon="7.82152">
        <ele>134.399931</ele>
        <time>2023-03-31T12:59:22.617Z</time>
      </trkpt>
      <trkpt lat="48.63825" lon="7.82161">
        <ele>134.262512</ele>
        <time>2023-03-31T12:59:23.882Z</time>
      </trkpt>
      <trkpt lat="48.63832" lon="7.82161">
        <ele>134.122383</ele>
        <time>2023-03-31T12:59:25.149Z</time>
      </trkpt>
      <trkpt lat="48.6397" lon="7.82269">
        <ele>132.34043</ele>
        <time>2023-03-31T12:59:51.198Z</time>
      </trkpt>
      <trkpt lat="48.63985" lon="7.82278">
        <ele>132.204657</ele>
        <time>2023-03-31T12:59:54.027Z</time>
      </trkpt>
      <trkpt lat="48.63998" lon="7.82281">
        <ele>132.091843</ele>
        <time>2023-03-31T12:59:56.386Z</time>
      </trkpt>
      <trkpt lat="48.64102" lon="7.82267">
        <ele>131.619198</ele>
        <time>2023-03-31T13:00:14.728Z</time>
      </trkpt>
      <trkpt lat="48.64118" lon="7.82272">
        <ele>131.59859</ele>
        <time>2023-03-31T13:00:17.629Z</time>
      </trkpt>
      <trkpt lat="48.64131" lon="7.82288">
        <ele>131.577149</ele>
        <time>2023-03-31T13:00:20.660Z</time>
      </trkpt>
      <trkpt lat="48.64282" lon="7.82538">
        <ele>131.81955</ele>
        <time>2023-03-31T13:01:02.626Z</time>
      </trkpt>
      <trkpt lat="48.64294" lon="7.82556">
        <ele>131.866318</ele>
        <time>2023-03-31T13:01:05.997Z</time>
      </trkpt>
      <trkpt lat="48.64301" lon="7.82562">
        <ele>131.887262</ele>
        <time>2023-03-31T13:01:07.520Z</time>
      </trkpt>
      <trkpt lat="48.64578" lon="7.82651">
        <ele>133.379815</ele>
        <time>2023-03-31T13:02:03.490Z</time>
      </trkpt>
      <trkpt lat="48.64584" lon="7.82651">
        <ele>133.415742</ele>
        <time>2023-03-31T13:02:04.620Z</time>
      </trkpt>
      <trkpt lat="48.64586" lon="7.82657">
        <ele>133.443155</ele>
        <time>2023-03-31T13:02:05.477Z</time>
      </trkpt>
      <trkpt lat="48.64601" lon="7.82684">
        <ele>133.591977</ele>
        <time>2023-03-31T13:02:10.245Z</time>
      </trkpt>
      <trkpt lat="48.64603" lon="7.82691">
        <ele>133.619752</ele>
        <time>2023-03-31T13:02:11.150Z</time>
      </trkpt>
      <trkpt lat="48.64642" lon="7.82843">
        <ele>134.302566</ele>
        <time>2023-03-31T13:02:33.214Z</time>
      </trkpt>
      <trkpt lat="48.64659" lon="7.82841">
        <ele>134.411515</ele>
        <time>2023-03-31T13:02:36.669Z</time>
      </trkpt>
      <trkpt lat="48.64752" lon="7.82862">
        <ele>135.013639</ele>
        <time>2023-03-31T13:02:55.811Z</time>
      </trkpt>
      <trkpt lat="48.64972" lon="7.82927">
        <ele>135.372705</ele>
        <time>2023-03-31T13:03:37.561Z</time>
      </trkpt>
      <trkpt lat="48.65035" lon="7.82942">
        <ele>135.262867</ele>
        <time>2023-03-31T13:03:48.846Z</time>
      </trkpt>
      <trkpt lat="48.65091" lon="7.82957">
        <ele>135.163173</ele>
        <time>2023-03-31T13:03:59.164Z</time>
      </trkpt>
      <trkpt lat="48.65109" lon="7.82962">
        <ele>135.130614</ele>
        <time>2023-03-31T13:04:02.549Z</time>
      </trkpt>
      <trkpt lat="48.65249" lon="7.83004">
        <ele>134.295796</ele>
        <time>2023-03-31T13:04:27.722Z</time>
      </trkpt>
      <trkpt lat="48.65337" lon="7.83038">
        <ele>133.446614</ele>
        <time>2023-03-31T13:04:42.905Z</time>
      </trkpt>
      <trkpt lat="48.65354" lon="7.83036">
        <ele>133.216445</ele>
        <time>2023-03-31T13:04:45.640Z</time>
      </trkpt>
      <trkpt lat="48.65381" lon="7.83023">
        <ele>132.816217</ele>
        <time>2023-03-31T13:04:50.331Z</time>
      </trkpt>
      <trkpt lat="48.65432" lon="7.83079">
        <ele>131.951447</ele>
        <time>2023-03-31T13:05:00.753Z</time>
      </trkpt>
      <trkpt lat="48.6546" lon="7.83118">
        <ele>131.438485</ele>
        <time>2023-03-31T13:05:07.134Z</time>
      </trkpt>
      <trkpt lat="48.65491" lon="7.83124">
        <ele>131.250252</ele>
        <time>2023-03-31T13:05:12.516Z</time>
      </trkpt>
      <trkpt lat="48.65492" lon="7.83124">
        <ele>131.246666</ele>
        <time>2023-03-31T13:05:12.605Z</time>
      </trkpt>
      <trkpt lat="48.65493" lon="7.83131">
        <ele>131.218674</ele>
        <time>2023-03-31T13:05:13.415Z</time>
      </trkpt>
      <trkpt lat="48.6549" lon="7.83139">
        <ele>131.183571</ele>
        <time>2023-03-31T13:05:14.451Z</time>
      </trkpt>
      <trkpt lat="48.6549" lon="7.83141">
        <ele>131.174439</ele>
        <time>2023-03-31T13:05:14.716Z</time>
      </trkpt>
      <trkpt lat="48.65486" lon="7.83157">
        <ele>131.105912</ele>
        <time>2023-03-31T13:05:16.693Z</time>
      </trkpt>
      <trkpt lat="48.6548" lon="7.83164">
        <ele>131.061843</ele>
        <time>2023-03-31T13:05:17.966Z</time>
      </trkpt>
      <trkpt lat="48.65478" lon="7.83171">
        <ele>131.031091</ele>
        <time>2023-03-31T13:05:18.835Z</time>
      </trkpt>
      <trkpt lat="48.65474" lon="7.8319">
        <ele>130.95518</ele>
        <time>2023-03-31T13:05:21.059Z</time>
      </trkpt>
      <trkpt lat="48.65469" lon="7.83223">
        <ele>130.819544</ele>
        <time>2023-03-31T13:05:25.013Z</time>
      </trkpt>
      <trkpt lat="48.65466" lon="7.83241">
        <ele>130.74799</ele>
        <time>2023-03-31T13:05:27.142Z</time>
      </trkpt>
      <trkpt lat="48.65466" lon="7.83254">
        <ele>130.698126</ele>
        <time>2023-03-31T13:05:28.640Z</time>
      </trkpt>
      <trkpt lat="48.6547" lon="7.83266">
        <ele>130.643223</ele>
        <time>2023-03-31T13:05:30.302Z</time>
      </trkpt>
      <trkpt lat="48.65464" lon="7.8328">
        <ele>130.57721</ele>
        <time>2023-03-31T13:05:32.264Z</time>
      </trkpt>
      <trkpt lat="48.65458" lon="7.833">
        <ele>130.491452</ele>
        <time>2023-03-31T13:05:34.945Z</time>
      </trkpt>
      <trkpt lat="48.65458" lon="7.83343">
        <ele>130.436157</ele>
        <time>2023-03-31T13:05:40.242Z</time>
      </trkpt>
      <trkpt lat="48.65454" lon="7.83408">
        <ele>130.644422</ele>
        <time>2023-03-31T13:05:48.350Z</time>
      </trkpt>
      <trkpt lat="48.65455" lon="7.83426">
        <ele>130.704339</ele>
        <time>2023-03-31T13:05:50.796Z</time>
      </trkpt>
      <trkpt lat="48.65459" lon="7.83442">
        <ele>130.757984</ele>
        <time>2023-03-31T13:05:52.969Z</time>
      </trkpt>
      <trkpt lat="48.65471" lon="7.83479">
        <ele>130.889911</ele>
        <time>2023-03-31T13:05:58.575Z</time>
      </trkpt>
      <trkpt lat="48.65503" lon="7.83539">
        <ele>131.141686</ele>
        <time>2023-03-31T13:06:09.308Z</time>
      </trkpt>
      <trkpt lat="48.6551" lon="7.8353">
        <ele>131.185726</ele>
        <time>2023-03-31T13:06:11.025Z</time>
      </trkpt>
      <trkpt lat="48.65514" lon="7.83526">
        <ele>131.208633</ele>
        <time>2023-03-31T13:06:11.888Z</time>
      </trkpt>
      <trkpt lat="48.6552" lon="7.83523">
        <ele>131.239859</ele>
        <time>2023-03-31T13:06:13.186Z</time>
      </trkpt>
      <trkpt lat="48.65533" lon="7.83508">
        <ele>131.28733</ele>
        <time>2023-03-31T13:06:16.343Z</time>
      </trkpt>
      <trkpt lat="48.65544" lon="7.83497">
        <ele>131.318409</ele>
        <time>2023-03-31T13:06:18.760Z</time>
      </trkpt>
      <trkpt lat="48.65553" lon="7.83513">
        <ele>131.350326</ele>
        <time>2023-03-31T13:06:21.356Z</time>
      </trkpt>
      <trkpt lat="48.65567" lon="7.83554">
        <ele>131.419762</ele>
        <time>2023-03-31T13:06:26.931Z</time>
      </trkpt>
      <trkpt lat="48.65582" lon="7.8362">
        <ele>131.525956</ele>
        <time>2023-03-31T13:06:35.617Z</time>
      </trkpt>
      <trkpt lat="48.65592" lon="7.83669">
        <ele>131.604558</ele>
        <time>2023-03-31T13:06:42.318Z</time>
      </trkpt>
      <trkpt lat="48.65598" lon="7.83668">
        <ele>131.619463</ele>
        <time>2023-03-31T13:06:43.534Z</time>
      </trkpt>
      <trkpt lat="48.65604" lon="7.83672">
        <ele>131.633456</ele>
        <time>2023-03-31T13:06:44.647Z</time>
      </trkpt>
      <trkpt lat="48.65626" lon="7.83685">
        <ele>131.676462</ele>
        <time>2023-03-31T13:06:49.312Z</time>
      </trkpt>
      <trkpt lat="48.65626" lon="7.83749">
        <ele>131.687835</ele>
        <time>2023-03-31T13:06:57.687Z</time>
      </trkpt>
      <trkpt lat="48.65676" lon="7.83757">
        <ele>131.701515</ele>
        <time>2023-03-31T13:07:06.911Z</time>
      </trkpt>
      <trkpt lat="48.65684" lon="7.83764">
        <ele>131.703855</ele>
        <time>2023-03-31T13:07:08.440Z</time>
      </trkpt>
      <trkpt lat="48.65689" lon="7.83775">
        <ele>131.70638</ele>
        <time>2023-03-31T13:07:10.133Z</time>
      </trkpt>
      <trkpt lat="48.65709" lon="7.83829">
        <ele>131.717365</ele>
        <time>2023-03-31T13:07:17.605Z</time>
      </trkpt>
      <trkpt lat="48.65732" lon="7.83862">
        <ele>131.685423</ele>
        <time>2023-03-31T13:07:23.395Z</time>
      </trkpt>
      <trkpt lat="48.65745" lon="7.83933">
        <ele>131.502838</ele>
        <time>2023-03-31T13:07:32.969Z</time>
      </trkpt>
      <trkpt lat="48.65766" lon="7.84026">
        <ele>131.260417</ele>
        <time>2023-03-31T13:07:45.201Z</time>
      </trkpt>
      <trkpt lat="48.6578" lon="7.84073">
        <ele>131.134924</ele>
        <time>2023-03-31T13:07:51.344Z</time>
      </trkpt>
      <trkpt lat="48.65786" lon="7.84079">
        <ele>131.108078</ele>
        <time>2023-03-31T13:07:52.658Z</time>
      </trkpt>
      <trkpt lat="48.6582" lon="7.84097">
        <ele>130.874132</ele>
        <time>2023-03-31T13:07:59.090Z</time>
      </trkpt>
      <trkpt lat="48.65858" lon="7.84108">
        <ele>130.54032</ele>
        <time>2023-03-31T13:08:05.911Z</time>
      </trkpt>
      <trkpt lat="48.65872" lon="7.84106">
        <ele>130.418831</ele>
        <time>2023-03-31T13:08:08.279Z</time>
      </trkpt>
      <trkpt lat="48.65915" lon="7.84186">
        <ele>129.830197</ele>
        <time>2023-03-31T13:08:19.861Z</time>
      </trkpt>
      <trkpt lat="48.65947" lon="7.84233">
        <ele>129.499644</ele>
        <time>2023-03-31T13:08:27.528Z</time>
      </trkpt>
      <trkpt lat="48.66028" lon="7.84474">
        <ele>129.576428</ele>
        <time>2023-03-31T13:09:00.151Z</time>
      </trkpt>
      <trkpt lat="48.66036" lon="7.8449">
        <ele>129.71563</ele>
        <time>2023-03-31T13:09:02.966Z</time>
      </trkpt>
      <trkpt lat="48.66022" lon="7.84498">
        <ele>129.864399</ele>
        <time>2023-03-31T13:09:07.414Z</time>
      </trkpt>
      <trkpt lat="48.66041" lon="7.84508">
        <ele>130.075034</ele>
        <time>2023-03-31T13:09:13.714Z</time>
      </trkpt>
      <trkpt lat="48.66088" lon="7.8454">
        <ele>130.605388</ele>
        <time>2023-03-31T13:09:29.602Z</time>
      </trkpt>
      <trkpt lat="48.66122" lon="7.84574">
        <ele>131.025273</ele>
        <time>2023-03-31T13:09:42.205Z</time>
      </trkpt>
      <trkpt lat="48.662" lon="7.84724">
        <ele>131.550466</ele>
        <time>2023-03-31T13:10:07.638Z</time>
      </trkpt>
      <trkpt lat="48.66208" lon="7.84743">
        <ele>131.578769</ele>
        <time>2023-03-31T13:10:12.225Z</time>
      </trkpt>
      <trkpt lat="48.66209" lon="7.84752">
        <ele>131.589249</ele>
        <time>2023-03-31T13:10:13.923Z</time>
      </trkpt>
      <trkpt lat="48.66208" lon="7.84759">
        <ele>131.598706</ele>
        <time>2023-03-31T13:10:15.450Z</time>
      </trkpt>
      <trkpt lat="48.6619" lon="7.84797">
        <ele>131.654642</ele>
        <time>2023-03-31T13:10:24.533Z</time>
      </trkpt>
      <trkpt lat="48.66188" lon="7.8481">
        <ele>131.671073</ele>
        <time>2023-03-31T13:10:27.192Z</time>
      </trkpt>
      <trkpt lat="48.66185" lon="7.84868">
        <ele>131.610397</ele>
        <time>2023-03-31T13:10:38.761Z</time>
      </trkpt>
      <trkpt lat="48.66184" lon="7.8495">
        <ele>131.249691</ele>
        <time>2023-03-31T13:10:54.694Z</time>
      </trkpt>
      <trkpt lat="48.66199" lon="7.85014">
        <ele>130.950589</ele>
        <time>2023-03-31T13:11:07.836Z</time>
      </trkpt>
      <trkpt lat="48.66207" lon="7.85062">
        <ele>130.728808</ele>
        <time>2023-03-31T13:11:17.704Z</time>
      </trkpt>
      <trkpt lat="48.6624" lon="7.85118">
        <ele>130.414504</ele>
        <time>2023-03-31T13:11:32.652Z</time>
      </trkpt>
      <trkpt lat="48.66317" lon="7.85254">
        <ele>129.771425</ele>
        <time>2023-03-31T13:12:07.719Z</time>
      </trkpt>
      <trkpt lat="48.66506" lon="7.8559">
        <ele>128.658185</ele>
        <time>2023-03-31T13:13:34.884Z</time>
      </trkpt>
      <trkpt lat="48.66575" lon="7.85718">
        <ele>128.464211</ele>
        <time>2023-03-31T13:14:07.330Z</time>
      </trkpt>
      <trkpt lat="48.66638" lon="7.85831">
        <ele>129.207907</ele>
        <time>2023-03-31T13:14:37.333Z</time>
      </trkpt>
      <trkpt lat="48.66643" lon="7.85847">
        <ele>129.299077</ele>
        <time>2023-03-31T13:14:40.838Z</time>
      </trkpt>
      <trkpt lat="48.66645" lon="7.85868">
        <ele>129.414011</ele>
        <time>2023-03-31T13:14:45.243Z</time>
      </trkpt>
      <trkpt lat="48.6664" lon="7.85929">
        <ele>129.736172</ele>
        <time>2023-03-31T13:14:57.677Z</time>
      </trkpt>
      <trkpt lat="48.66641" lon="7.85939">
        <ele>129.789237</ele>
        <time>2023-03-31T13:14:59.724Z</time>
      </trkpt>
      <trkpt lat="48.66653" lon="7.8596">
        <ele>129.927157</ele>
        <time>2023-03-31T13:15:05.434Z</time>
      </trkpt>
      <trkpt lat="48.66661" lon="7.85998">
        <ele>130.088448</ele>
        <time>2023-03-31T13:15:13.578Z</time>
      </trkpt>
      <trkpt lat="48.66737" lon="7.86205">
        <ele>130.975411</ele>
        <time>2023-03-31T13:16:01.232Z</time>
      </trkpt>
      <trkpt lat="48.66832" lon="7.86356">
        <ele>130.710973</ele>
        <time>2023-03-31T13:16:42.352Z</time>
      </trkpt>
      <trkpt lat="48.66938" lon="7.8655">
        <ele>130.08838</ele>
        <time>2023-03-31T13:17:31.942Z</time>
      </trkpt>
      <trkpt lat="48.66955" lon="7.86594">
        <ele>129.945419</ele>
        <time>2023-03-31T13:17:42.048Z</time>
      </trkpt>
      <trkpt lat="48.66985" lon="7.86722">
        <ele>129.553481</ele>
        <time>2023-03-31T13:18:08.791Z</time>
      </trkpt>
      <trkpt lat="48.67008" lon="7.86862">
        <ele>129.134794</ele>
        <time>2023-03-31T13:18:37.196Z</time>
      </trkpt>
      <trkpt lat="48.67023" lon="7.86934">
        <ele>129.056336</ele>
        <time>2023-03-31T13:18:52.170Z</time>
      </trkpt>
      <trkpt lat="48.67029" lon="7.86947">
        <ele>129.046043</ele>
        <time>2023-03-31T13:18:55.375Z</time>
      </trkpt>
      <trkpt lat="48.67069" lon="7.87132">
        <ele>128.923538</ele>
        <time>2023-03-31T13:19:33.616Z</time>
      </trkpt>
      <trkpt lat="48.67105" lon="7.87251">
        <ele>129.054109</ele>
        <time>2023-03-31T13:19:59.468Z</time>
      </trkpt>
      <trkpt lat="48.67119" lon="7.87266">
        <ele>129.079932</ele>
        <time>2023-03-31T13:20:04.563Z</time>
      </trkpt>
      <trkpt lat="48.67125" lon="7.87284">
        <ele>129.100088</ele>
        <time>2023-03-31T13:20:08.569Z</time>
      </trkpt>
      <trkpt lat="48.67128" lon="7.87308">
        <ele>129.12399</ele>
        <time>2023-03-31T13:20:13.350Z</time>
      </trkpt>
      <trkpt lat="48.6713" lon="7.874">
        <ele>129.349415</ele>
        <time>2023-03-31T13:20:31.950Z</time>
      </trkpt>
      <trkpt lat="48.67134" lon="7.87462">
        <ele>129.798458</ele>
        <time>2023-03-31T13:20:44.602Z</time>
      </trkpt>
      <trkpt lat="48.67133" lon="7.87468">
        <ele>129.84771</ele>
        <time>2023-03-31T13:20:46.012Z</time>
      </trkpt>
      <trkpt lat="48.67134" lon="7.87485">
        <ele>129.970206</ele>
        <time>2023-03-31T13:20:49.477Z</time>
      </trkpt>
      <trkpt lat="48.67144" lon="7.87525">
        <ele>130.275793</ele>
        <time>2023-03-31T13:20:58.102Z</time>
      </trkpt>
      <trkpt lat="48.67144" lon="7.87546">
        <ele>130.431284</ele>
        <time>2023-03-31T13:21:02.500Z</time>
      </trkpt>
      <trkpt lat="48.67137" lon="7.87573">
        <ele>130.635563</ele>
        <time>2023-03-31T13:21:08.273Z</time>
      </trkpt>
      <trkpt lat="48.67119" lon="7.87595">
        <ele>130.889073</ele>
        <time>2023-03-31T13:21:15.454Z</time>
      </trkpt>
      <trkpt lat="48.67103" lon="7.87623">
        <ele>131.152555</ele>
        <time>2023-03-31T13:21:22.928Z</time>
      </trkpt>
      <trkpt lat="48.67087" lon="7.87666">
        <ele>131.29492</ele>
        <time>2023-03-31T13:21:33.089Z</time>
      </trkpt>
      <trkpt lat="48.67048" lon="7.87722">
        <ele>131.524459</ele>
        <time>2023-03-31T13:21:49.443Z</time>
      </trkpt>
      <trkpt lat="48.67052" lon="7.87754">
        <ele>131.616298</ele>
        <time>2023-03-31T13:21:55.859Z</time>
      </trkpt>
      <trkpt lat="48.67001" lon="7.87806">
        <ele>131.881215</ele>
        <time>2023-03-31T13:22:14.281Z</time>
      </trkpt>
      <trkpt lat="48.66985" lon="7.87882">
        <ele>131.671168</ele>
        <time>2023-03-31T13:22:29.867Z</time>
      </trkpt>
      <trkpt lat="48.6696" lon="7.87963">
        <ele>131.310162</ele>
        <time>2023-03-31T13:22:47.519Z</time>
      </trkpt>
      <trkpt lat="48.66957" lon="7.87982">
        <ele>131.232061</ele>
        <time>2023-03-31T13:22:51.202Z</time>
      </trkpt>
      <trkpt lat="48.66956" lon="7.8802">
        <ele>131.078477</ele>
        <time>2023-03-31T13:22:58.530Z</time>
      </trkpt>
      <trkpt lat="48.66955" lon="7.88036">
        <ele>131.011187</ele>
        <time>2023-03-31T13:23:01.721Z</time>
      </trkpt>
      <trkpt lat="48.66939" lon="7.88059">
        <ele>130.882051</ele>
        <time>2023-03-31T13:23:07.911Z</time>
      </trkpt>
      <trkpt lat="48.6692" lon="7.88075">
        <ele>130.796893</ele>
        <time>2023-03-31T13:23:14.375Z</time>
      </trkpt>
      <trkpt lat="48.66894" lon="7.8809">
        <ele>130.728223</ele>
        <time>2023-03-31T13:23:22.928Z</time>
      </trkpt>
      <trkpt lat="48.6688" lon="7.88104">
        <ele>130.688332</ele>
        <time>2023-03-31T13:23:27.879Z</time>
      </trkpt>
      <trkpt lat="48.66852" lon="7.88141">
        <ele>130.600151</ele>
        <time>2023-03-31T13:23:38.821Z</time>
      </trkpt>
      <trkpt lat="48.66877" lon="7.8824">
        <ele>130.432014</ele>
        <time>2023-03-31T13:23:59.723Z</time>
      </trkpt>
      <trkpt lat="48.66878" lon="7.88243">
        <ele>130.42614</ele>
        <time>2023-03-31T13:24:00.455Z</time>
      </trkpt>
      <trkpt lat="48.66883" lon="7.88294">
        <ele>130.52945</ele>
        <time>2023-03-31T13:24:10.702Z</time>
      </trkpt>
      <trkpt lat="48.66891" lon="7.88332">
        <ele>130.68972</ele>
        <time>2023-03-31T13:24:18.701Z</time>
      </trkpt>
      <trkpt lat="48.66904" lon="7.88372">
        <ele>130.87291</ele>
        <time>2023-03-31T13:24:27.880Z</time>
      </trkpt>
      <trkpt lat="48.66906" lon="7.88386">
        <ele>130.928772</ele>
        <time>2023-03-31T13:24:30.701Z</time>
      </trkpt>
      <trkpt lat="48.66893" lon="7.88667">
        <ele>131.066468</ele>
        <time>2023-03-31T13:25:27.240Z</time>
      </trkpt>
      <trkpt lat="48.66895" lon="7.88724">
        <ele>130.889395</ele>
        <time>2023-03-31T13:25:38.066Z</time>
      </trkpt>
      <trkpt lat="48.66908" lon="7.8887">
        <ele>129.925867</ele>
        <time>2023-03-31T13:26:05.333Z</time>
      </trkpt>
      <trkpt lat="48.66923" lon="7.88875">
        <ele>129.691611</ele>
        <time>2023-03-31T13:26:09.535Z</time>
      </trkpt>
      <trkpt lat="48.66957" lon="7.88871">
        <ele>129.174387</ele>
        <time>2023-03-31T13:26:18.894Z</time>
      </trkpt>
      <trkpt lat="48.66979" lon="7.88876">
        <ele>128.828374</ele>
        <time>2023-03-31T13:26:25.228Z</time>
      </trkpt>
      <trkpt lat="48.67069" lon="7.88914">
        <ele>127.837935</ele>
        <time>2023-03-31T13:26:52.259Z</time>
      </trkpt>
      <trkpt lat="48.67231" lon="7.89029">
        <ele>127.495866</ele>
        <time>2023-03-31T13:27:45.768Z</time>
      </trkpt>
      <trkpt lat="48.6726" lon="7.89031">
        <ele>127.512518</ele>
        <time>2023-03-31T13:27:54.291Z</time>
      </trkpt>
      <trkpt lat="48.67319" lon="7.89012">
        <ele>127.547902</ele>
        <time>2023-03-31T13:28:12.276Z</time>
      </trkpt>
      <trkpt lat="48.67333" lon="7.8901">
        <ele>127.556344</ele>
        <time>2023-03-31T13:28:16.586Z</time>
      </trkpt>
      <trkpt lat="48.6735" lon="7.89013">
        <ele>127.566326</ele>
        <time>2023-03-31T13:28:21.676Z</time>
      </trkpt>
      <trkpt lat="48.67357" lon="7.89018">
        <ele>127.571033</ele>
        <time>2023-03-31T13:28:24.089Z</time>
      </trkpt>
      <trkpt lat="48.67362" lon="7.89028">
        <ele>127.575904</ele>
        <time>2023-03-31T13:28:26.579Z</time>
      </trkpt>
      <trkpt lat="48.67378" lon="7.89105">
        <ele>127.566399</ele>
        <time>2023-03-31T13:28:42.559Z</time>
      </trkpt>
      <trkpt lat="48.67426" lon="7.89196">
        <ele>127.538616</ele>
        <time>2023-03-31T13:29:05.549Z</time>
      </trkpt>
      <trkpt lat="48.6744" lon="7.89204">
        <ele>127.533051</ele>
        <time>2023-03-31T13:29:10.146Z</time>
      </trkpt>
      <trkpt lat="48.67484" lon="7.89156">
        <ele>127.464421</ele>
        <time>2023-03-31T13:29:26.285Z</time>
      </trkpt>
      <trkpt lat="48.67493" lon="7.89145">
        <ele>127.401747</ele>
        <time>2023-03-31T13:29:29.640Z</time>
      </trkpt>
      <trkpt lat="48.67499" lon="7.89138">
        <ele>127.356673</ele>
        <time>2023-03-31T13:29:32.060Z</time>
      </trkpt>
      <trkpt lat="48.67508" lon="7.89136">
        <ele>127.308072</ele>
        <time>2023-03-31T13:29:34.641Z</time>
      </trkpt>
      <trkpt lat="48.67526" lon="7.89139">
        <ele>127.206441</ele>
        <time>2023-03-31T13:29:40.064Z</time>
      </trkpt>
      <trkpt lat="48.67533" lon="7.89137">
        <ele>127.162403</ele>
        <time>2023-03-31T13:29:42.429Z</time>
      </trkpt>
      <trkpt lat="48.67541" lon="7.89127">
        <ele>127.106762</ele>
        <time>2023-03-31T13:29:45.387Z</time>
      </trkpt>
      <trkpt lat="48.67555" lon="7.89094">
        <ele>126.962234</ele>
        <time>2023-03-31T13:29:53.120Z</time>
      </trkpt>
      <trkpt lat="48.67584" lon="7.89045">
        <ele>126.720927</ele>
        <time>2023-03-31T13:30:05.962Z</time>
      </trkpt>
      <trkpt lat="48.67594" lon="7.89034">
        <ele>126.648926</ele>
        <time>2023-03-31T13:30:09.777Z</time>
      </trkpt>
      <trkpt lat="48.67631" lon="7.89028">
        <ele>126.457971</ele>
        <time>2023-03-31T13:30:20.459Z</time>
      </trkpt>
      <trkpt lat="48.67652" lon="7.89037">
        <ele>126.361731</ele>
        <time>2023-03-31T13:30:26.823Z</time>
      </trkpt>
      <trkpt lat="48.67686" lon="7.89063">
        <ele>126.193097</ele>
        <time>2023-03-31T13:30:38.174Z</time>
      </trkpt>
      <trkpt lat="48.67706" lon="7.89082">
        <ele>126.086421</ele>
        <time>2023-03-31T13:30:45.409Z</time>
      </trkpt>
      <trkpt lat="48.67726" lon="7.89114">
        <ele>125.960009</ele>
        <time>2023-03-31T13:30:53.977Z</time>
      </trkpt>
      <trkpt lat="48.6775" lon="7.89192">
        <ele>125.728211</ele>
        <time>2023-03-31T13:31:10.927Z</time>
      </trkpt>
      <trkpt lat="48.67764" lon="7.89206">
        <ele>125.798321</ele>
        <time>2023-03-31T13:31:15.919Z</time>
      </trkpt>
      <trkpt lat="48.67773" lon="7.89205">
        <ele>125.837687</ele>
        <time>2023-03-31T13:31:18.719Z</time>
      </trkpt>
      <trkpt lat="48.67788" lon="7.89196">
        <ele>125.906043</ele>
        <time>2023-03-31T13:31:23.624Z</time>
      </trkpt>
      <trkpt lat="48.67885" lon="7.89129">
        <ele>126.354269</ele>
        <time>2023-03-31T13:31:55.894Z</time>
      </trkpt>
      <trkpt lat="48.67897" lon="7.89125">
        <ele>126.407322</ele>
        <time>2023-03-31T13:31:59.712Z</time>
      </trkpt>
      <trkpt lat="48.67911" lon="7.89126">
        <ele>126.465812</ele>
        <time>2023-03-31T13:32:03.919Z</time>
      </trkpt>
      <trkpt lat="48.67927" lon="7.89134">
        <ele>126.480009</ele>
        <time>2023-03-31T13:32:08.988Z</time>
      </trkpt>
      <trkpt lat="48.67978" lon="7.89169">
        <ele>126.479605</ele>
        <time>2023-03-31T13:32:26.066Z</time>
      </trkpt>
      <trkpt lat="48.68036" lon="7.892">
        <ele>126.479167</ele>
        <time>2023-03-31T13:32:44.414Z</time>
      </trkpt>
      <trkpt lat="48.68151" lon="7.89253">
        <ele>126.236278</ele>
        <time>2023-03-31T13:33:20.191Z</time>
      </trkpt>
      <trkpt lat="48.68265" lon="7.89307">
        <ele>125.840091</ele>
        <time>2023-03-31T13:33:56.048Z</time>
      </trkpt>
      <trkpt lat="48.6831" lon="7.89361">
        <ele>125.704413</ele>
        <time>2023-03-31T13:34:13.050Z</time>
      </trkpt>
      <trkpt lat="48.68332" lon="7.8938">
        <ele>125.643928</ele>
        <time>2023-03-31T13:34:20.625Z</time>
      </trkpt>
      <trkpt lat="48.68387" lon="7.89413">
        <ele>125.502649</ele>
        <time>2023-03-31T13:34:38.320Z</time>
      </trkpt>
      <trkpt lat="48.68452" lon="7.89446">
        <ele>125.34126</ele>
        <time>2023-03-31T13:34:58.817Z</time>
      </trkpt>
      <trkpt lat="48.68471" lon="7.89457">
        <ele>125.293814</ele>
        <time>2023-03-31T13:35:04.871Z</time>
      </trkpt>
      <trkpt lat="48.6853" lon="7.89492">
        <ele>125.146236</ele>
        <time>2023-03-31T13:35:23.742Z</time>
      </trkpt>
      <trkpt lat="48.68629" lon="7.89569">
        <ele>125.039366</ele>
        <time>2023-03-31T13:35:56.848Z</time>
      </trkpt>
      <trkpt lat="48.68668" lon="7.89601">
        <ele>125.055582</ele>
        <time>2023-03-31T13:36:10.354Z</time>
      </trkpt>
      <trkpt lat="48.68907" lon="7.8982">
        <ele>125.337248</ele>
        <time>2023-03-31T13:37:34.009Z</time>
      </trkpt>
      <trkpt lat="48.68925" lon="7.89826">
        <ele>125.380165</ele>
        <time>2023-03-31T13:37:39.307Z</time>
      </trkpt>
      <trkpt lat="48.68926" lon="7.90061">
        <ele>125.766817</ele>
        <time>2023-03-31T13:38:09.097Z</time>
      </trkpt>
      <trkpt lat="48.68928" lon="7.9021">
        <ele>126.104663</ele>
        <time>2023-03-31T13:38:27.306Z</time>
      </trkpt>
      <trkpt lat="48.68934" lon="7.90333">
        <ele>126.42276</ele>
        <time>2023-03-31T13:38:43.611Z</time>
      </trkpt>
      <trkpt lat="48.68946" lon="7.90461">
        <ele>126.952739</ele>
        <time>2023-03-31T13:39:00.837Z</time>
      </trkpt>
      <trkpt lat="48.68945" lon="7.90492">
        <ele>127.083421</ele>
        <time>2023-03-31T13:39:07.218Z</time>
      </trkpt>
      <trkpt lat="48.68948" lon="7.90533">
        <ele>127.25117</ele>
        <time>2023-03-31T13:39:15.401Z</time>
      </trkpt>
      <trkpt lat="48.68947" lon="7.90542">
        <ele>127.287926</ele>
        <time>2023-03-31T13:39:17.218Z</time>
      </trkpt>
      <trkpt lat="48.68941" lon="7.90556">
        <ele>127.355744</ele>
        <time>2023-03-31T13:39:20.535Z</time>
      </trkpt>
      <trkpt lat="48.68938" lon="7.90574">
        <ele>127.431238</ele>
        <time>2023-03-31T13:39:24.215Z</time>
      </trkpt>
      <trkpt lat="48.68938" lon="7.90599">
        <ele>127.518788</ele>
        <time>2023-03-31T13:39:29.247Z</time>
      </trkpt>
      <trkpt lat="48.68941" lon="7.90603">
        <ele>127.541467</ele>
        <time>2023-03-31T13:39:30.631Z</time>
      </trkpt>
      <trkpt lat="48.68949" lon="7.90615">
        <ele>127.596747</ele>
        <time>2023-03-31T13:39:33.991Z</time>
      </trkpt>
      <trkpt lat="48.68961" lon="7.90605">
        <ele>127.661419</ele>
        <time>2023-03-31T13:39:36.791Z</time>
      </trkpt>
      <trkpt lat="48.68966" lon="7.90605">
        <ele>127.687455</ele>
        <time>2023-03-31T13:39:37.875Z</time>
      </trkpt>
      <trkpt lat="48.68973" lon="7.90622">
        <ele>127.753112</ele>
        <time>2023-03-31T13:39:40.559Z</time>
      </trkpt>
      <trkpt lat="48.68983" lon="7.90667">
        <ele>127.910673</ele>
        <time>2023-03-31T13:39:47.303Z</time>
      </trkpt>
      <trkpt lat="48.68981" lon="7.90628">
        <ele>128.041244</ele>
        <time>2023-03-31T13:39:52.612Z</time>
      </trkpt>
      <trkpt lat="48.68981" lon="7.90614">
        <ele>128.085672</ele>
        <time>2023-03-31T13:39:54.291Z</time>
      </trkpt>
      <trkpt lat="48.68983" lon="7.90591">
        <ele>128.163775</ele>
        <time>2023-03-31T13:39:57.236Z</time>
      </trkpt>
      <trkpt lat="48.68986" lon="7.90581">
        <ele>128.1985</ele>
        <time>2023-03-31T13:39:58.479Z</time>
      </trkpt>
      <trkpt lat="48.68985" lon="7.90565">
        <ele>128.252726</ele>
        <time>2023-03-31T13:40:00.388Z</time>
      </trkpt>
      <trkpt lat="48.68978" lon="7.90549">
        <ele>128.314811</ele>
        <time>2023-03-31T13:40:02.595Z</time>
      </trkpt>
      <trkpt lat="48.68971" lon="7.90544">
        <ele>128.354292</ele>
        <time>2023-03-31T13:40:04.007Z</time>
      </trkpt>
      <trkpt lat="48.68967" lon="7.90542">
        <ele>128.354158</ele>
        <time>2023-03-31T13:40:04.713Z</time>
      </trkpt>
      <trkpt lat="48.68961" lon="7.90543">
        <ele>128.349079</ele>
        <time>2023-03-31T13:40:05.802Z</time>
      </trkpt>
      <trkpt lat="48.68949" lon="7.90552">
        <ele>128.338388</ele>
        <time>2023-03-31T13:40:08.087Z</time>
      </trkpt>
      <trkpt lat="48.68944" lon="7.90567">
        <ele>128.329638</ele>
        <time>2023-03-31T13:40:10.007Z</time>
      </trkpt>
      <trkpt lat="48.68945" lon="7.90582">
        <ele>128.321409</ele>
        <time>2023-03-31T13:40:11.827Z</time>
      </trkpt>
      <trkpt lat="48.68941" lon="7.90603">
        <ele>128.309533</ele>
        <time>2023-03-31T13:40:14.424Z</time>
      </trkpt>
      <trkpt lat="48.68949" lon="7.90615">
        <ele>128.300538</ele>
        <time>2023-03-31T13:40:17.728Z</time>
      </trkpt>
      <trkpt lat="48.68952" lon="7.90617">
        <ele>128.297902</ele>
        <time>2023-03-31T13:40:18.713Z</time>
      </trkpt>
      <trkpt lat="48.68959" lon="7.90614">
        <ele>128.291609</ele>
        <time>2023-03-31T13:40:21.040Z</time>
      </trkpt>
      <trkpt lat="48.68965" lon="7.90618">
        <ele>128.28635</ele>
        <time>2023-03-31T13:40:22.959Z</time>
      </trkpt>
      <trkpt lat="48.6897" lon="7.90629">
        <ele>128.279214</ele>
        <time>2023-03-31T13:40:25.583Z</time>
      </trkpt>
      <trkpt lat="48.68991" lon="7.9073">
        <ele>128.22228</ele>
        <time>2023-03-31T13:40:46.511Z</time>
      </trkpt>
      <trkpt lat="48.68999" lon="7.90749">
        <ele>128.208641</ele>
        <time>2023-03-31T13:40:51.075Z</time>
      </trkpt>
      <trkpt lat="48.69018" lon="7.90846">
        <ele>128.058847</ele>
        <time>2023-03-31T13:41:02.998Z</time>
      </trkpt>
      <trkpt lat="48.69026" lon="7.90886">
        <ele>127.998208</ele>
        <time>2023-03-31T13:41:07.835Z</time>
      </trkpt>
      <trkpt lat="48.69115" lon="7.91334">
        <ele>127.21076</ele>
        <time>2023-03-31T13:42:03.200Z</time>
      </trkpt>
      <trkpt lat="48.69119" lon="7.91346">
        <ele>127.178609</ele>
        <time>2023-03-31T13:42:04.696Z</time>
      </trkpt>
      <trkpt lat="48.69125" lon="7.91352">
        <ele>127.150845</ele>
        <time>2023-03-31T13:42:05.969Z</time>
      </trkpt>
      <trkpt lat="48.69151" lon="7.91363">
        <ele>127.044745</ele>
        <time>2023-03-31T13:42:10.837Z</time>
      </trkpt>
      <trkpt lat="48.69176" lon="7.9138">
        <ele>126.940501</ele>
        <time>2023-03-31T13:42:15.595Z</time>
      </trkpt>
      <trkpt lat="48.69241" lon="7.91444">
        <ele>126.64346</ele>
        <time>2023-03-31T13:42:29.287Z</time>
      </trkpt>
      <trkpt lat="48.6941" lon="7.91612">
        <ele>125.898593</ele>
        <time>2023-03-31T13:43:05.108Z</time>
      </trkpt>
      <trkpt lat="48.69639" lon="7.91871">
        <ele>124.842804</ele>
        <time>2023-03-31T13:43:55.819Z</time>
      </trkpt>
      <trkpt lat="48.69668" lon="7.91897">
        <ele>124.709405</ele>
        <time>2023-03-31T13:44:01.785Z</time>
      </trkpt>
      <trkpt lat="48.6972" lon="7.91934">
        <ele>124.623838</ele>
        <time>2023-03-31T13:44:11.820Z</time>
      </trkpt>
      <trkpt lat="48.69733" lon="7.91947">
        <ele>124.60377</ele>
        <time>2023-03-31T13:44:14.713Z</time>
      </trkpt>
      <trkpt lat="48.69749" lon="7.91965">
        <ele>124.579217</ele>
        <time>2023-03-31T13:44:18.269Z</time>
      </trkpt>
      <trkpt lat="48.69786" lon="7.92037">
        <ele>124.50451</ele>
        <time>2023-03-31T13:44:29.249Z</time>
      </trkpt>
      <trkpt lat="48.69807" lon="7.92065">
        <ele>124.469087</ele>
        <time>2023-03-31T13:44:34.557Z</time>
      </trkpt>
      <trkpt lat="48.69832" lon="7.92088">
        <ele>124.521107</ele>
        <time>2023-03-31T13:44:39.975Z</time>
      </trkpt>
      <trkpt lat="48.69853" lon="7.92098">
        <ele>124.573221</ele>
        <time>2023-03-31T13:44:44.222Z</time>
      </trkpt>
      <trkpt lat="48.6988" lon="7.92103">
        <ele>124.635314</ele>
        <time>2023-03-31T13:44:49.445Z</time>
      </trkpt>
      <trkpt lat="48.6988" lon="7.92103">
        <ele>124.635314</ele>
        <time>2023-03-31T13:44:49.453Z</time>
      </trkpt>
      <trkpt lat="48.69938" lon="7.92108">
        <ele>124.768188</ele>
        <time>2023-03-31T13:45:00.683Z</time>
      </trkpt>
      <trkpt lat="48.69977" lon="7.92102">
        <ele>124.859096</ele>
        <time>2023-03-31T13:45:08.255Z</time>
      </trkpt>
      <trkpt lat="48.70239" lon="7.92051">
        <ele>124.166195</ele>
        <time>2023-03-31T13:45:55.605Z</time>
      </trkpt>
      <trkpt lat="48.70269" lon="7.92041">
        <ele>124.003271</ele>
        <time>2023-03-31T13:46:00.917Z</time>
      </trkpt>
      <trkpt lat="48.703" lon="7.9201">
        <ele>123.805001</ele>
        <time>2023-03-31T13:46:07.312Z</time>
      </trkpt>
      <trkpt lat="48.70324" lon="7.91979">
        <ele>123.640131</ele>
        <time>2023-03-31T13:46:12.562Z</time>
      </trkpt>
      <trkpt lat="48.7045" lon="7.91783">
        <ele>122.746396</ele>
        <time>2023-03-31T13:46:44.092Z</time>
      </trkpt>
      <trkpt lat="48.70544" lon="7.91623">
        <ele>123.829484</ele>
        <time>2023-03-31T13:47:12.894Z</time>
      </trkpt>
      <trkpt lat="48.70568" lon="7.9161">
        <ele>124.034765</ele>
        <time>2023-03-31T13:47:18.493Z</time>
      </trkpt>
      <trkpt lat="48.7059" lon="7.91618">
        <ele>124.228011</ele>
        <time>2023-03-31T13:47:23.461Z</time>
      </trkpt>
      <trkpt lat="48.70616" lon="7.91647">
        <ele>124.554689</ele>
        <time>2023-03-31T13:47:30.532Z</time>
      </trkpt>
      <trkpt lat="48.70701" lon="7.91765">
        <ele>125.698904</ele>
        <time>2023-03-31T13:47:54.650Z</time>
      </trkpt>
      <trkpt lat="48.70711" lon="7.9178">
        <ele>125.837885</ele>
        <time>2023-03-31T13:47:57.472Z</time>
      </trkpt>
      <trkpt lat="48.70733" lon="7.91803">
        <ele>125.946098</ele>
        <time>2023-03-31T13:48:02.758Z</time>
      </trkpt>
      <trkpt lat="48.7075" lon="7.91803">
        <ele>125.927764</ele>
        <time>2023-03-31T13:48:05.998Z</time>
      </trkpt>
      <trkpt lat="48.70775" lon="7.91791">
        <ele>125.899126</ele>
        <time>2023-03-31T13:48:10.937Z</time>
      </trkpt>
      <trkpt lat="48.70815" lon="7.91764">
        <ele>125.85108</ele>
        <time>2023-03-31T13:48:18.798Z</time>
      </trkpt>
      <trkpt lat="48.70833" lon="7.91749">
        <ele>125.828184</ele>
        <time>2023-03-31T13:48:22.433Z</time>
      </trkpt>
      <trkpt lat="48.70875" lon="7.91728">
        <ele>125.779714</ele>
        <time>2023-03-31T13:48:30.132Z</time>
      </trkpt>
      <trkpt lat="48.70891" lon="7.91716">
        <ele>125.753734</ele>
        <time>2023-03-31T13:48:33.348Z</time>
      </trkpt>
      <trkpt lat="48.70918" lon="7.91686">
        <ele>125.673996</ele>
        <time>2023-03-31T13:48:39.092Z</time>
      </trkpt>
      <trkpt lat="48.70927" lon="7.91675">
        <ele>125.645683</ele>
        <time>2023-03-31T13:48:41.144Z</time>
      </trkpt>
      <trkpt lat="48.70932" lon="7.91682">
        <ele>125.628274</ele>
        <time>2023-03-31T13:48:42.478Z</time>
      </trkpt>
      <trkpt lat="48.70961" lon="7.91698">
        <ele>125.552905</ele>
        <time>2023-03-31T13:48:48.241Z</time>
      </trkpt>
      <trkpt lat="48.70976" lon="7.91704">
        <ele>125.515288</ele>
        <time>2023-03-31T13:48:51.126Z</time>
      </trkpt>
      <trkpt lat="48.7101" lon="7.91722">
        <ele>125.426749</ele>
        <time>2023-03-31T13:48:58.033Z</time>
      </trkpt>
      <trkpt lat="48.71007" lon="7.91734">
        <ele>125.406853</ele>
        <time>2023-03-31T13:48:59.642Z</time>
      </trkpt>
      <trkpt lat="48.70993" lon="7.91777">
        <ele>125.329722</ele>
        <time>2023-03-31T13:49:05.776Z</time>
      </trkpt>
      <trkpt lat="48.70988" lon="7.91797">
        <ele>125.354918</ele>
        <time>2023-03-31T13:49:08.693Z</time>
      </trkpt>
      <trkpt lat="48.70988" lon="7.91822">
        <ele>125.39274</ele>
        <time>2023-03-31T13:49:11.905Z</time>
      </trkpt>
      <trkpt lat="48.70991" lon="7.91842">
        <ele>125.424196</ele>
        <time>2023-03-31T13:49:14.630Z</time>
      </trkpt>
      <trkpt lat="48.71006" lon="7.91884">
        <ele>125.495971</ele>
        <time>2023-03-31T13:49:20.900Z</time>
      </trkpt>
      <trkpt lat="48.71031" lon="7.91945">
        <ele>125.60501</ele>
        <time>2023-03-31T13:49:30.512Z</time>
      </trkpt>
      <trkpt lat="48.7104" lon="7.91943">
        <ele>125.625447</ele>
        <time>2023-03-31T13:49:32.275Z</time>
      </trkpt>
      <trkpt lat="48.71082" lon="7.91973">
        <ele>125.732387</ele>
        <time>2023-03-31T13:49:41.571Z</time>
      </trkpt>
      <trkpt lat="48.71088" lon="7.91977">
        <ele>125.723663</ele>
        <time>2023-03-31T13:49:43.003Z</time>
      </trkpt>
      <trkpt lat="48.71092" lon="7.9198">
        <ele>125.706677</ele>
        <time>2023-03-31T13:49:43.860Z</time>
      </trkpt>
      <trkpt lat="48.71143" lon="7.92016">
        <ele>125.479521</ele>
        <time>2023-03-31T13:49:54.902Z</time>
      </trkpt>
      <trkpt lat="48.7119" lon="7.92048">
        <ele>125.271363</ele>
        <time>2023-03-31T13:50:04.440Z</time>
      </trkpt>
      <trkpt lat="48.71206" lon="7.92064">
        <ele>125.196483</ele>
        <time>2023-03-31T13:50:07.840Z</time>
      </trkpt>
      <trkpt lat="48.71214" lon="7.92086">
        <ele>125.12822</ele>
        <time>2023-03-31T13:50:10.907Z</time>
      </trkpt>
      <trkpt lat="48.71217" lon="7.92109">
        <ele>125.067097</ele>
        <time>2023-03-31T13:50:13.668Z</time>
      </trkpt>
      <trkpt lat="48.71235" lon="7.92264">
        <ele>124.341585</ele>
        <time>2023-03-31T13:50:32.559Z</time>
      </trkpt>
      <trkpt lat="48.71263" lon="7.92265">
        <ele>124.129785</ele>
        <time>2023-03-31T13:50:37.790Z</time>
      </trkpt>
      <trkpt lat="48.71265" lon="7.92274">
        <ele>124.085912</ele>
        <time>2023-03-31T13:50:38.829Z</time>
      </trkpt>
      <trkpt lat="48.71272" lon="7.92281">
        <ele>124.02248</ele>
        <time>2023-03-31T13:50:40.376Z</time>
      </trkpt>
      <trkpt lat="48.71266" lon="7.92545">
        <ele>123.304807</ele>
        <time>2023-03-31T13:51:12.334Z</time>
      </trkpt>
      <trkpt lat="48.71263" lon="7.92563">
        <ele>123.269109</ele>
        <time>2023-03-31T13:51:14.835Z</time>
      </trkpt>
      <trkpt lat="48.71262" lon="7.9257">
        <ele>123.255765</ele>
        <time>2023-03-31T13:51:15.797Z</time>
      </trkpt>
      <trkpt lat="48.71258" lon="7.92584">
        <ele>123.224374</ele>
        <time>2023-03-31T13:51:18.056Z</time>
      </trkpt>
      <trkpt lat="48.71253" lon="7.92601">
        <ele>123.190322</ele>
        <time>2023-03-31T13:51:20.543Z</time>
      </trkpt>
      <trkpt lat="48.71248" lon="7.92609">
        <ele>123.166432</ele>
        <time>2023-03-31T13:51:22.205Z</time>
      </trkpt>
      <trkpt lat="48.71242" lon="7.92642">
        <ele>123.272022</ele>
        <time>2023-03-31T13:51:26.797Z</time>
      </trkpt>
      <trkpt lat="48.71244" lon="7.92671">
        <ele>123.409179</ele>
        <time>2023-03-31T13:51:30.918Z</time>
      </trkpt>
      <trkpt lat="48.71244" lon="7.92685">
        <ele>123.472397</ele>
        <time>2023-03-31T13:51:32.819Z</time>
      </trkpt>
      <trkpt lat="48.71227" lon="7.92799">
        <ele>124.004746</ele>
        <time>2023-03-31T13:51:48.883Z</time>
      </trkpt>
      <trkpt lat="48.71222" lon="7.92811">
        <ele>124.070541</ele>
        <time>2023-03-31T13:51:50.932Z</time>
      </trkpt>
      <trkpt lat="48.71229" lon="7.92824">
        <ele>124.146185</ele>
        <time>2023-03-31T13:51:54.261Z</time>
      </trkpt>
      <trkpt lat="48.71308" lon="7.92879">
        <ele>124.75253</ele>
        <time>2023-03-31T13:52:20.875Z</time>
      </trkpt>
      <trkpt lat="48.71342" lon="7.92898">
        <ele>125.007492</ele>
        <time>2023-03-31T13:52:31.947Z</time>
      </trkpt>
      <trkpt lat="48.71418" lon="7.92924">
        <ele>125.554982</ele>
        <time>2023-03-31T13:52:55.629Z</time>
      </trkpt>
      <trkpt lat="48.71435" lon="7.92938">
        <ele>125.68786</ele>
        <time>2023-03-31T13:53:01.426Z</time>
      </trkpt>
      <trkpt lat="48.71442" lon="7.92939">
        <ele>125.74147</ele>
        <time>2023-03-31T13:53:03.825Z</time>
      </trkpt>
      <trkpt lat="48.71467" lon="7.92963">
        <ele>125.939444</ele>
        <time>2023-03-31T13:53:12.689Z</time>
      </trkpt>
      <trkpt lat="48.71493" lon="7.93003">
        <ele>126.193571</ele>
        <time>2023-03-31T13:53:24.087Z</time>
      </trkpt>
      <trkpt lat="48.71508" lon="7.93036">
        <ele>126.371733</ele>
        <time>2023-03-31T13:53:32.108Z</time>
      </trkpt>
      <trkpt lat="48.71531" lon="7.93068">
        <ele>126.581576</ele>
        <time>2023-03-31T13:53:41.564Z</time>
      </trkpt>
      <trkpt lat="48.71606" lon="7.93105">
        <ele>127.036729</ele>
        <time>2023-03-31T13:54:05.805Z</time>
      </trkpt>
      <trkpt lat="48.71608" lon="7.93144">
        <ele>127.147851</ele>
        <time>2023-03-31T13:54:13.644Z</time>
      </trkpt>
      <trkpt lat="48.71615" lon="7.93165">
        <ele>127.216958</ele>
        <time>2023-03-31T13:54:18.514Z</time>
      </trkpt>
      <trkpt lat="48.71666" lon="7.9319">
        <ele>127.448633</ele>
        <time>2023-03-31T13:54:34.691Z</time>
      </trkpt>
      <trkpt lat="48.71741" lon="7.93265">
        <ele>127.659482</ele>
        <time>2023-03-31T13:55:01.596Z</time>
      </trkpt>
      <trkpt lat="48.71761" lon="7.9329">
        <ele>127.654022</ele>
        <time>2023-03-31T13:55:09.349Z</time>
      </trkpt>
      <trkpt lat="48.71859" lon="7.93387">
        <ele>127.633968</ele>
        <time>2023-03-31T13:55:44.430Z</time>
      </trkpt>
      <trkpt lat="48.71873" lon="7.93408">
        <ele>127.663929</ele>
        <time>2023-03-31T13:55:50.307Z</time>
      </trkpt>
      <trkpt lat="48.71935" lon="7.93585">
        <ele>127.866393</ele>
        <time>2023-03-31T13:56:30.013Z</time>
      </trkpt>
      <trkpt lat="48.71956" lon="7.9362">
        <ele>127.932209</ele>
        <time>2023-03-31T13:56:39.308Z</time>
      </trkpt>
      <trkpt lat="48.72258" lon="7.93934">
        <ele>129.582778</ele>
        <time>2023-03-31T13:58:30.811Z</time>
      </trkpt>
      <trkpt lat="48.72172" lon="7.94344">
        <ele>129.133119</ele>
        <time>2023-03-31T13:59:55.615Z</time>
      </trkpt>
      <trkpt lat="48.72433" lon="7.94579">
        <ele>129.162728</ele>
        <time>2023-03-31T14:01:26.226Z</time>
      </trkpt>
      <trkpt lat="48.72772" lon="7.94874">
        <ele>129.722317</ele>
        <time>2023-03-31T14:03:23.663Z</time>
      </trkpt>
      <trkpt lat="48.72762" lon="7.94949">
        <ele>129.811616</ele>
        <time>2023-03-31T14:03:38.860Z</time>
      </trkpt>
      <trkpt lat="48.72759" lon="7.94967">
        <ele>129.833751</ele>
        <time>2023-03-31T14:03:42.603Z</time>
      </trkpt>
      <trkpt lat="48.72757" lon="7.94981">
        <ele>129.850504</ele>
        <time>2023-03-31T14:03:45.412Z</time>
      </trkpt>
      <trkpt lat="48.72791" lon="7.95011">
        <ele>129.953426</ele>
        <time>2023-03-31T14:03:57.260Z</time>
      </trkpt>
      <trkpt lat="48.72795" lon="7.95066">
        <ele>130.069636</ele>
        <time>2023-03-31T14:04:08.205Z</time>
      </trkpt>
      <trkpt lat="48.72793" lon="7.95078">
        <ele>130.096038</ele>
        <time>2023-03-31T14:04:10.730Z</time>
      </trkpt>
      <trkpt lat="48.72739" lon="7.95352">
        <ele>130.410145</ele>
        <time>2023-03-31T14:05:07.694Z</time>
      </trkpt>
      <trkpt lat="48.72767" lon="7.95399">
        <ele>130.385921</ele>
        <time>2023-03-31T14:05:19.953Z</time>
      </trkpt>
      <trkpt lat="48.72806" lon="7.95439">
        <ele>130.358176</ele>
        <time>2023-03-31T14:05:34.031Z</time>
      </trkpt>
      <trkpt lat="48.72846" lon="7.95457">
        <ele>130.103526</ele>
        <time>2023-03-31T14:05:46.606Z</time>
      </trkpt>
      <trkpt lat="48.73086" lon="7.95483">
        <ele>128.417736</ele>
        <time>2023-03-31T14:06:56.803Z</time>
      </trkpt>
      <trkpt lat="48.73382" lon="7.95533">
        <ele>128.779499</ele>
        <time>2023-03-31T14:08:26.870Z</time>
      </trkpt>
      <trkpt lat="48.73408" lon="7.95536">
        <ele>128.816559</ele>
        <time>2023-03-31T14:08:34.786Z</time>
      </trkpt>
      <trkpt lat="48.73517" lon="7.95544">
        <ele>128.971679</ele>
        <time>2023-03-31T14:09:07.751Z</time>
      </trkpt>
      <trkpt lat="48.73629" lon="7.95565">
        <ele>128.08924</ele>
        <time>2023-03-31T14:09:41.084Z</time>
      </trkpt>
      <trkpt lat="48.73661" lon="7.9556">
        <ele>127.780907</ele>
        <time>2023-03-31T14:09:50.130Z</time>
      </trkpt>
      <trkpt lat="48.73671" lon="7.95562">
        <ele>127.676423</ele>
        <time>2023-03-31T14:09:53.200Z</time>
      </trkpt>
      <trkpt lat="48.7368" lon="7.95573">
        <ele>127.564428</ele>
        <time>2023-03-31T14:09:56.415Z</time>
      </trkpt>
      <trkpt lat="48.73808" lon="7.95591">
        <ele>126.697532</ele>
        <time>2023-03-31T14:10:33.777Z</time>
      </trkpt>
      <trkpt lat="48.73842" lon="7.95604">
        <ele>126.501255</ele>
        <time>2023-03-31T14:10:43.935Z</time>
      </trkpt>
      <trkpt lat="48.73994" lon="7.95762">
        <ele>126.483227</ele>
        <time>2023-03-31T14:11:39.714Z</time>
      </trkpt>
      <trkpt lat="48.74076" lon="7.95849">
        <ele>126.406043</ele>
        <time>2023-03-31T14:12:03.495Z</time>
      </trkpt>
      <trkpt lat="48.74097" lon="7.95864">
        <ele>126.334961</ele>
        <time>2023-03-31T14:12:09.175Z</time>
      </trkpt>
      <trkpt lat="48.74141" lon="7.95886">
        <ele>126.200704</ele>
        <time>2023-03-31T14:12:19.862Z</time>
      </trkpt>
      <trkpt lat="48.74199" lon="7.95904">
        <ele>126.046488</ele>
        <time>2023-03-31T14:12:33.866Z</time>
      </trkpt>
      <trkpt lat="48.7451" lon="7.95993">
        <ele>126.492855</ele>
        <time>2023-03-31T14:13:51.135Z</time>
      </trkpt>
      <trkpt lat="48.74639" lon="7.96031">
        <ele>126.304367</ele>
        <time>2023-03-31T14:14:22.557Z</time>
      </trkpt>
      <trkpt lat="48.74697" lon="7.96059">
        <ele>126.146621</ele>
        <time>2023-03-31T14:14:36.751Z</time>
      </trkpt>
      <trkpt lat="48.74739" lon="7.96088">
        <ele>125.967338</ele>
        <time>2023-03-31T14:14:47.709Z</time>
      </trkpt>
      <trkpt lat="48.75251" lon="7.96493">
        <ele>123.10889</ele>
        <time>2023-03-31T14:17:03.045Z</time>
      </trkpt>
      <trkpt lat="48.75349" lon="7.96569">
        <ele>123.042516</ele>
        <time>2023-03-31T14:17:30.040Z</time>
      </trkpt>
      <trkpt lat="48.7536" lon="7.96582">
        <ele>123.031391</ele>
        <time>2023-03-31T14:17:33.354Z</time>
      </trkpt>
      <trkpt lat="48.75476" lon="7.96567">
        <ele>122.803716</ele>
        <time>2023-03-31T14:17:54.633Z</time>
      </trkpt>
      <trkpt lat="48.75492" lon="7.96569">
        <ele>122.773528</ele>
        <time>2023-03-31T14:17:57.412Z</time>
      </trkpt>
      <trkpt lat="48.75544" lon="7.96598">
        <ele>122.608217</ele>
        <time>2023-03-31T14:18:07.007Z</time>
      </trkpt>
      <trkpt lat="48.75553" lon="7.96604">
        <ele>122.528509</ele>
        <time>2023-03-31T14:18:08.846Z</time>
      </trkpt>
      <trkpt lat="48.7554" lon="7.96646">
        <ele>122.296614</ele>
        <time>2023-03-31T14:18:14.143Z</time>
      </trkpt>
      <trkpt lat="48.75532" lon="7.96674">
        <ele>122.13908</ele>
        <time>2023-03-31T14:18:17.793Z</time>
      </trkpt>
      <trkpt lat="48.75526" lon="7.96686">
        <ele>122.062711</ele>
        <time>2023-03-31T14:18:19.452Z</time>
      </trkpt>
      <trkpt lat="48.75524" lon="7.96704">
        <ele>121.969485</ele>
        <time>2023-03-31T14:18:21.485Z</time>
      </trkpt>
      <trkpt lat="48.75536" lon="7.96743">
        <ele>121.753741</ele>
        <time>2023-03-31T14:18:26.179Z</time>
      </trkpt>
      <trkpt lat="48.75539" lon="7.96749">
        <ele>121.711795</ele>
        <time>2023-03-31T14:18:27.108Z</time>
      </trkpt>
      <trkpt lat="48.75557" lon="7.96763">
        <ele>121.564437</ele>
        <time>2023-03-31T14:18:30.424Z</time>
      </trkpt>
      <trkpt lat="48.75559" lon="7.96772">
        <ele>121.511849</ele>
        <time>2023-03-31T14:18:31.543Z</time>
      </trkpt>
      <trkpt lat="48.75559" lon="7.9678">
        <ele>121.472388</ele>
        <time>2023-03-31T14:18:32.365Z</time>
      </trkpt>
      <trkpt lat="48.75573" lon="7.96789">
        <ele>121.350255</ele>
        <time>2023-03-31T14:18:35.164Z</time>
      </trkpt>
      <trkpt lat="48.75586" lon="7.968">
        <ele>121.308711</ele>
        <time>2023-03-31T14:18:37.568Z</time>
      </trkpt>
      <trkpt lat="48.75609" lon="7.96828">
        <ele>121.313269</ele>
        <time>2023-03-31T14:18:42.732Z</time>
      </trkpt>
      <trkpt lat="48.75618" lon="7.96857">
        <ele>121.316557</ele>
        <time>2023-03-31T14:18:45.683Z</time>
      </trkpt>
      <trkpt lat="48.75622" lon="7.96893">
        <ele>121.320251</ele>
        <time>2023-03-31T14:18:49.006Z</time>
      </trkpt>
      <trkpt lat="48.75614" lon="7.96958">
        <ele>121.327098</ele>
        <time>2023-03-31T14:18:55.169Z</time>
      </trkpt>
      <trkpt lat="48.75588" lon="7.97016">
        <ele>121.334166</ele>
        <time>2023-03-31T14:19:01.524Z</time>
      </trkpt>
      <trkpt lat="48.75543" lon="7.9707">
        <ele>121.967151</ele>
        <time>2023-03-31T14:19:09.510Z</time>
      </trkpt>
      <trkpt lat="48.75469" lon="7.97125">
        <ele>122.996488</ele>
        <time>2023-03-31T14:19:21.019Z</time>
      </trkpt>
      <trkpt lat="48.75449" lon="7.97122">
        <ele>123.242543</ele>
        <time>2023-03-31T14:19:25.320Z</time>
      </trkpt>
      <trkpt lat="48.75435" lon="7.9712">
        <ele>123.413354</ele>
        <time>2023-03-31T14:19:28.263Z</time>
      </trkpt>
      <trkpt lat="48.75423" lon="7.97124">
        <ele>123.563504</ele>
        <time>2023-03-31T14:19:30.802Z</time>
      </trkpt>
      <trkpt lat="48.75417" lon="7.97131">
        <ele>123.566516</ele>
        <time>2023-03-31T14:19:32.511Z</time>
      </trkpt>
      <trkpt lat="48.75412" lon="7.97142">
        <ele>123.560484</ele>
        <time>2023-03-31T14:19:34.211Z</time>
      </trkpt>
      <trkpt lat="48.75408" lon="7.97152">
        <ele>123.554809</ele>
        <time>2023-03-31T14:19:35.819Z</time>
      </trkpt>
      <trkpt lat="48.75394" lon="7.97249">
        <ele>123.507665</ele>
        <time>2023-03-31T14:19:47.926Z</time>
      </trkpt>
      <trkpt lat="48.7538" lon="7.97336">
        <ele>123.465091</ele>
        <time>2023-03-31T14:19:58.245Z</time>
      </trkpt>
      <trkpt lat="48.75301" lon="7.97338">
        <ele>123.386884</ele>
        <time>2023-03-31T14:20:11.778Z</time>
      </trkpt>
      <trkpt lat="48.7529" lon="7.97339">
        <ele>123.373466</ele>
        <time>2023-03-31T14:20:13.760Z</time>
      </trkpt>
      <trkpt lat="48.75277" lon="7.97339">
        <ele>123.358873</ele>
        <time>2023-03-31T14:20:15.949Z</time>
      </trkpt>
      <trkpt lat="48.75117" lon="7.97342">
        <ele>123.300518</ele>
        <time>2023-03-31T14:20:46.469Z</time>
      </trkpt>
      <trkpt lat="48.74971" lon="7.97346">
        <ele>123.465318</ele>
        <time>2023-03-31T14:21:13.394Z</time>
      </trkpt>
      <trkpt lat="48.74863" lon="7.97348">
        <ele>123.383984</ele>
        <time>2023-03-31T14:21:33.260Z</time>
      </trkpt>
      <trkpt lat="48.74867" lon="7.97313">
        <ele>123.36632</ele>
        <time>2023-03-31T14:21:37.483Z</time>
      </trkpt>
      <trkpt lat="48.74875" lon="7.9729">
        <ele>123.353388</ele>
        <time>2023-03-31T14:21:40.456Z</time>
      </trkpt>
      <trkpt lat="48.7489" lon="7.97263">
        <ele>123.338574</ele>
        <time>2023-03-31T14:21:44.534Z</time>
      </trkpt>
      <trkpt lat="48.749" lon="7.97235">
        <ele>123.328994</ele>
        <time>2023-03-31T14:21:48.306Z</time>
      </trkpt>
      <trkpt lat="48.7478" lon="7.97224">
        <ele>123.274442</ele>
        <time>2023-03-31T14:22:13.091Z</time>
      </trkpt>
      <trkpt lat="48.7477" lon="7.97226">
        <ele>123.26982</ele>
        <time>2023-03-31T14:22:15.126Z</time>
      </trkpt>
      <trkpt lat="48.74671" lon="7.97222">
        <ele>123.681632</ele>
        <time>2023-03-31T14:22:35.102Z</time>
      </trkpt>
      <trkpt lat="48.74645" lon="7.97193">
        <ele>123.85148</ele>
        <time>2023-03-31T14:22:42.257Z</time>
      </trkpt>
      <trkpt lat="48.74635" lon="7.97211">
        <ele>123.932411</ele>
        <time>2023-03-31T14:22:45.685Z</time>
      </trkpt>
      <trkpt lat="48.74621" lon="7.97279">
        <ele>124.179829</ele>
        <time>2023-03-31T14:22:56.437Z</time>
      </trkpt>
      <trkpt lat="48.74602" lon="7.97343">
        <ele>124.408358</ele>
        <time>2023-03-31T14:23:07.087Z</time>
      </trkpt>
      <trkpt lat="48.74601" lon="7.97354">
        <ele>124.44242</ele>
        <time>2023-03-31T14:23:08.611Z</time>
      </trkpt>
      <trkpt lat="48.74593" lon="7.97354">
        <ele>124.482074</ele>
        <time>2023-03-31T14:23:10.261Z</time>
      </trkpt>
      <trkpt lat="48.74578" lon="7.97355">
        <ele>124.555541</ele>
        <time>2023-03-31T14:23:13.401Z</time>
      </trkpt>
      <trkpt lat="48.74507" lon="7.97356">
        <ele>124.896817</ele>
        <time>2023-03-31T14:23:26.994Z</time>
      </trkpt>
      <trkpt lat="48.74509" lon="7.97323">
        <ele>125.001607</ele>
        <time>2023-03-31T14:23:30.931Z</time>
      </trkpt>
      <trkpt lat="48.74511" lon="7.97302">
        <ele>125.072302</ele>
        <time>2023-03-31T14:23:33.637Z</time>
      </trkpt>
      <trkpt lat="48.74516" lon="7.97291">
        <ele>125.054319</ele>
        <time>2023-03-31T14:23:35.197Z</time>
      </trkpt>
      <trkpt lat="48.74531" lon="7.97269">
        <ele>124.97135</ele>
        <time>2023-03-31T14:23:38.880Z</time>
      </trkpt>
      <trkpt lat="48.74535" lon="7.97258">
        <ele>124.938709</ele>
        <time>2023-03-31T14:23:40.362Z</time>
      </trkpt>
      <trkpt lat="48.7454" lon="7.97241">
        <ele>124.887581</ele>
        <time>2023-03-31T14:23:42.593Z</time>
      </trkpt>
      <trkpt lat="48.74538" lon="7.97166">
        <ele>124.689171</ele>
        <time>2023-03-31T14:23:51.215Z</time>
      </trkpt>
      <trkpt lat="48.74535" lon="7.97148">
        <ele>124.638017</ele>
        <time>2023-03-31T14:23:53.459Z</time>
      </trkpt>
      <trkpt lat="48.74528" lon="7.97132">
        <ele>124.589068</ele>
        <time>2023-03-31T14:23:55.577Z</time>
      </trkpt>
      <trkpt lat="48.74515" lon="7.97123">
        <ele>124.529369</ele>
        <time>2023-03-31T14:23:58.157Z</time>
      </trkpt>
      <trkpt lat="48.74447" lon="7.97114">
        <ele>124.314513</ele>
        <time>2023-03-31T14:24:10.157Z</time>
      </trkpt>
      <trkpt lat="48.74401" lon="7.97114">
        <ele>124.235629</ele>
        <time>2023-03-31T14:24:18.452Z</time>
      </trkpt>
      <trkpt lat="48.7438" lon="7.97114">
        <ele>124.200793</ele>
        <time>2023-03-31T14:24:22.153Z</time>
      </trkpt>
      <trkpt lat="48.74323" lon="7.97114">
        <ele>124.103474</ele>
        <time>2023-03-31T14:24:32.471Z</time>
      </trkpt>
      <trkpt lat="48.74307" lon="7.97102">
        <ele>124.072133</ele>
        <time>2023-03-31T14:24:35.798Z</time>
      </trkpt>
      <trkpt lat="48.74287" lon="7.97073">
        <ele>124.053217</ele>
        <time>2023-03-31T14:24:40.879Z</time>
      </trkpt>
      <trkpt lat="48.74266" lon="7.97028">
        <ele>124.058654</ele>
        <time>2023-03-31T14:24:47.389Z</time>
      </trkpt>
      <trkpt lat="48.74224" lon="7.96983">
        <ele>124.066413</ele>
        <time>2023-03-31T14:24:56.704Z</time>
      </trkpt>
      <trkpt lat="48.74191" lon="7.96939">
        <ele>124.073102</ele>
        <time>2023-03-31T14:25:04.677Z</time>
      </trkpt>
      <trkpt lat="48.74183" lon="7.96934">
        <ele>124.074432</ele>
        <time>2023-03-31T14:25:06.258Z</time>
      </trkpt>
      <trkpt lat="48.74171" lon="7.96931">
        <ele>124.076254</ele>
        <time>2023-03-31T14:25:08.463Z</time>
      </trkpt>
      <trkpt lat="48.73911" lon="7.96953">
        <ele>124.716108</ele>
        <time>2023-03-31T14:25:58.392Z</time>
      </trkpt>
      <trkpt lat="48.73649" lon="7.96974">
        <ele>125.245226</ele>
        <time>2023-03-31T14:26:48.540Z</time>
      </trkpt>
      <trkpt lat="48.73608" lon="7.96978">
        <ele>125.217731</ele>
        <time>2023-03-31T14:26:55.792Z</time>
      </trkpt>
      <trkpt lat="48.73645" lon="7.97033">
        <ele>124.916898</ele>
        <time>2023-03-31T14:27:04.763Z</time>
      </trkpt>
      <trkpt lat="48.73654" lon="7.97055">
        <ele>124.818047</ele>
        <time>2023-03-31T14:27:07.721Z</time>
      </trkpt>
      <trkpt lat="48.73663" lon="7.97136">
        <ele>124.503258</ele>
        <time>2023-03-31T14:27:17.072Z</time>
      </trkpt>
      <trkpt lat="48.73659" lon="7.97279">
        <ele>124.202077</ele>
        <time>2023-03-31T14:27:33.540Z</time>
      </trkpt>
      <trkpt lat="48.73662" lon="7.9737">
        <ele>124.156665</ele>
        <time>2023-03-31T14:27:44.305Z</time>
      </trkpt>
      <trkpt lat="48.73662" lon="7.97386">
        <ele>124.149006</ele>
        <time>2023-03-31T14:27:46.181Z</time>
      </trkpt>
      <trkpt lat="48.7366" lon="7.97408">
        <ele>124.137569</ele>
        <time>2023-03-31T14:27:49.095Z</time>
      </trkpt>
      <trkpt lat="48.7365" lon="7.9746">
        <ele>124.110614</ele>
        <time>2023-03-31T14:27:56.088Z</time>
      </trkpt>
      <trkpt lat="48.73634" lon="7.97498">
        <ele>124.226322</ele>
        <time>2023-03-31T14:28:01.997Z</time>
      </trkpt>
      <trkpt lat="48.7362" lon="7.97525">
        <ele>124.363266</ele>
        <time>2023-03-31T14:28:06.549Z</time>
      </trkpt>
      <trkpt lat="48.73543" lon="7.97648">
        <ele>125.049601</ele>
        <time>2023-03-31T14:28:29.243Z</time>
      </trkpt>
      <trkpt lat="48.73532" lon="7.97665">
        <ele>125.144411</ele>
        <time>2023-03-31T14:28:32.352Z</time>
      </trkpt>
      <trkpt lat="48.73518" lon="7.97685">
        <ele>125.241101</ele>
        <time>2023-03-31T14:28:36.206Z</time>
      </trkpt>
      <trkpt lat="48.73504" lon="7.97715">
        <ele>125.328463</ele>
        <time>2023-03-31T14:28:40.905Z</time>
      </trkpt>
      <trkpt lat="48.73521" lon="7.97813">
        <ele>125.571477</ele>
        <time>2023-03-31T14:28:53.782Z</time>
      </trkpt>
      <trkpt lat="48.73516" lon="7.97854">
        <ele>125.673372</ele>
        <time>2023-03-31T14:28:59.080Z</time>
      </trkpt>
      <trkpt lat="48.73517" lon="7.97878">
        <ele>125.731029</ele>
        <time>2023-03-31T14:29:02.121Z</time>
      </trkpt>
      <trkpt lat="48.73521" lon="7.9791">
        <ele>125.808739</ele>
        <time>2023-03-31T14:29:06.059Z</time>
      </trkpt>
      <trkpt lat="48.73514" lon="7.97908">
        <ele>125.832286</ele>
        <time>2023-03-31T14:29:07.299Z</time>
      </trkpt>
      <trkpt lat="48.73506" lon="7.97886">
        <ele>125.871462</ele>
        <time>2023-03-31T14:29:10.495Z</time>
      </trkpt>
      <trkpt lat="48.73496" lon="7.97876">
        <ele>125.881054</ele>
        <time>2023-03-31T14:29:12.594Z</time>
      </trkpt>
      <trkpt lat="48.73405" lon="7.97858">
        <ele>125.958224</ele>
        <time>2023-03-31T14:29:29.636Z</time>
      </trkpt>
      <trkpt lat="48.73295" lon="7.97857">
        <ele>125.7224</ele>
        <time>2023-03-31T14:29:49.940Z</time>
      </trkpt>
      <trkpt lat="48.73231" lon="7.97871">
        <ele>125.259616</ele>
        <time>2023-03-31T14:30:01.308Z</time>
      </trkpt>
      <trkpt lat="48.73176" lon="7.97901">
        <ele>124.842559</ele>
        <time>2023-03-31T14:30:10.955Z</time>
      </trkpt>
      <trkpt lat="48.73133" lon="7.97938">
        <ele>124.432951</ele>
        <time>2023-03-31T14:30:19.089Z</time>
      </trkpt>
      <trkpt lat="48.73073" lon="7.98009">
        <ele>123.770468</ele>
        <time>2023-03-31T14:30:31.921Z</time>
      </trkpt>
      <trkpt lat="48.73048" lon="7.98054">
        <ele>123.431628</ele>
        <time>2023-03-31T14:30:38.724Z</time>
      </trkpt>
      <trkpt lat="48.73017" lon="7.98129">
        <ele>123.11147</ele>
        <time>2023-03-31T14:30:49.024Z</time>
      </trkpt>
      <trkpt lat="48.73004" lon="7.98162">
        <ele>123.062933</ele>
        <time>2023-03-31T14:30:53.607Z</time>
      </trkpt>
      <trkpt lat="48.72988" lon="7.98218">
        <ele>122.985</ele>
        <time>2023-03-31T14:31:01.406Z</time>
      </trkpt>
      <trkpt lat="48.73284" lon="7.98351">
        <ele>122.228687</ele>
        <time>2023-03-31T14:31:56.122Z</time>
      </trkpt>
      <trkpt lat="48.73305" lon="7.98356">
        <ele>122.22554</ele>
        <time>2023-03-31T14:31:59.963Z</time>
      </trkpt>
      <trkpt lat="48.73328" lon="7.98359">
        <ele>122.222165</ele>
        <time>2023-03-31T14:32:04.126Z</time>
      </trkpt>
      <trkpt lat="48.73358" lon="7.98353">
        <ele>122.217865</ele>
        <time>2023-03-31T14:32:09.488Z</time>
      </trkpt>
      <trkpt lat="48.73358" lon="7.98353">
        <ele>122.217855</ele>
        <time>2023-03-31T14:32:09.491Z</time>
      </trkpt>
      <trkpt lat="48.73358" lon="7.98353">
        <ele>122.217846</ele>
        <time>2023-03-31T14:32:09.494Z</time>
      </trkpt>
      <trkpt lat="48.73328" lon="7.98359">
        <ele>122.213546</ele>
        <time>2023-03-31T14:32:14.989Z</time>
      </trkpt>
      <trkpt lat="48.73305" lon="7.98356">
        <ele>122.210171</ele>
        <time>2023-03-31T14:32:19.418Z</time>
      </trkpt>
      <trkpt lat="48.73284" lon="7.98351">
        <ele>122.304818</ele>
        <time>2023-03-31T14:32:23.615Z</time>
      </trkpt>
      <trkpt lat="48.72988" lon="7.98218">
        <ele>125.17479</ele>
        <time>2023-03-31T14:33:27.971Z</time>
      </trkpt>
      <trkpt lat="48.72968" lon="7.98317">
        <ele>125.774947</ele>
        <time>2023-03-31T14:33:42.223Z</time>
      </trkpt>
      <trkpt lat="48.72921" lon="7.98591">
        <ele>127.069693</ele>
        <time>2023-03-31T14:34:19.493Z</time>
      </trkpt>
      <trkpt lat="48.72873" lon="7.9876">
        <ele>127.789693</ele>
        <time>2023-03-31T14:34:43.511Z</time>
      </trkpt>
      <trkpt lat="48.72796" lon="7.98907">
        <ele>128.405839</ele>
        <time>2023-03-31T14:35:08.795Z</time>
      </trkpt>
      <trkpt lat="48.72707" lon="7.99039">
        <ele>128.494761</ele>
        <time>2023-03-31T14:35:32.207Z</time>
      </trkpt>
      <trkpt lat="48.72654" lon="7.99115">
        <ele>128.009854</ele>
        <time>2023-03-31T14:35:44.957Z</time>
      </trkpt>
      <trkpt lat="48.72611" lon="7.99176">
        <ele>127.617873</ele>
        <time>2023-03-31T14:35:54.830Z</time>
      </trkpt>
      <trkpt lat="48.7259" lon="7.99213">
        <ele>127.258029</ele>
        <time>2023-03-31T14:35:59.932Z</time>
      </trkpt>
      <trkpt lat="48.72574" lon="7.99235">
        <ele>126.993714</ele>
        <time>2023-03-31T14:36:03.406Z</time>
      </trkpt>
      <trkpt lat="48.72555" lon="7.99259">
        <ele>126.697221</ele>
        <time>2023-03-31T14:36:07.414Z</time>
      </trkpt>
      <trkpt lat="48.7248" lon="7.99379">
        <ele>125.422083</ele>
        <time>2023-03-31T14:36:25.727Z</time>
      </trkpt>
      <trkpt lat="48.72473" lon="7.99394">
        <ele>125.384412</ele>
        <time>2023-03-31T14:36:27.856Z</time>
      </trkpt>
      <trkpt lat="48.72463" lon="7.99415">
        <ele>125.332689</ele>
        <time>2023-03-31T14:36:30.769Z</time>
      </trkpt>
      <trkpt lat="48.7243" lon="7.9947">
        <ele>125.183853</ele>
        <time>2023-03-31T14:36:39.493Z</time>
      </trkpt>
      <trkpt lat="48.72344" lon="7.99651">
        <ele>124.830997</ele>
        <time>2023-03-31T14:37:06.269Z</time>
      </trkpt>
      <trkpt lat="48.72343" lon="7.99661">
        <ele>124.823279</ele>
        <time>2023-03-31T14:37:07.501Z</time>
      </trkpt>
      <trkpt lat="48.72346" lon="7.99693">
        <ele>124.798865</ele>
        <time>2023-03-31T14:37:11.341Z</time>
      </trkpt>
      <trkpt lat="48.72344" lon="7.99695">
        <ele>124.795433</ele>
        <time>2023-03-31T14:37:11.880Z</time>
      </trkpt>
      <trkpt lat="48.7232" lon="7.99716">
        <ele>124.763606</ele>
        <time>2023-03-31T14:37:16.916Z</time>
      </trkpt>
      <trkpt lat="48.72263" lon="7.9986">
        <ele>124.678187</ele>
        <time>2023-03-31T14:37:36.909Z</time>
      </trkpt>
      <trkpt lat="48.72235" lon="7.99946">
        <ele>124.672074</ele>
        <time>2023-03-31T14:37:48.370Z</time>
      </trkpt>
      <trkpt lat="48.72195" lon="8.00061">
        <ele>124.660651</ele>
        <time>2023-03-31T14:38:04.297Z</time>
      </trkpt>
      <trkpt lat="48.72191" lon="8.00073">
        <ele>124.656097</ele>
        <time>2023-03-31T14:38:05.981Z</time>
      </trkpt>
      <trkpt lat="48.72187" lon="8.00069">
        <ele>124.653795</ele>
        <time>2023-03-31T14:38:06.839Z</time>
      </trkpt>
      <trkpt lat="48.72182" lon="8.00065">
        <ele>124.65119</ele>
        <time>2023-03-31T14:38:07.805Z</time>
      </trkpt>
      <trkpt lat="48.72174" lon="8.00075">
        <ele>124.646331</ele>
        <time>2023-03-31T14:38:09.619Z</time>
      </trkpt>
      <trkpt lat="48.72163" lon="8.0008">
        <ele>124.640445</ele>
        <time>2023-03-31T14:38:11.786Z</time>
      </trkpt>
      <trkpt lat="48.72158" lon="8.00094">
        <ele>124.635188</ele>
        <time>2023-03-31T14:38:13.716Z</time>
      </trkpt>
      <trkpt lat="48.72161" lon="8.00108">
        <ele>124.630657</ele>
        <time>2023-03-31T14:38:15.373Z</time>
      </trkpt>
      <trkpt lat="48.72164" lon="8.00113">
        <ele>124.628386</ele>
        <time>2023-03-31T14:38:16.215Z</time>
      </trkpt>
      <trkpt lat="48.72163" lon="8.00136">
        <ele>124.620995</ele>
        <time>2023-03-31T14:38:18.900Z</time>
      </trkpt>
      <trkpt lat="48.72155" lon="8.00163">
        <ele>124.611459</ele>
        <time>2023-03-31T14:38:22.406Z</time>
      </trkpt>
      <trkpt lat="48.72154" lon="8.00167">
        <ele>124.609963</ele>
        <time>2023-03-31T14:38:22.953Z</time>
      </trkpt>
      <trkpt lat="48.72101" lon="8.00326">
        <ele>124.719106</ele>
        <time>2023-03-31T14:38:44.236Z</time>
      </trkpt>
      <trkpt lat="48.72097" lon="8.00332">
        <ele>124.735855</ele>
        <time>2023-03-31T14:38:45.352Z</time>
      </trkpt>
      <trkpt lat="48.72047" lon="8.00264">
        <ele>124.934928</ele>
        <time>2023-03-31T14:38:58.390Z</time>
      </trkpt>
      <trkpt lat="48.72038" lon="8.00269">
        <ele>124.961795</ele>
        <time>2023-03-31T14:39:00.175Z</time>
      </trkpt>
      <trkpt lat="48.72031" lon="8.00282">
        <ele>124.995825</ele>
        <time>2023-03-31T14:39:02.481Z</time>
      </trkpt>
      <trkpt lat="48.72025" lon="8.003">
        <ele>125.035642</ele>
        <time>2023-03-31T14:39:05.070Z</time>
      </trkpt>
      <trkpt lat="48.72015" lon="8.00324">
        <ele>125.089576</ele>
        <time>2023-03-31T14:39:08.726Z</time>
      </trkpt>
      <trkpt lat="48.71993" lon="8.00321">
        <ele>125.18664</ele>
        <time>2023-03-31T14:39:13.084Z</time>
      </trkpt>
      <trkpt lat="48.71985" lon="8.00319">
        <ele>125.227738</ele>
        <time>2023-03-31T14:39:14.793Z</time>
      </trkpt>
      <trkpt lat="48.71976" lon="8.00317">
        <ele>125.273391</ele>
        <time>2023-03-31T14:39:16.707Z</time>
      </trkpt>
      <trkpt lat="48.71868" lon="8.00281">
        <ele>125.812418</ele>
        <time>2023-03-31T14:39:38.740Z</time>
      </trkpt>
      <trkpt lat="48.71761" lon="8.00223">
        <ele>126.007028</ele>
        <time>2023-03-31T14:39:59.871Z</time>
      </trkpt>
      <trkpt lat="48.71747" lon="8.00217">
        <ele>126.011097</ele>
        <time>2023-03-31T14:40:02.538Z</time>
      </trkpt>
      <trkpt lat="48.7169" lon="8.00191">
        <ele>126.027722</ele>
        <time>2023-03-31T14:40:13.449Z</time>
      </trkpt>
      <trkpt lat="48.71644" lon="8.00168">
        <ele>126.013792</ele>
        <time>2023-03-31T14:40:22.142Z</time>
      </trkpt>
      <trkpt lat="48.71552" lon="8.00113">
        <ele>125.914106</ele>
        <time>2023-03-31T14:40:40.030Z</time>
      </trkpt>
      <trkpt lat="48.7151" lon="8.001">
        <ele>125.871187</ele>
        <time>2023-03-31T14:40:47.745Z</time>
      </trkpt>
      <trkpt lat="48.71471" lon="8.00093">
        <ele>125.876196</ele>
        <time>2023-03-31T14:40:54.889Z</time>
      </trkpt>
      <trkpt lat="48.71398" lon="8.00089">
        <ele>125.945971</ele>
        <time>2023-03-31T14:41:08.003Z</time>
      </trkpt>
      <trkpt lat="48.71364" lon="8.00082">
        <ele>125.979594</ele>
        <time>2023-03-31T14:41:14.638Z</time>
      </trkpt>
      <trkpt lat="48.71313" lon="8.00082">
        <ele>126.029772</ele>
        <time>2023-03-31T14:41:24.508Z</time>
      </trkpt>
      <trkpt lat="48.7131" lon="8.00083">
        <ele>126.034268</ele>
        <time>2023-03-31T14:41:25.071Z</time>
      </trkpt>
      <trkpt lat="48.71274" lon="8.00087">
        <ele>126.088166</ele>
        <time>2023-03-31T14:41:31.969Z</time>
      </trkpt>
      <trkpt lat="48.71258" lon="8.00096">
        <ele>126.113826</ele>
        <time>2023-03-31T14:41:35.267Z</time>
      </trkpt>
      <trkpt lat="48.71239" lon="8.00101">
        <ele>126.142247</ele>
        <time>2023-03-31T14:41:38.822Z</time>
      </trkpt>
      <trkpt lat="48.71206" lon="8.00109">
        <ele>126.192081</ele>
        <time>2023-03-31T14:41:45.081Z</time>
      </trkpt>
      <trkpt lat="48.71196" lon="8.00105">
        <ele>126.206677</ele>
        <time>2023-03-31T14:41:46.889Z</time>
      </trkpt>
      <trkpt lat="48.71186" lon="8.00097">
        <ele>126.223652</ele>
        <time>2023-03-31T14:41:48.959Z</time>
      </trkpt>
      <trkpt lat="48.71157" lon="8.00069">
        <ele>126.275525</ele>
        <time>2023-03-31T14:41:55.400Z</time>
      </trkpt>
      <trkpt lat="48.71081" lon="7.99982">
        <ele>126.296851</ele>
        <time>2023-03-31T14:42:12.821Z</time>
      </trkpt>
      <trkpt lat="48.71063" lon="7.99962">
        <ele>126.296888</ele>
        <time>2023-03-31T14:42:16.818Z</time>
      </trkpt>
      <trkpt lat="48.71043" lon="8.00032">
        <ele>126.296973</ele>
        <time>2023-03-31T14:42:26.042Z</time>
      </trkpt>
      <trkpt lat="48.71043" lon="8.00032">
        <ele>126.296973</ele>
        <time>2023-03-31T14:42:26.045Z</time>
      </trkpt>
      <trkpt lat="48.7103" lon="8.00056">
        <ele>126.297006</ele>
        <time>2023-03-31T14:42:29.657Z</time>
      </trkpt>
      <trkpt lat="48.71014" lon="8.00081">
        <ele>126.280988</ele>
        <time>2023-03-31T14:42:33.897Z</time>
      </trkpt>
      <trkpt lat="48.70994" lon="8.00138">
        <ele>126.242267</ele>
        <time>2023-03-31T14:42:41.572Z</time>
      </trkpt>
      <trkpt lat="48.70931" lon="8.00377">
        <ele>125.900694</ele>
        <time>2023-03-31T14:43:12.281Z</time>
      </trkpt>
      <trkpt lat="48.70911" lon="8.00433">
        <ele>125.705285</ele>
        <time>2023-03-31T14:43:19.621Z</time>
      </trkpt>
      <trkpt lat="48.7091" lon="8.00434">
        <ele>125.702949</ele>
        <time>2023-03-31T14:43:19.712Z</time>
      </trkpt>
      <trkpt lat="48.70873" lon="8.00535">
        <ele>125.345025</ele>
        <time>2023-03-31T14:43:33.046Z</time>
      </trkpt>
      <trkpt lat="48.70822" lon="8.00734">
        <ele>125.173728</ele>
        <time>2023-03-31T14:43:58.279Z</time>
      </trkpt>
      <trkpt lat="48.70807" lon="8.00784">
        <ele>125.13935</ele>
        <time>2023-03-31T14:44:05.078Z</time>
      </trkpt>
      <trkpt lat="48.70798" lon="8.00804">
        <ele>125.131507</ele>
        <time>2023-03-31T14:44:08.237Z</time>
      </trkpt>
      <trkpt lat="48.70763" lon="8.00859">
        <ele>125.219257</ele>
        <time>2023-03-31T14:44:17.842Z</time>
      </trkpt>
      <trkpt lat="48.7073" lon="8.00898">
        <ele>125.292233</ele>
        <time>2023-03-31T14:44:25.840Z</time>
      </trkpt>
      <trkpt lat="48.70713" lon="8.00928">
        <ele>125.337756</ele>
        <time>2023-03-31T14:44:30.921Z</time>
      </trkpt>
      <trkpt lat="48.70661" lon="8.01064">
        <ele>125.45954</ele>
        <time>2023-03-31T14:44:49.641Z</time>
      </trkpt>
      <trkpt lat="48.70494" lon="8.01306">
        <ele>125.721461</ele>
        <time>2023-03-31T14:45:32.454Z</time>
      </trkpt>
      <trkpt lat="48.70482" lon="8.01321">
        <ele>125.753064</ele>
        <time>2023-03-31T14:45:35.380Z</time>
      </trkpt>
      <trkpt lat="48.70442" lon="8.01376">
        <ele>125.868529</ele>
        <time>2023-03-31T14:45:45.844Z</time>
      </trkpt>
      <trkpt lat="48.7039" lon="8.01432">
        <ele>126.472296</ele>
        <time>2023-03-31T14:45:58.249Z</time>
      </trkpt>
      <trkpt lat="48.70369" lon="8.01465">
        <ele>126.818996</ele>
        <time>2023-03-31T14:46:04.304Z</time>
      </trkpt>
      <trkpt lat="48.7035" lon="8.01517">
        <ele>127.275625</ele>
        <time>2023-03-31T14:46:12.792Z</time>
      </trkpt>
      <trkpt lat="48.70334" lon="8.01572">
        <ele>127.738477</ele>
        <time>2023-03-31T14:46:21.738Z</time>
      </trkpt>
      <trkpt lat="48.70317" lon="8.01658">
        <ele>128.445749</ele>
        <time>2023-03-31T14:46:35.101Z</time>
      </trkpt>
      <trkpt lat="48.7031" lon="8.01676">
        <ele>128.616359</ele>
        <time>2023-03-31T14:46:38.273Z</time>
      </trkpt>
      <trkpt lat="48.70284" lon="8.01694">
        <ele>128.971403</ele>
        <time>2023-03-31T14:46:44.828Z</time>
      </trkpt>
      <trkpt lat="48.70247" lon="8.01705">
        <ele>129.4288</ele>
        <time>2023-03-31T14:46:52.971Z</time>
      </trkpt>
      <trkpt lat="48.70218" lon="8.01715">
        <ele>129.793024</ele>
        <time>2023-03-31T14:46:59.109Z</time>
      </trkpt>
      <trkpt lat="48.70177" lon="8.01738">
        <ele>130.02561</ele>
        <time>2023-03-31T14:47:07.106Z</time>
      </trkpt>
      <trkpt lat="48.70145" lon="8.01765">
        <ele>129.502859</ele>
        <time>2023-03-31T14:47:13.491Z</time>
      </trkpt>
      <trkpt lat="48.70106" lon="8.01825">
        <ele>128.709914</ele>
        <time>2023-03-31T14:47:22.310Z</time>
      </trkpt>
      <trkpt lat="48.70099" lon="8.01841">
        <ele>128.537257</ele>
        <time>2023-03-31T14:47:24.181Z</time>
      </trkpt>
      <trkpt lat="48.70092" lon="8.01906">
        <ele>127.920305</ele>
        <time>2023-03-31T14:47:30.656Z</time>
      </trkpt>
      <trkpt lat="48.70088" lon="8.01932">
        <ele>127.664286</ele>
        <time>2023-03-31T14:47:33.319Z</time>
      </trkpt>
      <trkpt lat="48.69953" lon="8.02193">
        <ele>125.765443</ele>
        <time>2023-03-31T14:48:10.263Z</time>
      </trkpt>
      <trkpt lat="48.69815" lon="8.02447">
        <ele>127.081562</ele>
        <time>2023-03-31T14:48:54.960Z</time>
      </trkpt>
      <trkpt lat="48.698" lon="8.0248">
        <ele>127.337081</ele>
        <time>2023-03-31T14:49:00.593Z</time>
      </trkpt>
      <trkpt lat="48.69791" lon="8.02512">
        <ele>127.565357</ele>
        <time>2023-03-31T14:49:05.590Z</time>
      </trkpt>
      <trkpt lat="48.69772" lon="8.02663">
        <ele>128.373094</ele>
        <time>2023-03-31T14:49:26.601Z</time>
      </trkpt>
      <trkpt lat="48.69752" lon="8.02829">
        <ele>129.012095</ele>
        <time>2023-03-31T14:49:48.557Z</time>
      </trkpt>
      <trkpt lat="48.6973" lon="8.03043">
        <ele>129.910073</ele>
        <time>2023-03-31T14:50:15.621Z</time>
      </trkpt>
      <trkpt lat="48.69717" lon="8.03056">
        <ele>130.012897</ele>
        <time>2023-03-31T14:50:18.982Z</time>
      </trkpt>
      <trkpt lat="48.69662" lon="8.03078">
        <ele>130.415507</ele>
        <time>2023-03-31T14:50:31.176Z</time>
      </trkpt>
      <trkpt lat="48.69612" lon="8.03078">
        <ele>130.902016</ele>
        <time>2023-03-31T14:50:42.092Z</time>
      </trkpt>
      <trkpt lat="48.69607" lon="8.03083">
        <ele>130.961917</ele>
        <time>2023-03-31T14:50:43.430Z</time>
      </trkpt>
      <trkpt lat="48.69605" lon="8.03091">
        <ele>131.014753</ele>
        <time>2023-03-31T14:50:44.627Z</time>
      </trkpt>
      <trkpt lat="48.69602" lon="8.0311">
        <ele>131.140213</ele>
        <time>2023-03-31T14:50:47.435Z</time>
      </trkpt>
      <trkpt lat="48.69598" lon="8.0315">
        <ele>131.393267</ele>
        <time>2023-03-31T14:50:52.991Z</time>
      </trkpt>
      <trkpt lat="48.69595" lon="8.03188">
        <ele>131.636506</ele>
        <time>2023-03-31T14:50:58.184Z</time>
      </trkpt>
      <trkpt lat="48.69588" lon="8.03286">
        <ele>131.853435</ele>
        <time>2023-03-31T14:51:10.892Z</time>
      </trkpt>
      <trkpt lat="48.6959" lon="8.03317">
        <ele>131.692857</ele>
        <time>2023-03-31T14:51:14.773Z</time>
      </trkpt>
      <trkpt lat="48.69607" lon="8.03393">
        <ele>131.28994</ele>
        <time>2023-03-31T14:51:23.826Z</time>
      </trkpt>
      <trkpt lat="48.69601" lon="8.03418">
        <ele>131.157633</ele>
        <time>2023-03-31T14:51:26.598Z</time>
      </trkpt>
      <trkpt lat="48.69537" lon="8.03525">
        <ele>130.411995</ele>
        <time>2023-03-31T14:51:42.320Z</time>
      </trkpt>
      <trkpt lat="48.69508" lon="8.03574">
        <ele>130.05272</ele>
        <time>2023-03-31T14:51:49.719Z</time>
      </trkpt>
      <trkpt lat="48.69506" lon="8.03584">
        <ele>129.994823</ele>
        <time>2023-03-31T14:51:50.902Z</time>
      </trkpt>
      <trkpt lat="48.69507" lon="8.03597">
        <ele>129.926042</ele>
        <time>2023-03-31T14:51:52.321Z</time>
      </trkpt>
      <trkpt lat="48.69528" lon="8.03631">
        <ele>129.671379</ele>
        <time>2023-03-31T14:51:57.570Z</time>
      </trkpt>
      <trkpt lat="48.69536" lon="8.03648">
        <ele>129.56186</ele>
        <time>2023-03-31T14:51:59.861Z</time>
      </trkpt>
      <trkpt lat="48.69567" lon="8.03769">
        <ele>129.112144</ele>
        <time>2023-03-31T14:52:14.962Z</time>
      </trkpt>
      <trkpt lat="48.69581" lon="8.03848">
        <ele>129.02383</ele>
        <time>2023-03-31T14:52:25.759Z</time>
      </trkpt>
      <trkpt lat="48.69582" lon="8.0387">
        <ele>129.000605</ele>
        <time>2023-03-31T14:52:28.417Z</time>
      </trkpt>
      <trkpt lat="48.69568" lon="8.03879">
        <ele>128.976427</ele>
        <time>2023-03-31T14:52:31.159Z</time>
      </trkpt>
      <trkpt lat="48.69555" lon="8.03879">
        <ele>128.954276</ele>
        <time>2023-03-31T14:52:33.636Z</time>
      </trkpt>
      <trkpt lat="48.69502" lon="8.03843">
        <ele>128.755593</ele>
        <time>2023-03-31T14:52:43.806Z</time>
      </trkpt>
      <trkpt lat="48.695" lon="8.03846">
        <ele>128.737108</ele>
        <time>2023-03-31T14:52:44.163Z</time>
      </trkpt>
      <trkpt lat="48.69491" lon="8.03841">
        <ele>128.652576</ele>
        <time>2023-03-31T14:52:45.832Z</time>
      </trkpt>
      <trkpt lat="48.6949" lon="8.0384">
        <ele>128.637653</ele>
        <time>2023-03-31T14:52:46.119Z</time>
      </trkpt>
      <trkpt lat="48.69286" lon="8.03739">
        <ele>126.887567</ele>
        <time>2023-03-31T14:53:22.442Z</time>
      </trkpt>
      <trkpt lat="48.69257" lon="8.0373">
        <ele>126.683077</ele>
        <time>2023-03-31T14:53:27.590Z</time>
      </trkpt>
      <trkpt lat="48.69231" lon="8.03727">
        <ele>126.510758</ele>
        <time>2023-03-31T14:53:31.965Z</time>
      </trkpt>
      <trkpt lat="48.69171" lon="8.0373">
        <ele>126.100148</ele>
        <time>2023-03-31T14:53:42.595Z</time>
      </trkpt>
      <trkpt lat="48.68953" lon="8.03751">
        <ele>127.341048</ele>
        <time>2023-03-31T14:54:24.458Z</time>
      </trkpt>
      <trkpt lat="48.68933" lon="8.0376">
        <ele>127.774237</ele>
        <time>2023-03-31T14:54:29.116Z</time>
      </trkpt>
      <trkpt lat="48.68922" lon="8.03784">
        <ele>128.173335</ele>
        <time>2023-03-31T14:54:33.544Z</time>
      </trkpt>
      <trkpt lat="48.68899" lon="8.03857">
        <ele>129.27285</ele>
        <time>2023-03-31T14:54:46.113Z</time>
      </trkpt>
      <trkpt lat="48.68878" lon="8.04005">
        <ele>131.472527</ele>
        <time>2023-03-31T14:55:10.535Z</time>
      </trkpt>
      <trkpt lat="48.68877" lon="8.04017">
        <ele>131.662203</ele>
        <time>2023-03-31T14:55:12.537Z</time>
      </trkpt>
      <trkpt lat="48.68876" lon="8.04024">
        <ele>131.777536</ele>
        <time>2023-03-31T14:55:13.794Z</time>
      </trkpt>
      <trkpt lat="48.68852" lon="8.04206">
        <ele>134.481197</ele>
        <time>2023-03-31T14:55:41.939Z</time>
      </trkpt>
      <trkpt lat="48.68835" lon="8.04263">
        <ele>134.257371</ele>
        <time>2023-03-31T14:55:49.843Z</time>
      </trkpt>
      <trkpt lat="48.68828" lon="8.04272">
        <ele>134.209328</ele>
        <time>2023-03-31T14:55:51.456Z</time>
      </trkpt>
      <trkpt lat="48.68729" lon="8.04414">
        <ele>133.329403</ele>
        <time>2023-03-31T14:56:14.164Z</time>
      </trkpt>
      <trkpt lat="48.68717" lon="8.04429">
        <ele>133.051865</ele>
        <time>2023-03-31T14:56:16.672Z</time>
      </trkpt>
      <trkpt lat="48.68666" lon="8.04504">
        <ele>131.828657</ele>
        <time>2023-03-31T14:56:27.714Z</time>
      </trkpt>
      <trkpt lat="48.68616" lon="8.04569">
        <ele>130.711087</ele>
        <time>2023-03-31T14:56:38.005Z</time>
      </trkpt>
      <trkpt lat="48.68579" lon="8.04591">
        <ele>130.16713</ele>
        <time>2023-03-31T14:56:44.407Z</time>
      </trkpt>
      <trkpt lat="48.6849" lon="8.04634">
        <ele>129.086002</ele>
        <time>2023-03-31T14:56:59.938Z</time>
      </trkpt>
      <trkpt lat="48.68482" lon="8.04635">
        <ele>128.997706</ele>
        <time>2023-03-31T14:57:01.228Z</time>
      </trkpt>
      <trkpt lat="48.68472" lon="8.04594">
        <ele>128.659384</ele>
        <time>2023-03-31T14:57:06.278Z</time>
      </trkpt>
      <trkpt lat="48.68446" lon="8.04522">
        <ele>128.334879</ele>
        <time>2023-03-31T14:57:15.670Z</time>
      </trkpt>
      <trkpt lat="48.6841" lon="8.04431">
        <ele>128.218333</ele>
        <time>2023-03-31T14:57:28.204Z</time>
      </trkpt>
      <trkpt lat="48.68342" lon="8.04276">
        <ele>128.141682</ele>
        <time>2023-03-31T14:57:51.258Z</time>
      </trkpt>
      <trkpt lat="48.68277" lon="8.04141">
        <ele>128.283435</ele>
        <time>2023-03-31T14:58:11.825Z</time>
      </trkpt>
      <trkpt lat="48.68246" lon="8.04093">
        <ele>128.314591</ele>
        <time>2023-03-31T14:58:20.083Z</time>
      </trkpt>
      <trkpt lat="48.6821" lon="8.04048">
        <ele>128.309445</ele>
        <time>2023-03-31T14:58:28.750Z</time>
      </trkpt>
      <trkpt lat="48.68166" lon="8.04016">
        <ele>128.304122</ele>
        <time>2023-03-31T14:58:37.695Z</time>
      </trkpt>
      <trkpt lat="48.68129" lon="8.03997">
        <ele>128.299846</ele>
        <time>2023-03-31T14:58:44.747Z</time>
      </trkpt>
      <trkpt lat="48.68062" lon="8.03942">
        <ele>128.173429</ele>
        <time>2023-03-31T14:58:58.321Z</time>
      </trkpt>
      <trkpt lat="48.68015" lon="8.0388">
        <ele>128.014659</ele>
        <time>2023-03-31T14:59:09.524Z</time>
      </trkpt>
      <trkpt lat="48.67959" lon="8.03789">
        <ele>127.835944</ele>
        <time>2023-03-31T14:59:24.229Z</time>
      </trkpt>
      <trkpt lat="48.67956" lon="8.03783">
        <ele>127.834042</ele>
        <time>2023-03-31T14:59:25.139Z</time>
      </trkpt>
      <trkpt lat="48.67951" lon="8.03775">
        <ele>127.831503</ele>
        <time>2023-03-31T14:59:26.321Z</time>
      </trkpt>
      <trkpt lat="48.67906" lon="8.03692">
        <ele>127.804307</ele>
        <time>2023-03-31T14:59:39.111Z</time>
      </trkpt>
      <trkpt lat="48.67878" lon="8.03635">
        <ele>127.786434</ele>
        <time>2023-03-31T14:59:47.715Z</time>
      </trkpt>
      <trkpt lat="48.67863" lon="8.03591">
        <ele>127.773915</ele>
        <time>2023-03-31T14:59:53.936Z</time>
      </trkpt>
      <trkpt lat="48.67851" lon="8.03542">
        <ele>127.835405</ele>
        <time>2023-03-31T15:00:00.528Z</time>
      </trkpt>
      <trkpt lat="48.67844" lon="8.03497">
        <ele>127.898456</ele>
        <time>2023-03-31T15:00:06.388Z</time>
      </trkpt>
      <trkpt lat="48.67833" lon="8.03401">
        <ele>128.029652</ele>
        <time>2023-03-31T15:00:18.415Z</time>
      </trkpt>
      <trkpt lat="48.67827" lon="8.03265">
        <ele>128.291271</ele>
        <time>2023-03-31T15:00:35.430Z</time>
      </trkpt>
      <trkpt lat="48.67831" lon="8.03091">
        <ele>128.774299</ele>
        <time>2023-03-31T15:00:57.807Z</time>
      </trkpt>
      <trkpt lat="48.67839" lon="8.02994">
        <ele>129.050709</ele>
        <time>2023-03-31T15:01:10.666Z</time>
      </trkpt>
      <trkpt lat="48.67852" lon="8.02869">
        <ele>129.411363</ele>
        <time>2023-03-31T15:01:27.362Z</time>
      </trkpt>
      <trkpt lat="48.67864" lon="8.02693">
        <ele>129.523631</ele>
        <time>2023-03-31T15:01:49.232Z</time>
      </trkpt>
      <trkpt lat="48.67698" lon="8.02702">
        <ele>128.958601</ele>
        <time>2023-03-31T15:02:18.613Z</time>
      </trkpt>
      <trkpt lat="48.67667" lon="8.02699">
        <ele>128.790918</ele>
        <time>2023-03-31T15:02:23.894Z</time>
      </trkpt>
      <trkpt lat="48.67599" lon="8.02655">
        <ele>128.383966</ele>
        <time>2023-03-31T15:02:36.686Z</time>
      </trkpt>
      <trkpt lat="48.67489" lon="8.02578">
        <ele>128.243995</ele>
        <time>2023-03-31T15:02:58.439Z</time>
      </trkpt>
      <trkpt lat="48.67463" lon="8.02561">
        <ele>128.255804</ele>
        <time>2023-03-31T15:03:03.578Z</time>
      </trkpt>
      <trkpt lat="48.67434" lon="8.02549">
        <ele>128.268975</ele>
        <time>2023-03-31T15:03:09.463Z</time>
      </trkpt>
      <trkpt lat="48.67409" lon="8.0255">
        <ele>128.27935</ele>
        <time>2023-03-31T15:03:14.224Z</time>
      </trkpt>
      <trkpt lat="48.67391" lon="8.02556">
        <ele>128.318126</ele>
        <time>2023-03-31T15:03:17.938Z</time>
      </trkpt>
      <trkpt lat="48.67285" lon="8.02605">
        <ele>128.69377</ele>
        <time>2023-03-31T15:03:39.877Z</time>
      </trkpt>
      <trkpt lat="48.67281" lon="8.02607">
        <ele>128.709975</ele>
        <time>2023-03-31T15:03:40.798Z</time>
      </trkpt>
      <trkpt lat="48.67259" lon="8.02611">
        <ele>128.78391</ele>
        <time>2023-03-31T15:03:44.944Z</time>
      </trkpt>
      <trkpt lat="48.67226" lon="8.02603">
        <ele>128.891274</ele>
        <time>2023-03-31T15:03:51.083Z</time>
      </trkpt>
      <trkpt lat="48.67135" lon="8.02538">
        <ele>128.538429</ele>
        <time>2023-03-31T15:04:09.035Z</time>
      </trkpt>
      <trkpt lat="48.67" lon="8.02481">
        <ele>128.227883</ele>
        <time>2023-03-31T15:04:33.635Z</time>
      </trkpt>
      <trkpt lat="48.66958" lon="8.0248">
        <ele>128.202044</ele>
        <time>2023-03-31T15:04:41.164Z</time>
      </trkpt>
      <trkpt lat="48.66808" lon="8.02488">
        <ele>128.363932</ele>
        <time>2023-03-31T15:05:10.049Z</time>
      </trkpt>
      <trkpt lat="48.66728" lon="8.02521">
        <ele>128.59689</ele>
        <time>2023-03-31T15:05:25.651Z</time>
      </trkpt>
      <trkpt lat="48.66673" lon="8.02543">
        <ele>128.811447</ele>
        <time>2023-03-31T15:05:36.369Z</time>
      </trkpt>
      <trkpt lat="48.66576" lon="8.02546">
        <ele>129.242823</ele>
        <time>2023-03-31T15:05:55.532Z</time>
      </trkpt>
      <trkpt lat="48.66459" lon="8.02549">
        <ele>129.835667</ele>
        <time>2023-03-31T15:06:18.772Z</time>
      </trkpt>
      <trkpt lat="48.66442" lon="8.0255">
        <ele>129.928026</ele>
        <time>2023-03-31T15:06:22.198Z</time>
      </trkpt>
      <trkpt lat="48.6639" lon="8.02552">
        <ele>130.219934</ele>
        <time>2023-03-31T15:06:33.109Z</time>
      </trkpt>
      <trkpt lat="48.66346" lon="8.02552">
        <ele>130.454461</ele>
        <time>2023-03-31T15:06:41.655Z</time>
      </trkpt>
      <trkpt lat="48.66337" lon="8.02509">
        <ele>130.482649</ele>
        <time>2023-03-31T15:06:47.151Z</time>
      </trkpt>
      <trkpt lat="48.66327" lon="8.02461">
        <ele>130.514001</ele>
        <time>2023-03-31T15:06:53.042Z</time>
      </trkpt>
      <trkpt lat="48.66295" lon="8.02306">
        <ele>130.616144</ele>
        <time>2023-03-31T15:07:13.049Z</time>
      </trkpt>
      <trkpt lat="48.66293" lon="8.02297">
        <ele>130.622025</ele>
        <time>2023-03-31T15:07:14.181Z</time>
      </trkpt>
      <trkpt lat="48.66271" lon="8.02198">
        <ele>131.053334</ele>
        <time>2023-03-31T15:07:26.954Z</time>
      </trkpt>
      <trkpt lat="48.66252" lon="8.02112">
        <ele>131.434402</ele>
        <time>2023-03-31T15:07:39.045Z</time>
      </trkpt>
      <trkpt lat="48.66242" lon="8.0204">
        <ele>131.743921</ele>
        <time>2023-03-31T15:07:49.393Z</time>
      </trkpt>
      <trkpt lat="48.66238" lon="8.01991">
        <ele>131.88341</ele>
        <time>2023-03-31T15:07:56.504Z</time>
      </trkpt>
      <trkpt lat="48.66226" lon="8.01882">
        <ele>132.181451</ele>
        <time>2023-03-31T15:08:11.411Z</time>
      </trkpt>
      <trkpt lat="48.66223" lon="8.01834">
        <ele>132.30985</ele>
        <time>2023-03-31T15:08:16.953Z</time>
      </trkpt>
      <trkpt lat="48.66216" lon="8.0179">
        <ele>132.432741</ele>
        <time>2023-03-31T15:08:22.371Z</time>
      </trkpt>
      <trkpt lat="48.66217" lon="8.01781">
        <ele>132.457262</ele>
        <time>2023-03-31T15:08:23.413Z</time>
      </trkpt>
      <trkpt lat="48.66233" lon="8.0175">
        <ele>132.443393</ele>
        <time>2023-03-31T15:08:28.071Z</time>
      </trkpt>
      <trkpt lat="48.66239" lon="8.0172">
        <ele>132.371632</ele>
        <time>2023-03-31T15:08:31.780Z</time>
      </trkpt>
      <trkpt lat="48.66244" lon="8.01708">
        <ele>132.339866</ele>
        <time>2023-03-31T15:08:33.421Z</time>
      </trkpt>
      <trkpt lat="48.6626" lon="8.01684">
        <ele>132.263245</ele>
        <time>2023-03-31T15:08:37.340Z</time>
      </trkpt>
      <trkpt lat="48.66265" lon="8.0166">
        <ele>132.206089</ele>
        <time>2023-03-31T15:08:48.912Z</time>
      </trkpt>
      <trkpt lat="48.66267" lon="8.0164">
        <ele>132.160802</ele>
        <time>2023-03-31T15:08:58.097Z</time>
      </trkpt>
      <trkpt lat="48.66261" lon="8.01646">
        <ele>132.137116</ele>
        <time>2023-03-31T15:09:00.171Z</time>
      </trkpt>
      <trkpt lat="48.66015" lon="8.01639">
        <ele>131.781654</ele>
        <time>2023-03-31T15:10:13.818Z</time>
      </trkpt>
      <trkpt lat="48.65964" lon="8.01632">
        <ele>131.90782</ele>
        <time>2023-03-31T15:10:29.397Z</time>
      </trkpt>
      <trkpt lat="48.65897" lon="8.01607">
        <ele>132.114364</ele>
        <time>2023-03-31T15:10:50.244Z</time>
      </trkpt>
      <trkpt lat="48.65871" lon="8.01601">
        <ele>132.193513</ele>
        <time>2023-03-31T15:10:58.184Z</time>
      </trkpt>
      <trkpt lat="48.65809" lon="8.01597">
        <ele>132.229517</ele>
        <time>2023-03-31T15:11:16.726Z</time>
      </trkpt>
      <trkpt lat="48.65768" lon="8.016">
        <ele>132.043858</ele>
        <time>2023-03-31T15:11:29.068Z</time>
      </trkpt>
      <trkpt lat="48.65709" lon="8.01598">
        <ele>131.776567</ele>
        <time>2023-03-31T15:11:46.824Z</time>
      </trkpt>
      <trkpt lat="48.65687" lon="8.01586">
        <ele>131.672809</ele>
        <time>2023-03-31T15:11:53.700Z</time>
      </trkpt>
      <trkpt lat="48.65543" lon="8.0143">
        <ele>130.16517</ele>
        <time>2023-03-31T15:12:45.153Z</time>
      </trkpt>
      <trkpt lat="48.65504" lon="8.01411">
        <ele>129.78103</ele>
        <time>2023-03-31T15:12:57.384Z</time>
      </trkpt>
      <trkpt lat="48.65449" lon="8.0141">
        <ele>129.600315</ele>
        <time>2023-03-31T15:13:13.560Z</time>
      </trkpt>
      <trkpt lat="48.65382" lon="8.01441">
        <ele>129.366487</ele>
        <time>2023-03-31T15:13:34.624Z</time>
      </trkpt>
      <trkpt lat="48.65352" lon="8.01439">
        <ele>129.269556</ele>
        <time>2023-03-31T15:13:43.358Z</time>
      </trkpt>
      <trkpt lat="48.65306" lon="8.01418">
        <ele>129.28946</ele>
        <time>2023-03-31T15:13:57.929Z</time>
      </trkpt>
      <trkpt lat="48.65265" lon="8.01408">
        <ele>129.450892</ele>
        <time>2023-03-31T15:14:10.609Z</time>
      </trkpt>
      <trkpt lat="48.6515" lon="8.01414">
        <ele>129.890815</ele>
        <time>2023-03-31T15:14:45.386Z</time>
      </trkpt>
      <trkpt lat="48.65116" lon="8.01416">
        <ele>129.999277</ele>
        <time>2023-03-31T15:14:55.741Z</time>
      </trkpt>
      <trkpt lat="48.65089" lon="8.01409">
        <ele>130.086935</ele>
        <time>2023-03-31T15:15:04.082Z</time>
      </trkpt>
      <trkpt lat="48.65029" lon="8.01367">
        <ele>130.297401</ele>
        <time>2023-03-31T15:15:24.026Z</time>
      </trkpt>
      <trkpt lat="48.65007" lon="8.0136">
        <ele>130.369039</ele>
        <time>2023-03-31T15:15:30.765Z</time>
      </trkpt>
      <trkpt lat="48.64994" lon="8.01361">
        <ele>130.412135</ele>
        <time>2023-03-31T15:15:34.821Z</time>
      </trkpt>
      <trkpt lat="48.64903" lon="8.0139">
        <ele>130.527323</ele>
        <time>2023-03-31T15:16:02.600Z</time>
      </trkpt>
      <trkpt lat="48.64859" lon="8.01394">
        <ele>130.566138</ele>
        <time>2023-03-31T15:16:15.906Z</time>
      </trkpt>
      <trkpt lat="48.64706" lon="8.0135">
        <ele>130.797654</ele>
        <time>2023-03-31T15:17:02.578Z</time>
      </trkpt>
      <trkpt lat="48.64702" lon="8.01356">
        <ele>130.807549</ele>
        <time>2023-03-31T15:17:03.687Z</time>
      </trkpt>
      <trkpt lat="48.64696" lon="8.01383">
        <ele>130.842385</ele>
        <time>2023-03-31T15:17:07.168Z</time>
      </trkpt>
      <trkpt lat="48.64691" lon="8.01379">
        <ele>130.853713</ele>
        <time>2023-03-31T15:17:08.285Z</time>
      </trkpt>
      <trkpt lat="48.64668" lon="8.01363">
        <ele>130.899481</ele>
        <time>2023-03-31T15:17:12.881Z</time>
      </trkpt>
      <trkpt lat="48.64666" lon="8.01361">
        <ele>130.904596</ele>
        <time>2023-03-31T15:17:13.407Z</time>
      </trkpt>
      <trkpt lat="48.64641" lon="8.01342">
        <ele>130.967886</ele>
        <time>2023-03-31T15:17:18.740Z</time>
      </trkpt>
      <trkpt lat="48.64635" lon="8.01329">
        <ele>131.011593</ele>
        <time>2023-03-31T15:17:20.667Z</time>
      </trkpt>
      <trkpt lat="48.64617" lon="8.01315">
        <ele>131.098277</ele>
        <time>2023-03-31T15:17:24.537Z</time>
      </trkpt>
      <trkpt lat="48.64592" lon="8.01291">
        <ele>131.231658</ele>
        <time>2023-03-31T15:17:30.621Z</time>
      </trkpt>
      <trkpt lat="48.6456" lon="8.01244">
        <ele>131.426931</ele>
        <time>2023-03-31T15:17:39.528Z</time>
      </trkpt>
      <trkpt lat="48.64544" lon="8.01221">
        <ele>131.522897</ele>
        <time>2023-03-31T15:17:43.846Z</time>
      </trkpt>
      <trkpt lat="48.64506" lon="8.01178">
        <ele>131.730153</ele>
        <time>2023-03-31T15:17:52.978Z</time>
      </trkpt>
      <trkpt lat="48.64473" lon="8.01144">
        <ele>131.810665</ele>
        <time>2023-03-31T15:18:00.514Z</time>
      </trkpt>
      <trkpt lat="48.64413" lon="8.01092">
        <ele>131.944833</ele>
        <time>2023-03-31T15:18:13.921Z</time>
      </trkpt>
      <trkpt lat="48.64381" lon="8.01073">
        <ele>132.01129</ele>
        <time>2023-03-31T15:18:20.364Z</time>
      </trkpt>
      <trkpt lat="48.64317" lon="8.01034">
        <ele>132.011365</ele>
        <time>2023-03-31T15:18:32.849Z</time>
      </trkpt>
      <trkpt lat="48.64274" lon="8.01004">
        <ele>131.897713</ele>
        <time>2023-03-31T15:18:41.376Z</time>
      </trkpt>
      <trkpt lat="48.64237" lon="8.00986">
        <ele>131.807297</ele>
        <time>2023-03-31T15:18:48.188Z</time>
      </trkpt>
      <trkpt lat="48.64062" lon="8.01005">
        <ele>131.558217</ele>
        <time>2023-03-31T15:19:19.710Z</time>
      </trkpt>
      <trkpt lat="48.64044" lon="8.00997">
        <ele>131.542234</ele>
        <time>2023-03-31T15:19:23.051Z</time>
      </trkpt>
      <trkpt lat="48.63946" lon="8.0093">
        <ele>131.673139</ele>
        <time>2023-03-31T15:19:43.246Z</time>
      </trkpt>
      <trkpt lat="48.63931" lon="8.00922">
        <ele>131.718519</ele>
        <time>2023-03-31T15:19:46.184Z</time>
      </trkpt>
      <trkpt lat="48.63749" lon="8.00803">
        <ele>132.165034</ele>
        <time>2023-03-31T15:20:24.678Z</time>
      </trkpt>
      <trkpt lat="48.63725" lon="8.00794">
        <ele>132.204096</ele>
        <time>2023-03-31T15:20:29.478Z</time>
      </trkpt>
      <trkpt lat="48.63706" lon="8.00794">
        <ele>132.231987</ele>
        <time>2023-03-31T15:20:32.813Z</time>
      </trkpt>
      <trkpt lat="48.63618" lon="8.00832">
        <ele>132.149343</ele>
        <time>2023-03-31T15:20:49.258Z</time>
      </trkpt>
      <trkpt lat="48.63607" lon="8.00833">
        <ele>132.114326</ele>
        <time>2023-03-31T15:20:51.292Z</time>
      </trkpt>
      <trkpt lat="48.63605" lon="8.00841">
        <ele>132.097924</ele>
        <time>2023-03-31T15:20:52.252Z</time>
      </trkpt>
      <trkpt lat="48.6345" lon="8.0095">
        <ele>131.782189</ele>
        <time>2023-03-31T15:21:26.269Z</time>
      </trkpt>
      <trkpt lat="48.63292" lon="8.01085">
        <ele>131.991646</ele>
        <time>2023-03-31T15:22:04.502Z</time>
      </trkpt>
      <trkpt lat="48.63271" lon="8.01107">
        <ele>132.056344</ele>
        <time>2023-03-31T15:22:09.945Z</time>
      </trkpt>
      <trkpt lat="48.62832" lon="8.01586">
        <ele>133.658846</ele>
        <time>2023-03-31T15:24:03.414Z</time>
      </trkpt>
      <trkpt lat="48.62824" lon="8.01593">
        <ele>133.70995</ele>
        <time>2023-03-31T15:24:05.609Z</time>
      </trkpt>
      <trkpt lat="48.62801" lon="8.01618">
        <ele>133.866428</ele>
        <time>2023-03-31T15:24:12.109Z</time>
      </trkpt>
      <trkpt lat="48.627" lon="8.0171">
        <ele>134.290823</ele>
        <time>2023-03-31T15:24:37.768Z</time>
      </trkpt>
      <trkpt lat="48.62657" lon="8.01751">
        <ele>134.392492</ele>
        <time>2023-03-31T15:24:47.517Z</time>
      </trkpt>
      <trkpt lat="48.6264" lon="8.01772">
        <ele>134.435987</ele>
        <time>2023-03-31T15:24:51.698Z</time>
      </trkpt>
      <trkpt lat="48.626" lon="8.01825">
        <ele>134.499888</ele>
        <time>2023-03-31T15:25:01.267Z</time>
      </trkpt>
      <trkpt lat="48.62578" lon="8.0185">
        <ele>134.406694</ele>
        <time>2023-03-31T15:25:05.991Z</time>
      </trkpt>
      <trkpt lat="48.62555" lon="8.01871">
        <ele>134.314512</ele>
        <time>2023-03-31T15:25:10.621Z</time>
      </trkpt>
      <trkpt lat="48.62531" lon="8.01883">
        <ele>134.22818</ele>
        <time>2023-03-31T15:25:15.027Z</time>
      </trkpt>
      <trkpt lat="48.62503" lon="8.01892">
        <ele>134.127695</ele>
        <time>2023-03-31T15:25:20.848Z</time>
      </trkpt>
      <trkpt lat="48.62369" lon="8.01896">
        <ele>134.275495</ele>
        <time>2023-03-31T15:25:47.748Z</time>
      </trkpt>
      <trkpt lat="48.62372" lon="8.01903">
        <ele>134.303566</ele>
        <time>2023-03-31T15:25:48.867Z</time>
      </trkpt>
      <trkpt lat="48.62381" lon="8.01907">
        <ele>134.350069</ele>
        <time>2023-03-31T15:25:50.735Z</time>
      </trkpt>
      <trkpt lat="48.62418" lon="8.01907">
        <ele>134.546267</ele>
        <time>2023-03-31T15:25:58.897Z</time>
      </trkpt>
      <trkpt lat="48.62471" lon="8.01913">
        <ele>134.822547</ele>
        <time>2023-03-31T15:26:11.004Z</time>
      </trkpt>
      <trkpt lat="48.62512" lon="8.01907">
        <ele>135.427531</ele>
        <time>2023-03-31T15:26:20.826Z</time>
      </trkpt>
      <trkpt lat="48.62522" lon="8.01911">
        <ele>135.589792</ele>
        <time>2023-03-31T15:26:23.215Z</time>
      </trkpt>
      <trkpt lat="48.62527" lon="8.01924">
        <ele>135.746464</ele>
        <time>2023-03-31T15:26:25.631Z</time>
      </trkpt>
      <trkpt lat="48.62529" lon="8.01936">
        <ele>135.880358</ele>
        <time>2023-03-31T15:26:27.656Z</time>
      </trkpt>
      <trkpt lat="48.62537" lon="8.02072">
        <ele>137.312454</ele>
        <time>2023-03-31T15:26:49.009Z</time>
      </trkpt>
      <trkpt lat="48.62538" lon="8.02092">
        <ele>137.518703</ele>
        <time>2023-03-31T15:26:52.155Z</time>
      </trkpt>
      <trkpt lat="48.62541" lon="8.02105">
        <ele>137.670461</ele>
        <time>2023-03-31T15:26:54.372Z</time>
      </trkpt>
      <trkpt lat="48.62651" lon="8.02308">
        <ele>139.516931</ele>
        <time>2023-03-31T15:27:33.923Z</time>
      </trkpt>
      <trkpt lat="48.62618" lon="8.02355">
        <ele>139.372885</ele>
        <time>2023-03-31T15:27:43.555Z</time>
      </trkpt>
      <trkpt lat="48.62611" lon="8.02369">
        <ele>139.298133</ele>
        <time>2023-03-31T15:27:45.942Z</time>
      </trkpt>
      <trkpt lat="48.62599" lon="8.02408">
        <ele>139.11436</ele>
        <time>2023-03-31T15:27:51.654Z</time>
      </trkpt>
      <trkpt lat="48.6258" lon="8.02512">
        <ele>138.657262</ele>
        <time>2023-03-31T15:28:05.214Z</time>
      </trkpt>
      <trkpt lat="48.62569" lon="8.02529">
        <ele>138.553821</ele>
        <time>2023-03-31T15:28:08.106Z</time>
      </trkpt>
      <trkpt lat="48.62543" lon="8.02556">
        <ele>138.164829</ele>
        <time>2023-03-31T15:28:13.677Z</time>
      </trkpt>
      <trkpt lat="48.62593" lon="8.02693">
        <ele>136.197322</ele>
        <time>2023-03-31T15:28:29.338Z</time>
      </trkpt>
      <trkpt lat="48.62595" lon="8.02698">
        <ele>136.112025</ele>
        <time>2023-03-31T15:28:30.018Z</time>
      </trkpt>
      <trkpt lat="48.62674" lon="8.02907">
        <ele>134.102843</ele>
        <time>2023-03-31T15:28:55.335Z</time>
      </trkpt>
      <trkpt lat="48.62683" lon="8.02929">
        <ele>133.948166</ele>
        <time>2023-03-31T15:28:58.395Z</time>
      </trkpt>
      <trkpt lat="48.62689" lon="8.02945">
        <ele>133.8362</ele>
        <time>2023-03-31T15:29:00.613Z</time>
      </trkpt>
      <trkpt lat="48.62758" lon="8.03129">
        <ele>133.693998</ele>
        <time>2023-03-31T15:29:26.688Z</time>
      </trkpt>
      <trkpt lat="48.6282" lon="8.03183">
        <ele>133.932855</ele>
        <time>2023-03-31T15:29:40.995Z</time>
      </trkpt>
      <trkpt lat="48.62823" lon="8.03192">
        <ele>133.954767</ele>
        <time>2023-03-31T15:29:42.331Z</time>
      </trkpt>
      <trkpt lat="48.62821" lon="8.03204">
        <ele>133.98114</ele>
        <time>2023-03-31T15:29:43.945Z</time>
      </trkpt>
      <trkpt lat="48.62803" lon="8.0327">
        <ele>134.136118</ele>
        <time>2023-03-31T15:29:53.193Z</time>
      </trkpt>
      <trkpt lat="48.62831" lon="8.03291">
        <ele>134.241225</ele>
        <time>2023-03-31T15:29:59.804Z</time>
      </trkpt>
      <trkpt lat="48.62861" lon="8.03304">
        <ele>134.342796</ele>
        <time>2023-03-31T15:30:06.111Z</time>
      </trkpt>
      <trkpt lat="48.62991" lon="8.03311">
        <ele>134.474771</ele>
        <time>2023-03-31T15:30:31.282Z</time>
      </trkpt>
      <trkpt lat="48.63018" lon="8.03324">
        <ele>134.420891</ele>
        <time>2023-03-31T15:30:36.582Z</time>
      </trkpt>
      <trkpt lat="48.63042" lon="8.03418">
        <ele>134.292256</ele>
        <time>2023-03-31T15:30:49.166Z</time>
      </trkpt>
      <trkpt lat="48.63053" lon="8.03439">
        <ele>134.259106</ele>
        <time>2023-03-31T15:30:52.422Z</time>
      </trkpt>
      <trkpt lat="48.63118" lon="8.0353">
        <ele>134.25303</ele>
        <time>2023-03-31T15:31:09.186Z</time>
      </trkpt>
      <trkpt lat="48.63121" lon="8.03534">
        <ele>134.253617</ele>
        <time>2023-03-31T15:31:09.799Z</time>
      </trkpt>
      <trkpt lat="48.63127" lon="8.03542">
        <ele>134.255123</ele>
        <time>2023-03-31T15:31:11.364Z</time>
      </trkpt>
      <trkpt lat="48.63129" lon="8.03543">
        <ele>134.255488</ele>
        <time>2023-03-31T15:31:11.749Z</time>
      </trkpt>
      <trkpt lat="48.631" lon="8.03596">
        <ele>134.263776</ele>
        <time>2023-03-31T15:31:20.687Z</time>
      </trkpt>
      <trkpt lat="48.63097" lon="8.03612">
        <ele>134.265674</ele>
        <time>2023-03-31T15:31:22.783Z</time>
      </trkpt>
      <trkpt lat="48.63099" lon="8.03624">
        <ele>134.267211</ele>
        <time>2023-03-31T15:31:24.488Z</time>
      </trkpt>
      <trkpt lat="48.63123" lon="8.03679">
        <ele>134.415119</ele>
        <time>2023-03-31T15:31:33.445Z</time>
      </trkpt>
      <trkpt lat="48.63131" lon="8.03719">
        <ele>134.614364</ele>
        <time>2023-03-31T15:31:39.133Z</time>
      </trkpt>
      <trkpt lat="48.63133" lon="8.03763">
        <ele>134.826747</ele>
        <time>2023-03-31T15:31:45.278Z</time>
      </trkpt>
      <trkpt lat="48.63132" lon="8.03843">
        <ele>135.216479</ele>
        <time>2023-03-31T15:31:56.641Z</time>
      </trkpt>
      <trkpt lat="48.63138" lon="8.03921">
        <ele>135.595626</ele>
        <time>2023-03-31T15:32:07.844Z</time>
      </trkpt>
      <trkpt lat="48.63133" lon="8.03947">
        <ele>135.710012</ele>
        <time>2023-03-31T15:32:11.505Z</time>
      </trkpt>
      <trkpt lat="48.63116" lon="8.03995">
        <ele>135.943488</ele>
        <time>2023-03-31T15:32:18.909Z</time>
      </trkpt>
      <trkpt lat="48.63042" lon="8.0405">
        <ele>136.470201</ele>
        <time>2023-03-31T15:32:35.534Z</time>
      </trkpt>
      <trkpt lat="48.62982" lon="8.04074">
        <ele>136.778009</ele>
        <time>2023-03-31T15:32:47.453Z</time>
      </trkpt>
      <trkpt lat="48.62964" lon="8.0409">
        <ele>136.814557</ele>
        <time>2023-03-31T15:32:51.310Z</time>
      </trkpt>
      <trkpt lat="48.62945" lon="8.04115">
        <ele>136.857857</ele>
        <time>2023-03-31T15:32:55.904Z</time>
      </trkpt>
      <trkpt lat="48.62888" lon="8.04175">
        <ele>136.978065</ele>
        <time>2023-03-31T15:33:08.650Z</time>
      </trkpt>
      <trkpt lat="48.62873" lon="8.04203">
        <ele>137.019742</ele>
        <time>2023-03-31T15:33:13.192Z</time>
      </trkpt>
      <trkpt lat="48.62857" lon="8.04239">
        <ele>137.094094</ele>
        <time>2023-03-31T15:33:18.749Z</time>
      </trkpt>
      <trkpt lat="48.62814" lon="8.04306">
        <ele>137.390255</ele>
        <time>2023-03-31T15:33:30.423Z</time>
      </trkpt>
      <trkpt lat="48.62791" lon="8.04357">
        <ele>137.587693</ele>
        <time>2023-03-31T15:33:38.447Z</time>
      </trkpt>
      <trkpt lat="48.62763" lon="8.04392">
        <ele>137.762105</ele>
        <time>2023-03-31T15:33:45.707Z</time>
      </trkpt>
      <trkpt lat="48.62732" lon="8.04405">
        <ele>137.919995</ele>
        <time>2023-03-31T15:33:52.454Z</time>
      </trkpt>
      <trkpt lat="48.62692" lon="8.04428">
        <ele>138.164821</ele>
        <time>2023-03-31T15:34:01.083Z</time>
      </trkpt>
      <trkpt lat="48.62687" lon="8.04431">
        <ele>138.196802</ele>
        <time>2023-03-31T15:34:02.207Z</time>
      </trkpt>
      <trkpt lat="48.62666" lon="8.0445">
        <ele>138.340709</ele>
        <time>2023-03-31T15:34:07.185Z</time>
      </trkpt>
      <trkpt lat="48.62598" lon="8.04528">
        <ele>138.838289</ele>
        <time>2023-03-31T15:34:23.852Z</time>
      </trkpt>
      <trkpt lat="48.62568" lon="8.04569">
        <ele>139.067277</ele>
        <time>2023-03-31T15:34:31.941Z</time>
      </trkpt>
      <trkpt lat="48.62535" lon="8.04605">
        <ele>139.274929</ele>
        <time>2023-03-31T15:34:39.665Z</time>
      </trkpt>
      <trkpt lat="48.62512" lon="8.04637">
        <ele>139.434342</ele>
        <time>2023-03-31T15:34:45.347Z</time>
      </trkpt>
      <trkpt lat="48.62492" lon="8.04673">
        <ele>139.596614</ele>
        <time>2023-03-31T15:34:51.528Z</time>
      </trkpt>
      <trkpt lat="48.62491" lon="8.04689">
        <ele>139.649263</ele>
        <time>2023-03-31T15:34:53.636Z</time>
      </trkpt>
      <trkpt lat="48.62493" lon="8.04696">
        <ele>139.677928</ele>
        <time>2023-03-31T15:34:54.817Z</time>
      </trkpt>
      <trkpt lat="48.62522" lon="8.04738">
        <ele>139.883408</ele>
        <time>2023-03-31T15:35:03.105Z</time>
      </trkpt>
      <trkpt lat="48.62513" lon="8.04737">
        <ele>139.943399</ele>
        <time>2023-03-31T15:35:05.060Z</time>
      </trkpt>
      <trkpt lat="48.62506" lon="8.04731">
        <ele>140.000378</ele>
        <time>2023-03-31T15:35:06.687Z</time>
      </trkpt>
      <trkpt lat="48.62482" lon="8.04697">
        <ele>140.248033</ele>
        <time>2023-03-31T15:35:13.757Z</time>
      </trkpt>
      <trkpt lat="48.62478" lon="8.04697">
        <ele>140.276947</ele>
        <time>2023-03-31T15:35:14.550Z</time>
      </trkpt>
      <trkpt lat="48.62476" lon="8.04701">
        <ele>140.299837</ele>
        <time>2023-03-31T15:35:15.174Z</time>
      </trkpt>
      <trkpt lat="48.62462" lon="8.04734">
        <ele>140.495635</ele>
        <time>2023-03-31T15:35:20.595Z</time>
      </trkpt>
      <trkpt lat="48.62457" lon="8.0475">
        <ele>140.579332</ele>
        <time>2023-03-31T15:35:23.400Z</time>
      </trkpt>
      <trkpt lat="48.62455" lon="8.04773">
        <ele>140.692328</ele>
        <time>2023-03-31T15:35:27.293Z</time>
      </trkpt>
      <trkpt lat="48.6245" lon="8.04777">
        <ele>140.735596</ele>
        <time>2023-03-31T15:35:28.725Z</time>
      </trkpt>
      <trkpt lat="48.62446" lon="8.04787">
        <ele>140.79139</ele>
        <time>2023-03-31T15:35:30.615Z</time>
      </trkpt>
      <trkpt lat="48.62426" lon="8.04789">
        <ele>140.943667</ele>
        <time>2023-03-31T15:35:34.819Z</time>
      </trkpt>
      <trkpt lat="48.62401" lon="8.04797">
        <ele>141.130938</ele>
        <time>2023-03-31T15:35:39.933Z</time>
      </trkpt>
      <trkpt lat="48.62367" lon="8.04827">
        <ele>141.538601</ele>
        <time>2023-03-31T15:35:48.169Z</time>
      </trkpt>
      <trkpt lat="48.62352" lon="8.04857">
        <ele>141.842202</ele>
        <time>2023-03-31T15:35:53.541Z</time>
      </trkpt>
      <trkpt lat="48.62335" lon="8.04936">
        <ele>142.496416</ele>
        <time>2023-03-31T15:36:04.666Z</time>
      </trkpt>
      <trkpt lat="48.62328" lon="8.04967">
        <ele>142.754952</ele>
        <time>2023-03-31T15:36:08.980Z</time>
      </trkpt>
      <trkpt lat="48.62295" lon="8.05089">
        <ele>143.945593</ele>
        <time>2023-03-31T15:36:28.659Z</time>
      </trkpt>
      <trkpt lat="48.62279" lon="8.05076">
        <ele>144.233522</ele>
        <time>2023-03-31T15:36:32.683Z</time>
      </trkpt>
      <trkpt lat="48.62256" lon="8.05131">
        <ele>144.928117</ele>
        <time>2023-03-31T15:36:42.468Z</time>
      </trkpt>
      <trkpt lat="48.62248" lon="8.05136">
        <ele>145.071208</ele>
        <time>2023-03-31T15:36:44.796Z</time>
      </trkpt>
      <trkpt lat="48.62249" lon="8.05135">
        <ele>145.088717</ele>
        <time>2023-03-31T15:36:45.069Z</time>
      </trkpt>
      <trkpt lat="48.62226" lon="8.05209">
        <ele>145.972465</ele>
        <time>2023-03-31T15:36:59.207Z</time>
      </trkpt>
      <trkpt lat="48.62229" lon="8.05211">
        <ele>146.031668</ele>
        <time>2023-03-31T15:37:00.050Z</time>
      </trkpt>
      <trkpt lat="48.62228" lon="8.05214">
        <ele>146.060795</ele>
        <time>2023-03-31T15:37:00.456Z</time>
      </trkpt>
      <trkpt lat="48.62223" lon="8.05231">
        <ele>146.269123</ele>
        <time>2023-03-31T15:37:03.180Z</time>
      </trkpt>
      <trkpt lat="48.62208" lon="8.05281">
        <ele>146.492956</ele>
        <time>2023-03-31T15:37:10.647Z</time>
      </trkpt>
      <trkpt lat="48.62197" lon="8.05323">
        <ele>146.652369</ele>
        <time>2023-03-31T15:37:16.815Z</time>
      </trkpt>
      <trkpt lat="48.62185" lon="8.05357">
        <ele>146.792307</ele>
        <time>2023-03-31T15:37:22.049Z</time>
      </trkpt>
      <trkpt lat="48.62113" lon="8.0547">
        <ele>147.326424</ele>
        <time>2023-03-31T15:37:41.491Z</time>
      </trkpt>
      <trkpt lat="48.62073" lon="8.05525">
        <ele>147.489818</ele>
        <time>2023-03-31T15:37:51.228Z</time>
      </trkpt>
      <trkpt lat="48.6205" lon="8.0555">
        <ele>147.575843</ele>
        <time>2023-03-31T15:37:56.404Z</time>
      </trkpt>
      <trkpt lat="48.62007" lon="8.05579">
        <ele>147.717565</ele>
        <time>2023-03-31T15:38:05.591Z</time>
      </trkpt>
      <trkpt lat="48.61975" lon="8.05604">
        <ele>147.823549</ele>
        <time>2023-03-31T15:38:12.923Z</time>
      </trkpt>
      <trkpt lat="48.61952" lon="8.05628">
        <ele>148.185254</ele>
        <time>2023-03-31T15:38:18.758Z</time>
      </trkpt>
      <trkpt lat="48.61941" lon="8.05649">
        <ele>148.425867</ele>
        <time>2023-03-31T15:38:22.508Z</time>
      </trkpt>
      <trkpt lat="48.61928" lon="8.05664">
        <ele>148.654606</ele>
        <time>2023-03-31T15:38:25.888Z</time>
      </trkpt>
      <trkpt lat="48.61913" lon="8.05674">
        <ele>148.872222</ele>
        <time>2023-03-31T15:38:29.318Z</time>
      </trkpt>
      <trkpt lat="48.61896" lon="8.05697">
        <ele>149.184078</ele>
        <time>2023-03-31T15:38:34.050Z</time>
      </trkpt>
      <trkpt lat="48.61883" lon="8.05728">
        <ele>149.516932</ele>
        <time>2023-03-31T15:38:39.292Z</time>
      </trkpt>
      <trkpt lat="48.61864" lon="8.05763">
        <ele>149.927168</ele>
        <time>2023-03-31T15:38:45.881Z</time>
      </trkpt>
      <trkpt lat="48.61836" lon="8.05817">
        <ele>150.932242</ele>
        <time>2023-03-31T15:38:56.509Z</time>
      </trkpt>
      <trkpt lat="48.61817" lon="8.05843">
        <ele>151.806633</ele>
        <time>2023-03-31T15:39:02.609Z</time>
      </trkpt>
      <trkpt lat="48.61812" lon="8.05847">
        <ele>152.012812</ele>
        <time>2023-03-31T15:39:03.978Z</time>
      </trkpt>
      <trkpt lat="48.61765" lon="8.05884">
        <ele>153.827121</ele>
        <time>2023-03-31T15:39:16.939Z</time>
      </trkpt>
      <trkpt lat="48.61753" lon="8.05891">
        <ele>154.270431</ele>
        <time>2023-03-31T15:39:20.313Z</time>
      </trkpt>
      <trkpt lat="48.61733" lon="8.05911">
        <ele>155.085752</ele>
        <time>2023-03-31T15:39:26.511Z</time>
      </trkpt>
      <trkpt lat="48.61722" lon="8.05922">
        <ele>155.530317</ele>
        <time>2023-03-31T15:39:30.048Z</time>
      </trkpt>
      <trkpt lat="48.61692" lon="8.05954">
        <ele>156.916189</ele>
        <time>2023-03-31T15:39:40.190Z</time>
      </trkpt>
      <trkpt lat="48.6168" lon="8.05962">
        <ele>157.510535</ele>
        <time>2023-03-31T15:39:43.719Z</time>
      </trkpt>
      <trkpt lat="48.61643" lon="8.06085">
        <ele>161.643785</ele>
        <time>2023-03-31T15:40:09.514Z</time>
      </trkpt>
      <trkpt lat="48.61623" lon="8.06174">
        <ele>164.4676</ele>
        <time>2023-03-31T15:40:26.736Z</time>
      </trkpt>
      <trkpt lat="48.61534" lon="8.06416">
        <ele>169.395126</ele>
        <time>2023-03-31T15:41:11.250Z</time>
      </trkpt>
      <trkpt lat="48.61518" lon="8.06448">
        <ele>169.702374</ele>
        <time>2023-03-31T15:41:16.953Z</time>
      </trkpt>
      <trkpt lat="48.61518" lon="8.06448">
        <ele>169.702374</ele>
        <time>2023-03-31T15:41:16.954Z</time>
      </trkpt>
      <trkpt lat="48.61445" lon="8.06548">
        <ele>170.7464</ele>
        <time>2023-03-31T15:41:38.345Z</time>
      </trkpt>
      <trkpt lat="48.61423" lon="8.06587">
        <ele>171.107453</ele>
        <time>2023-03-31T15:41:45.666Z</time>
      </trkpt>
      <trkpt lat="48.61396" lon="8.06645">
        <ele>171.407354</ele>
        <time>2023-03-31T15:41:55.219Z</time>
      </trkpt>
      <trkpt lat="48.61389" lon="8.06665">
        <ele>171.447638</ele>
        <time>2023-03-31T15:41:58.384Z</time>
      </trkpt>
      <trkpt lat="48.6138" lon="8.06701">
        <ele>171.514743</ele>
        <time>2023-03-31T15:42:03.521Z</time>
      </trkpt>
      <trkpt lat="48.61369" lon="8.06781">
        <ele>171.657956</ele>
        <time>2023-03-31T15:42:14.596Z</time>
      </trkpt>
      <trkpt lat="48.61355" lon="8.06847">
        <ele>171.778876</ele>
        <time>2023-03-31T15:42:23.498Z</time>
      </trkpt>
      <trkpt lat="48.61371" lon="8.06893">
        <ele>171.639673</ele>
        <time>2023-03-31T15:42:30.025Z</time>
      </trkpt>
      <trkpt lat="48.61388" lon="8.0688">
        <ele>171.451258</ele>
        <time>2023-03-31T15:42:33.693Z</time>
      </trkpt>
      <trkpt lat="48.61395" lon="8.06896">
        <ele>171.330381</ele>
        <time>2023-03-31T15:42:36.045Z</time>
      </trkpt>
      <trkpt lat="48.614" lon="8.06912">
        <ele>171.219771</ele>
        <time>2023-03-31T15:42:38.124Z</time>
      </trkpt>
      <trkpt lat="48.6138" lon="8.06932">
        <ele>170.987424</ele>
        <time>2023-03-31T15:42:42.589Z</time>
      </trkpt>
      <trkpt lat="48.614" lon="8.07068">
        <ele>170.10739</ele>
        <time>2023-03-31T15:42:58.919Z</time>
      </trkpt>
      <trkpt lat="48.61411" lon="8.07173">
        <ele>168.316283</ele>
        <time>2023-03-31T15:43:10.439Z</time>
      </trkpt>
      <trkpt lat="48.61432" lon="8.07272">
        <ele>166.564756</ele>
        <time>2023-03-31T15:43:21.092Z</time>
      </trkpt>
      <trkpt lat="48.61437" lon="8.07313">
        <ele>165.861798</ele>
        <time>2023-03-31T15:43:25.250Z</time>
      </trkpt>
      <trkpt lat="48.61462" lon="8.07434">
        <ele>163.521624</ele>
        <time>2023-03-31T15:43:38.021Z</time>
      </trkpt>
      <trkpt lat="48.61463" lon="8.07453">
        <ele>163.161926</ele>
        <time>2023-03-31T15:43:39.961Z</time>
      </trkpt>
      <trkpt lat="48.6146" lon="8.07512">
        <ele>162.05597</ele>
        <time>2023-03-31T15:43:46.010Z</time>
      </trkpt>
      <trkpt lat="48.61458" lon="8.07562">
        <ele>161.113239</ele>
        <time>2023-03-31T15:43:51.243Z</time>
      </trkpt>
      <trkpt lat="48.61456" lon="8.0775">
        <ele>159.443935</ele>
        <time>2023-03-31T15:44:12.155Z</time>
      </trkpt>
      <trkpt lat="48.61459" lon="8.07789">
        <ele>159.191161</ele>
        <time>2023-03-31T15:44:17.010Z</time>
      </trkpt>
      <trkpt lat="48.61457" lon="8.07806">
        <ele>159.079761</ele>
        <time>2023-03-31T15:44:19.219Z</time>
      </trkpt>
      <trkpt lat="48.61428" lon="8.07853">
        <ele>158.669847</ele>
        <time>2023-03-31T15:44:27.489Z</time>
      </trkpt>
      <trkpt lat="48.61468" lon="8.079">
        <ele>159.169729</ele>
        <time>2023-03-31T15:44:37.327Z</time>
      </trkpt>
      <trkpt lat="48.61465" lon="8.07905">
        <ele>159.217012</ele>
        <time>2023-03-31T15:44:38.758Z</time>
      </trkpt>
      <trkpt lat="48.6145" lon="8.07925">
        <ele>159.418786</ele>
        <time>2023-03-31T15:44:42.879Z</time>
      </trkpt>
      <trkpt lat="48.61408" lon="8.07972">
        <ele>159.955143</ele>
        <time>2023-03-31T15:44:53.957Z</time>
      </trkpt>
      <trkpt lat="48.61314" lon="8.08052">
        <ele>161.2964</ele>
        <time>2023-03-31T15:45:17.886Z</time>
      </trkpt>
      <trkpt lat="48.61228" lon="8.08224">
        <ele>163.25039</ele>
        <time>2023-03-31T15:45:48.781Z</time>
      </trkpt>
      <trkpt lat="48.61226" lon="8.08238">
        <ele>163.325585</ele>
        <time>2023-03-31T15:45:50.684Z</time>
      </trkpt>
      <trkpt lat="48.61236" lon="8.08242">
        <ele>163.405456</ele>
        <time>2023-03-31T15:45:52.695Z</time>
      </trkpt>
      <trkpt lat="48.61247" lon="8.08253">
        <ele>163.509072</ele>
        <time>2023-03-31T15:45:55.359Z</time>
      </trkpt>
      <trkpt lat="48.61193" lon="8.08436">
        <ele>164.594142</ele>
        <time>2023-03-31T15:46:21.898Z</time>
      </trkpt>
      <trkpt lat="48.61177" lon="8.08472">
        <ele>165.266393</ele>
        <time>2023-03-31T15:46:27.446Z</time>
      </trkpt>
      <trkpt lat="48.61135" lon="8.08532">
        <ele>166.642613</ele>
        <time>2023-03-31T15:46:39.875Z</time>
      </trkpt>
      <trkpt lat="48.6114" lon="8.08538">
        <ele>166.788538</ele>
        <time>2023-03-31T15:46:41.304Z</time>
      </trkpt>
      <trkpt lat="48.6115" lon="8.08555">
        <ele>167.142857</ele>
        <time>2023-03-31T15:46:45.956Z</time>
      </trkpt>
      <trkpt lat="48.61155" lon="8.08563">
        <ele>167.319713</ele>
        <time>2023-03-31T15:46:47.723Z</time>
      </trkpt>
      <trkpt lat="48.61137" lon="8.0859">
        <ele>167.926854</ele>
        <time>2023-03-31T15:46:56.126Z</time>
      </trkpt>
      <trkpt lat="48.61117" lon="8.08623">
        <ele>168.630002</ele>
        <time>2023-03-31T15:47:06.507Z</time>
      </trkpt>
      <trkpt lat="48.61107" lon="8.08642">
        <ele>169.130553</ele>
        <time>2023-03-31T15:47:11.930Z</time>
      </trkpt>
      <trkpt lat="48.61062" lon="8.0869">
        <ele>171.253503</ele>
        <time>2023-03-31T15:47:31.348Z</time>
      </trkpt>
      <trkpt lat="48.61052" lon="8.08706">
        <ele>171.791549</ele>
        <time>2023-03-31T15:47:35.936Z</time>
      </trkpt>
      <trkpt lat="48.61041" lon="8.08718">
        <ele>172.304313</ele>
        <time>2023-03-31T15:47:40.621Z</time>
      </trkpt>
      <trkpt lat="48.61022" lon="8.08728">
        <ele>173.086634</ele>
        <time>2023-03-31T15:47:47.267Z</time>
      </trkpt>
      <trkpt lat="48.6101" lon="8.08748">
        <ele>173.751053</ele>
        <time>2023-03-31T15:47:53.217Z</time>
      </trkpt>
      <trkpt lat="48.60991" lon="8.0874">
        <ele>174.506748</ele>
        <time>2023-03-31T15:47:57.951Z</time>
      </trkpt>
      <trkpt lat="48.6096" lon="8.08743">
        <ele>175.668404</ele>
        <time>2023-03-31T15:48:05.743Z</time>
      </trkpt>
      <trkpt lat="48.60932" lon="8.08752">
        <ele>175.853408</ele>
        <time>2023-03-31T15:48:12.529Z</time>
      </trkpt>
      <trkpt lat="48.6091" lon="8.08764">
        <ele>176.003287</ele>
        <time>2023-03-31T15:48:17.538Z</time>
      </trkpt>
      <trkpt lat="48.60878" lon="8.08787">
        <ele>176.233778</ele>
        <time>2023-03-31T15:48:24.893Z</time>
      </trkpt>
      <trkpt lat="48.60847" lon="8.08816">
        <ele>176.468939</ele>
        <time>2023-03-31T15:48:31.152Z</time>
      </trkpt>
      <trkpt lat="48.60816" lon="8.08868">
        <ele>176.770543</ele>
        <time>2023-03-31T15:48:39.074Z</time>
      </trkpt>
      <trkpt lat="48.60809" lon="8.08888">
        <ele>176.860155</ele>
        <time>2023-03-31T15:48:41.669Z</time>
      </trkpt>
      <trkpt lat="48.60803" lon="8.08915">
        <ele>176.959806</ele>
        <time>2023-03-31T15:48:45.010Z</time>
      </trkpt>
      <trkpt lat="48.60805" lon="8.08963">
        <ele>177.122992</ele>
        <time>2023-03-31T15:48:51.051Z</time>
      </trkpt>
      <trkpt lat="48.60803" lon="8.08975">
        <ele>177.165713</ele>
        <time>2023-03-31T15:48:52.647Z</time>
      </trkpt>
      <trkpt lat="48.60687" lon="8.09206">
        <ele>178.650535</ele>
        <time>2023-03-31T15:49:32.926Z</time>
      </trkpt>
      <trkpt lat="48.6066" lon="8.09344">
        <ele>179.752817</ele>
        <time>2023-03-31T15:49:53.031Z</time>
      </trkpt>
      <trkpt lat="48.60659" lon="8.09368">
        <ele>180.025042</ele>
        <time>2023-03-31T15:49:56.395Z</time>
      </trkpt>
      <trkpt lat="48.60665" lon="8.09438">
        <ele>181.145594</ele>
        <time>2023-03-31T15:50:06.504Z</time>
      </trkpt>
      <trkpt lat="48.60652" lon="8.09482">
        <ele>181.920362</ele>
        <time>2023-03-31T15:50:13.724Z</time>
      </trkpt>
      <trkpt lat="48.60636" lon="8.09536">
        <ele>182.847893</ele>
        <time>2023-03-31T15:50:22.679Z</time>
      </trkpt>
      <trkpt lat="48.6062" lon="8.09613">
        <ele>184.119144</ele>
        <time>2023-03-31T15:50:35.833Z</time>
      </trkpt>
      <trkpt lat="48.6062" lon="8.09657">
        <ele>185.142678</ele>
        <time>2023-03-31T15:50:43.737Z</time>
      </trkpt>
      <trkpt lat="48.60626" lon="8.09705">
        <ele>186.279678</ele>
        <time>2023-03-31T15:50:52.766Z</time>
      </trkpt>
      <trkpt lat="48.6061" lon="8.09743">
        <ele>187.340396</ele>
        <time>2023-03-31T15:51:03.107Z</time>
      </trkpt>
      <trkpt lat="48.60603" lon="8.09755">
        <ele>187.707925</ele>
        <time>2023-03-31T15:51:06.473Z</time>
      </trkpt>
      <trkpt lat="48.60582" lon="8.09885">
        <ele>190.686865</ele>
        <time>2023-03-31T15:51:34.662Z</time>
      </trkpt>
      <trkpt lat="48.60568" lon="8.09906">
        <ele>191.059654</ele>
        <time>2023-03-31T15:51:39.617Z</time>
      </trkpt>
      <trkpt lat="48.60549" lon="8.09932">
        <ele>191.536147</ele>
        <time>2023-03-31T15:51:46.071Z</time>
      </trkpt>
      <trkpt lat="48.60541" lon="8.09936">
        <ele>191.691806</ele>
        <time>2023-03-31T15:51:48.108Z</time>
      </trkpt>
      <trkpt lat="48.6051" lon="8.09929">
        <ele>192.26721</ele>
        <time>2023-03-31T15:51:55.902Z</time>
      </trkpt>
      <trkpt lat="48.60481" lon="8.09941">
        <ele>192.821593</ele>
        <time>2023-03-31T15:52:03.173Z</time>
      </trkpt>
      <trkpt lat="48.60456" lon="8.09964">
        <ele>193.382538</ele>
        <time>2023-03-31T15:52:10.152Z</time>
      </trkpt>
      <trkpt lat="48.60447" lon="8.09978">
        <ele>193.615673</ele>
        <time>2023-03-31T15:52:12.880Z</time>
      </trkpt>
      <trkpt lat="48.60428" lon="8.10014">
        <ele>193.875225</ele>
        <time>2023-03-31T15:52:19.060Z</time>
      </trkpt>
      <trkpt lat="48.6039" lon="8.1004">
        <ele>193.918531</ele>
        <time>2023-03-31T15:52:27.404Z</time>
      </trkpt>
      <trkpt lat="48.60372" lon="8.10063">
        <ele>193.943117</ele>
        <time>2023-03-31T15:52:32.199Z</time>
      </trkpt>
      <trkpt lat="48.60336" lon="8.10081">
        <ele>193.982072</ele>
        <time>2023-03-31T15:52:40.305Z</time>
      </trkpt>
      <trkpt lat="48.60274" lon="8.10091">
        <ele>194.030426</ele>
        <time>2023-03-31T15:52:53.300Z</time>
      </trkpt>
      <trkpt lat="48.6026" lon="8.10096">
        <ele>193.961322</ele>
        <time>2023-03-31T15:52:55.985Z</time>
      </trkpt>
      <trkpt lat="48.6025" lon="8.10108">
        <ele>193.897384</ele>
        <time>2023-03-31T15:52:58.510Z</time>
      </trkpt>
      <trkpt lat="48.60228" lon="8.10144">
        <ele>193.735079</ele>
        <time>2023-03-31T15:53:04.703Z</time>
      </trkpt>
      <trkpt lat="48.60207" lon="8.10173">
        <ele>193.596505</ele>
        <time>2023-03-31T15:53:09.987Z</time>
      </trkpt>
      <trkpt lat="48.6018" lon="8.10201">
        <ele>193.434268</ele>
        <time>2023-03-31T15:53:16.268Z</time>
      </trkpt>
      <trkpt lat="48.60173" lon="8.10215">
        <ele>193.377879</ele>
        <time>2023-03-31T15:53:18.531Z</time>
      </trkpt>
      <trkpt lat="48.60169" lon="8.10232">
        <ele>193.319663</ele>
        <time>2023-03-31T15:53:20.904Z</time>
      </trkpt>
      <trkpt lat="48.60169" lon="8.10267">
        <ele>193.203885</ele>
        <time>2023-03-31T15:53:25.645Z</time>
      </trkpt>
      <trkpt lat="48.60173" lon="8.10297">
        <ele>193.242191</ele>
        <time>2023-03-31T15:53:30.030Z</time>
      </trkpt>
      <trkpt lat="48.60184" lon="8.10328">
        <ele>193.424048</ele>
        <time>2023-03-31T15:53:35.139Z</time>
      </trkpt>
      <trkpt lat="48.60203" lon="8.10375">
        <ele>193.709789</ele>
        <time>2023-03-31T15:53:43.340Z</time>
      </trkpt>
      <trkpt lat="48.60248" lon="8.10417">
        <ele>194.126414</ele>
        <time>2023-03-31T15:53:55.305Z</time>
      </trkpt>
      <trkpt lat="48.60265" lon="8.10437">
        <ele>194.29079</ele>
        <time>2023-03-31T15:53:59.946Z</time>
      </trkpt>
      <trkpt lat="48.60272" lon="8.10456">
        <ele>194.406696</ele>
        <time>2023-03-31T15:54:03.189Z</time>
      </trkpt>
      <trkpt lat="48.60272" lon="8.10487">
        <ele>194.56835</ele>
        <time>2023-03-31T15:54:07.684Z</time>
      </trkpt>
      <trkpt lat="48.60262" lon="8.10515">
        <ele>194.783915</ele>
        <time>2023-03-31T15:54:12.375Z</time>
      </trkpt>
      <trkpt lat="48.60244" lon="8.10545">
        <ele>195.0639</ele>
        <time>2023-03-31T15:54:18.549Z</time>
      </trkpt>
      <trkpt lat="48.60231" lon="8.10575">
        <ele>195.309281</ele>
        <time>2023-03-31T15:54:24.150Z</time>
      </trkpt>
      <trkpt lat="48.60223" lon="8.10609">
        <ele>195.55654</ele>
        <time>2023-03-31T15:54:29.628Z</time>
      </trkpt>
      <trkpt lat="48.60209" lon="8.10691">
        <ele>196.144148</ele>
        <time>2023-03-31T15:54:42.172Z</time>
      </trkpt>
      <trkpt lat="48.60189" lon="8.10807">
        <ele>196.938618</ele>
        <time>2023-03-31T15:54:59.958Z</time>
      </trkpt>
      <trkpt lat="48.60171" lon="8.10789">
        <ele>197.154937</ele>
        <time>2023-03-31T15:55:06.625Z</time>
      </trkpt>
      <trkpt lat="48.60165" lon="8.10796">
        <ele>197.224955</ele>
        <time>2023-03-31T15:55:08.866Z</time>
      </trkpt>
      <trkpt lat="48.60159" lon="8.10817">
        <ele>197.370812</ele>
        <time>2023-03-31T15:55:13.500Z</time>
      </trkpt>
      <trkpt lat="48.60118" lon="8.10862">
        <ele>197.869194</ele>
        <time>2023-03-31T15:55:29.191Z</time>
      </trkpt>
      <trkpt lat="48.60079" lon="8.10918">
        <ele>198.338441</ele>
        <time>2023-03-31T15:55:45.605Z</time>
      </trkpt>
      <trkpt lat="48.60042" lon="8.10963">
        <ele>198.664294</ele>
        <time>2023-03-31T15:56:00.070Z</time>
      </trkpt>
      <trkpt lat="48.60034" lon="8.10976">
        <ele>198.742423</ele>
        <time>2023-03-31T15:56:03.602Z</time>
      </trkpt>
      <trkpt lat="48.60022" lon="8.10984">
        <ele>198.835008</ele>
        <time>2023-03-31T15:56:07.800Z</time>
      </trkpt>
      <trkpt lat="48.60002" lon="8.10995">
        <ele>198.979309</ele>
        <time>2023-03-31T15:56:14.327Z</time>
      </trkpt>
      <trkpt lat="48.59981" lon="8.11001">
        <ele>199.123875</ele>
        <time>2023-03-31T15:56:20.871Z</time>
      </trkpt>
      <trkpt lat="48.59945" lon="8.11024">
        <ele>199.385671</ele>
        <time>2023-03-31T15:56:32.617Z</time>
      </trkpt>
      <trkpt lat="48.59938" lon="8.11031">
        <ele>199.439407</ele>
        <time>2023-03-31T15:56:35.302Z</time>
      </trkpt>
      <trkpt lat="48.59934" lon="8.11042">
        <ele>199.466623</ele>
        <time>2023-03-31T15:56:37.834Z</time>
      </trkpt>
      <trkpt lat="48.59937" lon="8.11053">
        <ele>199.492705</ele>
        <time>2023-03-31T15:56:39.864Z</time>
      </trkpt>
      <trkpt lat="48.59941" lon="8.1108">
        <ele>199.551623</ele>
        <time>2023-03-31T15:56:43.437Z</time>
      </trkpt>
      <trkpt lat="48.59937" lon="8.11092">
        <ele>199.580889</ele>
        <time>2023-03-31T15:56:45.107Z</time>
      </trkpt>
      <trkpt lat="48.59923" lon="8.11146">
        <ele>199.706181</ele>
        <time>2023-03-31T15:56:52.470Z</time>
      </trkpt>
      <trkpt lat="48.59916" lon="8.11161">
        <ele>199.744637</ele>
        <time>2023-03-31T15:56:54.785Z</time>
      </trkpt>
      <trkpt lat="48.59906" lon="8.11173">
        <ele>199.785892</ele>
        <time>2023-03-31T15:56:57.206Z</time>
      </trkpt>
      <trkpt lat="48.59859" lon="8.11187">
        <ele>199.93925</ele>
        <time>2023-03-31T15:57:06.243Z</time>
      </trkpt>
      <trkpt lat="48.59845" lon="8.11206">
        <ele>200.001324</ele>
        <time>2023-03-31T15:57:09.962Z</time>
      </trkpt>
      <trkpt lat="48.59832" lon="8.11262">
        <ele>200.149863</ele>
        <time>2023-03-31T15:57:17.087Z</time>
      </trkpt>
      <trkpt lat="48.59802" lon="8.11372">
        <ele>200.45595</ele>
        <time>2023-03-31T15:57:31.421Z</time>
      </trkpt>
      <trkpt lat="48.59792" lon="8.1139">
        <ele>200.514606</ele>
        <time>2023-03-31T15:57:34.521Z</time>
      </trkpt>
      <trkpt lat="48.59784" lon="8.11378">
        <ele>200.558774</ele>
        <time>2023-03-31T15:57:36.740Z</time>
      </trkpt>
      <trkpt lat="48.59774" lon="8.11362">
        <ele>200.616124</ele>
        <time>2023-03-31T15:57:39.817Z</time>
      </trkpt>
      <trkpt lat="48.59749" lon="8.11327">
        <ele>200.881824</ele>
        <time>2023-03-31T15:57:46.865Z</time>
      </trkpt>
      <trkpt lat="48.59732" lon="8.11303">
        <ele>201.329387</ele>
        <time>2023-03-31T15:57:51.840Z</time>
      </trkpt>
      <trkpt lat="48.59711" lon="8.11279">
        <ele>201.843415</ele>
        <time>2023-03-31T15:57:57.789Z</time>
      </trkpt>
      <trkpt lat="48.59692" lon="8.11262">
        <ele>202.258018</ele>
        <time>2023-03-31T15:58:02.557Z</time>
      </trkpt>
      <trkpt lat="48.59662" lon="8.11245">
        <ele>202.884555</ele>
        <time>2023-03-31T15:58:09.935Z</time>
      </trkpt>
      <trkpt lat="48.59634" lon="8.11236">
        <ele>203.442638</ele>
        <time>2023-03-31T15:58:16.684Z</time>
      </trkpt>
      <trkpt lat="48.59602" lon="8.11231">
        <ele>204.06522</ele>
        <time>2023-03-31T15:58:24.256Z</time>
      </trkpt>
      <trkpt lat="48.5957" lon="8.11236">
        <ele>204.805634</ele>
        <time>2023-03-31T15:58:31.614Z</time>
      </trkpt>
      <trkpt lat="48.59484" lon="8.11284">
        <ele>207.083469</ele>
        <time>2023-03-31T15:58:53.392Z</time>
      </trkpt>
      <trkpt lat="48.59473" lon="8.11292">
        <ele>207.379875</ele>
        <time>2023-03-31T15:58:56.193Z</time>
      </trkpt>
      <trkpt lat="48.59454" lon="8.11309">
        <ele>207.914179</ele>
        <time>2023-03-31T15:59:01.286Z</time>
      </trkpt>
      <trkpt lat="48.59426" lon="8.11343">
        <ele>208.75355</ele>
        <time>2023-03-31T15:59:09.669Z</time>
      </trkpt>
      <trkpt lat="48.59408" lon="8.11369">
        <ele>209.181834</ele>
        <time>2023-03-31T15:59:15.262Z</time>
      </trkpt>
      <trkpt lat="48.59388" lon="8.11406">
        <ele>209.739344</ele>
        <time>2023-03-31T15:59:22.435Z</time>
      </trkpt>
      <trkpt lat="48.5938" lon="8.11416">
        <ele>209.920136</ele>
        <time>2023-03-31T15:59:24.749Z</time>
      </trkpt>
      <trkpt lat="48.59374" lon="8.11417">
        <ele>210.025276</ele>
        <time>2023-03-31T15:59:26.086Z</time>
      </trkpt>
      <trkpt lat="48.59364" lon="8.1141">
        <ele>210.215885</ele>
        <time>2023-03-31T15:59:28.504Z</time>
      </trkpt>
      <trkpt lat="48.59349" lon="8.11491">
        <ele>211.191982</ele>
        <time>2023-03-31T15:59:40.837Z</time>
      </trkpt>
      <trkpt lat="48.59347" lon="8.11502">
        <ele>211.323028</ele>
        <time>2023-03-31T15:59:42.462Z</time>
      </trkpt>
      <trkpt lat="48.59341" lon="8.11533">
        <ele>211.694844</ele>
        <time>2023-03-31T15:59:47.042Z</time>
      </trkpt>
      <trkpt lat="48.59334" lon="8.11557">
        <ele>211.932479</ele>
        <time>2023-03-31T15:59:50.732Z</time>
      </trkpt>
      <trkpt lat="48.59324" lon="8.11583">
        <ele>212.179956</ele>
        <time>2023-03-31T15:59:54.886Z</time>
      </trkpt>
      <trkpt lat="48.59315" lon="8.11603">
        <ele>212.384731</ele>
        <time>2023-03-31T15:59:58.270Z</time>
      </trkpt>
      <trkpt lat="48.59304" lon="8.11607">
        <ele>212.532358</ele>
        <time>2023-03-31T16:00:00.755Z</time>
      </trkpt>
      <trkpt lat="48.5927" lon="8.11593">
        <ele>212.974734</ele>
        <time>2023-03-31T16:00:08.095Z</time>
      </trkpt>
      <trkpt lat="48.59281" lon="8.11572">
        <ele>213.199078</ele>
        <time>2023-03-31T16:00:11.789Z</time>
      </trkpt>
      <trkpt lat="48.59284" lon="8.11563">
        <ele>213.285296</ele>
        <time>2023-03-31T16:00:13.541Z</time>
      </trkpt>
      <trkpt lat="48.59291" lon="8.11536">
        <ele>213.525594</ele>
        <time>2023-03-31T16:00:18.494Z</time>
      </trkpt>
      <trkpt lat="48.59295" lon="8.11519">
        <ele>213.677839</ele>
        <time>2023-03-31T16:00:21.607Z</time>
      </trkpt>
      <trkpt lat="48.59291" lon="8.11536">
        <ele>213.830084</ele>
        <time>2023-03-31T16:00:24.777Z</time>
      </trkpt>
      <trkpt lat="48.59284" lon="8.11563">
        <ele>214.088078</ele>
        <time>2023-03-31T16:00:29.781Z</time>
      </trkpt>
      <trkpt lat="48.59281" lon="8.11572">
        <ele>214.211939</ele>
        <time>2023-03-31T16:00:31.577Z</time>
      </trkpt>
      <trkpt lat="48.5927" lon="8.11593">
        <ele>214.534231</ele>
        <time>2023-03-31T16:00:35.575Z</time>
      </trkpt>
      <trkpt lat="48.59256" lon="8.11611">
        <ele>214.864462</ele>
        <time>2023-03-31T16:00:39.627Z</time>
      </trkpt>
      <trkpt lat="48.5925" lon="8.11616">
        <ele>214.988934</ele>
        <time>2023-03-31T16:00:41.201Z</time>
      </trkpt>
      <trkpt lat="48.59211" lon="8.11659">
        <ele>215.857934</ele>
        <time>2023-03-31T16:00:51.875Z</time>
      </trkpt>
      <trkpt lat="48.59203" lon="8.11668">
        <ele>216.056879</ele>
        <time>2023-03-31T16:00:54.333Z</time>
      </trkpt>
      <trkpt lat="48.592" lon="8.11671">
        <ele>216.119122</ele>
        <time>2023-03-31T16:00:55.103Z</time>
      </trkpt>
      <trkpt lat="48.59194" lon="8.11677">
        <ele>216.242919</ele>
        <time>2023-03-31T16:00:56.625Z</time>
      </trkpt>
      <trkpt lat="48.59176" lon="8.11696">
        <ele>216.63594</ele>
        <time>2023-03-31T16:01:01.476Z</time>
      </trkpt>
      <trkpt lat="48.59163" lon="8.11711">
        <ele>216.935513</ele>
        <time>2023-03-31T16:01:05.201Z</time>
      </trkpt>
      <trkpt lat="48.59151" lon="8.11724">
        <ele>217.203179</ele>
        <time>2023-03-31T16:01:08.544Z</time>
      </trkpt>
      <trkpt lat="48.59136" lon="8.1174">
        <ele>217.551104</ele>
        <time>2023-03-31T16:01:12.722Z</time>
      </trkpt>
      <trkpt lat="48.59119" lon="8.11761">
        <ele>217.977549</ele>
        <time>2023-03-31T16:01:17.763Z</time>
      </trkpt>
      <trkpt lat="48.59103" lon="8.11775">
        <ele>218.339842</ele>
        <time>2023-03-31T16:01:22.051Z</time>
      </trkpt>
      <trkpt lat="48.59087" lon="8.11786">
        <ele>218.676393</ele>
        <time>2023-03-31T16:01:26.007Z</time>
      </trkpt>
      <trkpt lat="48.5908" lon="8.1179">
        <ele>218.830567</ele>
        <time>2023-03-31T16:01:27.836Z</time>
      </trkpt>
      <trkpt lat="48.59077" lon="8.11792">
        <ele>218.883658</ele>
        <time>2023-03-31T16:01:28.465Z</time>
      </trkpt>
      <trkpt lat="48.59058" lon="8.11813">
        <ele>219.342798</ele>
        <time>2023-03-31T16:01:33.840Z</time>
      </trkpt>
      <trkpt lat="48.59057" lon="8.11814">
        <ele>219.372154</ele>
        <time>2023-03-31T16:01:34.188Z</time>
      </trkpt>
      <trkpt lat="48.59037" lon="8.11837">
        <ele>219.854975</ele>
        <time>2023-03-31T16:01:39.696Z</time>
      </trkpt>
      <trkpt lat="48.59022" lon="8.11852">
        <ele>220.199572</ele>
        <time>2023-03-31T16:01:43.621Z</time>
      </trkpt>
      <trkpt lat="48.59016" lon="8.11858">
        <ele>220.338193</ele>
        <time>2023-03-31T16:01:45.169Z</time>
      </trkpt>
      <trkpt lat="48.58992" lon="8.11884">
        <ele>220.9721</ele>
        <time>2023-03-31T16:01:51.682Z</time>
      </trkpt>
      <trkpt lat="48.58988" lon="8.11889">
        <ele>221.104747</ele>
        <time>2023-03-31T16:01:52.724Z</time>
      </trkpt>
      <trkpt lat="48.58975" lon="8.11898">
        <ele>221.485229</ele>
        <time>2023-03-31T16:01:55.848Z</time>
      </trkpt>
      <trkpt lat="48.58952" lon="8.11907">
        <ele>222.143705</ele>
        <time>2023-03-31T16:02:01.347Z</time>
      </trkpt>
      <trkpt lat="48.58928" lon="8.1191">
        <ele>222.769679</ele>
        <time>2023-03-31T16:02:06.754Z</time>
      </trkpt>
      <trkpt lat="48.58904" lon="8.11927">
        <ele>223.491248</ele>
        <time>2023-03-31T16:02:13.147Z</time>
      </trkpt>
      <trkpt lat="48.58883" lon="8.1195">
        <ele>224.203398</ele>
        <time>2023-03-31T16:02:19.565Z</time>
      </trkpt>
      <trkpt lat="48.58857" lon="8.11987">
        <ele>225.161253</ele>
        <time>2023-03-31T16:02:28.424Z</time>
      </trkpt>
      <trkpt lat="48.58854" lon="8.11992">
        <ele>225.291355</ele>
        <time>2023-03-31T16:02:29.657Z</time>
      </trkpt>
      <trkpt lat="48.5883" lon="8.12027">
        <ele>226.491789</ele>
        <time>2023-03-31T16:02:38.092Z</time>
      </trkpt>
      <trkpt lat="48.58766" lon="8.12116">
        <ele>230.072578</ele>
        <time>2023-03-31T16:03:00.327Z</time>
      </trkpt>
      <trkpt lat="48.58738" lon="8.12164">
        <ele>231.812763</ele>
        <time>2023-03-31T16:03:11.810Z</time>
      </trkpt>
      <trkpt lat="48.58703" lon="8.12237">
        <ele>234.307462</ele>
        <time>2023-03-31T16:03:27.975Z</time>
      </trkpt>
      <trkpt lat="48.58691" lon="8.12255">
        <ele>235.027752</ele>
        <time>2023-03-31T16:03:32.582Z</time>
      </trkpt>
      <trkpt lat="48.5867" lon="8.12272">
        <ele>236.026593</ele>
        <time>2023-03-31T16:03:39.001Z</time>
      </trkpt>
      <trkpt lat="48.58661" lon="8.12284">
        <ele>236.534691</ele>
        <time>2023-03-31T16:03:42.253Z</time>
      </trkpt>
      <trkpt lat="48.58657" lon="8.12287">
        <ele>236.724415</ele>
        <time>2023-03-31T16:03:43.523Z</time>
      </trkpt>
      <trkpt lat="48.58628" lon="8.12313">
        <ele>238.157584</ele>
        <time>2023-03-31T16:03:52.608Z</time>
      </trkpt>
      <trkpt lat="48.58603" lon="8.12353">
        <ele>239.670737</ele>
        <time>2023-03-31T16:04:02.103Z</time>
      </trkpt>
      <trkpt lat="48.58546" lon="8.12372">
        <ele>241.330428</ele>
        <time>2023-03-31T16:04:16.704Z</time>
      </trkpt>
      <trkpt lat="48.58527" lon="8.12392">
        <ele>241.768506</ele>
        <time>2023-03-31T16:04:21.918Z</time>
      </trkpt>
      <trkpt lat="48.58506" lon="8.12418">
        <ele>242.287244</ele>
        <time>2023-03-31T16:04:27.925Z</time>
      </trkpt>
      <trkpt lat="48.58486" lon="8.12428">
        <ele>242.672049</ele>
        <time>2023-03-31T16:04:32.471Z</time>
      </trkpt>
      <trkpt lat="48.5846" lon="8.1247">
        <ele>243.405065</ele>
        <time>2023-03-31T16:04:40.805Z</time>
      </trkpt>
      <trkpt lat="48.58409" lon="8.1253">
        <ele>244.267114</ele>
        <time>2023-03-31T16:04:54.102Z</time>
      </trkpt>
      <trkpt lat="48.58332" lon="8.12572">
        <ele>244.824979</ele>
        <time>2023-03-31T16:05:11.312Z</time>
      </trkpt>
      <trkpt lat="48.58294" lon="8.12608">
        <ele>245.134368</ele>
        <time>2023-03-31T16:05:21.667Z</time>
      </trkpt>
      <trkpt lat="48.5824" lon="8.12637">
        <ele>245.28317</ele>
        <time>2023-03-31T16:05:34.495Z</time>
      </trkpt>
      <trkpt lat="48.58233" lon="8.12636">
        <ele>245.280069</ele>
        <time>2023-03-31T16:05:36.029Z</time>
      </trkpt>
      <trkpt lat="48.58226" lon="8.12643">
        <ele>245.276334</ele>
        <time>2023-03-31T16:05:38.551Z</time>
      </trkpt>
      <trkpt lat="48.58203" lon="8.12656">
        <ele>245.265458</ele>
        <time>2023-03-31T16:05:45.892Z</time>
      </trkpt>
      <trkpt lat="48.58194" lon="8.12658">
        <ele>245.261292</ele>
        <time>2023-03-31T16:05:48.697Z</time>
      </trkpt>
      <trkpt lat="48.58165" lon="8.1265">
        <ele>245.248598</ele>
        <time>2023-03-31T16:05:57.092Z</time>
      </trkpt>
      <trkpt lat="48.58169" lon="8.1269">
        <ele>245.236913</ele>
        <time>2023-03-31T16:06:04.822Z</time>
      </trkpt>
      <trkpt lat="48.58168" lon="8.12784">
        <ele>245.581063</ele>
        <time>2023-03-31T16:06:23.411Z</time>
      </trkpt>
      <trkpt lat="48.58174" lon="8.12819">
        <ele>245.998537</ele>
        <time>2023-03-31T16:06:28.851Z</time>
      </trkpt>
      <trkpt lat="48.5819" lon="8.12884">
        <ele>246.799802</ele>
        <time>2023-03-31T16:06:38.659Z</time>
      </trkpt>
      <trkpt lat="48.58183" lon="8.1288">
        <ele>246.931651</ele>
        <time>2023-03-31T16:06:40.457Z</time>
      </trkpt>
      <trkpt lat="48.58121" lon="8.12881">
        <ele>248.019116</ele>
        <time>2023-03-31T16:06:54.528Z</time>
      </trkpt>
      <trkpt lat="48.58094" lon="8.12881">
        <ele>248.586306</ele>
        <time>2023-03-31T16:07:01.385Z</time>
      </trkpt>
      <trkpt lat="48.58092" lon="8.12889">
        <ele>248.753252</ele>
        <time>2023-03-31T16:07:02.539Z</time>
      </trkpt>
      <trkpt lat="48.58073" lon="8.12919">
        <ele>249.645208</ele>
        <time>2023-03-31T16:07:09.886Z</time>
      </trkpt>
      <trkpt lat="48.58068" lon="8.12935">
        <ele>250.032284</ele>
        <time>2023-03-31T16:07:12.776Z</time>
      </trkpt>
      <trkpt lat="48.58047" lon="8.13063">
        <ele>252.849331</ele>
        <time>2023-03-31T16:07:35.761Z</time>
      </trkpt>
      <trkpt lat="48.58011" lon="8.13156">
        <ele>254.435449</ele>
        <time>2023-03-31T16:07:51.602Z</time>
      </trkpt>
      <trkpt lat="48.57952" lon="8.13288">
        <ele>255.400401</ele>
        <time>2023-03-31T16:08:12.695Z</time>
      </trkpt>
      <trkpt lat="48.57927" lon="8.13324">
        <ele>255.719475</ele>
        <time>2023-03-31T16:08:19.121Z</time>
      </trkpt>
      <trkpt lat="48.57884" lon="8.13426">
        <ele>256.114715</ele>
        <time>2023-03-31T16:08:35.088Z</time>
      </trkpt>
      <trkpt lat="48.57867" lon="8.13455">
        <ele>256.230858</ele>
        <time>2023-03-31T16:08:40.424Z</time>
      </trkpt>
      <trkpt lat="48.57857" lon="8.13468">
        <ele>256.28953</ele>
        <time>2023-03-31T16:08:43.381Z</time>
      </trkpt>
      <trkpt lat="48.57857" lon="8.13476">
        <ele>256.312893</ele>
        <time>2023-03-31T16:08:44.335Z</time>
      </trkpt>
      <trkpt lat="48.57837" lon="8.13514">
        <ele>256.452098</ele>
        <time>2023-03-31T16:08:50.600Z</time>
      </trkpt>
      <trkpt lat="48.57827" lon="8.13594">
        <ele>256.598998</ele>
        <time>2023-03-31T16:09:00.076Z</time>
      </trkpt>
      <trkpt lat="48.57826" lon="8.1361">
        <ele>256.598998</ele>
        <time>2023-03-31T16:09:02.030Z</time>
      </trkpt>
      <trkpt lat="48.57826" lon="8.13621">
        <ele>256.598998</ele>
        <time>2023-03-31T16:09:03.370Z</time>
      </trkpt>
      <trkpt lat="48.57863" lon="8.13614">
        <ele>256.598998</ele>
        <time>2023-03-31T16:09:10.676Z</time>
      </trkpt>
      <trkpt lat="48.57881" lon="8.13605">
        <ele>256.598998</ele>
        <time>2023-03-31T16:09:14.354Z</time>
      </trkpt>
      <trkpt lat="48.57892" lon="8.13596">
        <ele>256.598998</ele>
        <time>2023-03-31T16:09:16.856Z</time>
      </trkpt>
      <trkpt lat="48.57934" lon="8.13544">
        <ele>256.598998</ele>
        <time>2023-03-31T16:09:27.661Z</time>
      </trkpt>
      <trkpt lat="48.57947" lon="8.1352">
        <ele>256.598998</ele>
        <time>2023-03-31T16:09:31.806Z</time>
      </trkpt>
      <trkpt lat="48.57956" lon="8.13533">
        <ele>256.598998</ele>
        <time>2023-03-31T16:09:34.094Z</time>
      </trkpt>
      <trkpt lat="48.57967" lon="8.13547">
        <ele>256.598998</ele>
        <time>2023-03-31T16:09:36.538Z</time>
      </trkpt>
      <trkpt lat="48.57973" lon="8.13551">
        <ele>256.598998</ele>
        <time>2023-03-31T16:09:37.653Z</time>
      </trkpt>
    </trkseg>
  </trk>
</gpx>